Provisional Data: Hammer Creek near Route 322


Please select a monitoring station.
Please select start date.
Please select start date.

Toggle Unit: C/F Toggle Unit: C/F
Sample Time Temperature (C) Temperature (F) Specific Conductivity (mS/cm) pH   Turbidity (NTU+) DO (mg/L)
1/12/2021 12:00:00 AM 5.21 41.378 0.493 8.06 3.44 12.36
1/12/2021 12:15:00 AM 5.16 41.288 0.493 8.06 3.66 12.38
1/12/2021 12:30:00 AM 5.1 41.18 0.493 8.06 3.69 12.39
1/12/2021 12:45:00 AM 5.05 41.09 0.493 8.06 3.46 12.41
1/12/2021 1:00:00 AM 5 41 0.493 8.06 3.53 12.42
1/12/2021 1:15:00 AM 4.95 40.91 0.493 8.06 3.44 12.44
1/12/2021 1:30:00 AM 4.91 40.838 0.493 8.06 3.86 12.46
1/12/2021 1:45:00 AM 4.87 40.766 0.493 8.06 3.36 12.48
1/12/2021 2:00:00 AM 4.83 40.694 0.494 8.06 3.63 12.49
1/12/2021 2:15:00 AM 4.79 40.622 0.494 8.06 3.66 12.5
1/12/2021 2:30:00 AM 4.75 40.55 0.494 8.06 3.83 12.52
1/12/2021 2:45:00 AM 4.72 40.496 0.494 8.06 3.76 12.53
1/12/2021 3:00:00 AM 4.68 40.424 0.494 8.06 3.7 12.55
1/12/2021 3:15:00 AM 4.65 40.37 0.494 8.05 3.63 12.56
1/12/2021 3:30:00 AM 4.61 40.298 0.495 8.06 5.78 12.57
1/12/2021 3:45:00 AM 4.58 40.244 0.495 8.06 3.9 12.57
1/12/2021 4:00:00 AM 4.55 40.19 0.495 8.06 3.84 12.59
1/12/2021 4:15:00 AM 4.51 40.118 0.495 8.06 4 12.6
1/12/2021 4:30:00 AM 4.48 40.064 0.496 8.06 4.05 12.6
1/12/2021 4:45:00 AM 4.45 40.01 0.496 8.06 4.25 12.61
1/12/2021 5:00:00 AM 4.42 39.956 0.496 8.06 3.79 12.62
1/12/2021 5:15:00 AM 4.39 39.902 0.496 8.06 3.96 12.63
1/12/2021 5:30:00 AM 4.37 39.866 0.496 8.06 3.92 12.64
1/12/2021 5:45:00 AM 4.34 39.812 0.496 8.06 4.15 12.65
1/12/2021 6:00:00 AM 4.32 39.776 0.496 8.06 3.79 12.65
1/12/2021 6:15:00 AM 4.29 39.722 0.497 8.06 3.92 12.66
1/12/2021 6:30:00 AM 4.27 39.686 0.497 8.06 3.89 12.67
1/12/2021 6:45:00 AM 4.24 39.632 0.497 8.06 3.76 12.68
1/12/2021 7:00:00 AM 4.21 39.578 0.497 8.06 3.75 12.69
1/12/2021 7:15:00 AM 4.19 39.542 0.497 8.06 3.73 12.7
1/12/2021 7:30:00 AM 4.17 39.506 0.497 8.06 3.66 12.71
1/12/2021 7:45:00 AM 4.15 39.47 0.497 8.06 3.78 12.73
1/12/2021 8:00:00 AM 4.13 39.434 0.497 8.06 3.99 12.75
1/12/2021 8:15:00 AM 4.11 39.398 0.498 8.07 3.65 12.79
1/12/2021 8:30:00 AM 4.11 39.398 0.498 8.07 3.49 12.82
1/12/2021 8:45:00 AM 4.11 39.398 0.498 8.07 4.37 12.86
1/12/2021 9:00:00 AM 4.12 39.416 0.497 8.08 4.64 12.9
1/12/2021 9:15:00 AM 4.13 39.434 0.498 8.09 4.03 12.95
1/12/2021 9:30:00 AM 4.16 39.488 0.498 8.1 4.66 13
1/12/2021 9:45:00 AM 4.21 39.578 0.498 8.1 3.91 13.05
1/12/2021 10:00:00 AM 4.27 39.686 0.497 8.11 3.83 13.11
1/12/2021 10:15:00 AM 4.35 39.83 0.497 8.12 4.3 13.17
1/12/2021 10:30:00 AM 4.45 40.01 0.497 8.14 4.29 13.24
1/12/2021 10:45:00 AM 4.57 40.226 0.497 8.15 4.22 13.31
1/12/2021 11:00:00 AM 4.68 40.424 0.496 8.16 4.56 13.36
1/12/2021 11:15:00 AM 4.82 40.676 0.496 8.17 5.02 13.42
1/12/2021 11:30:00 AM 4.96 40.928 0.495 8.19 5.28 13.45
1/12/2021 11:45:00 AM 5.09 41.162 0.495 8.2 4.23 13.49
1/12/2021 12:00:00 PM 5.22 41.396 0.495 8.22 3.75 13.53
1/12/2021 12:15:00 PM 5.35 41.63 0.495 8.23 3.33 13.57
1/12/2021 12:30:00 PM 5.49 41.882 0.495 8.24 5.45 13.61
1/12/2021 12:45:00 PM 5.65 42.17 0.507 8.26 3.26 13.61
1/12/2021 1:00:00 PM 5.82 42.476 0.498 8.28 3.41 13.62
1/12/2021 1:15:00 PM 5.99 42.782 0.496 8.29 3.53 13.63
1/12/2021 1:30:00 PM 6.15 43.07 0.495 8.31 3.71 13.62
1/12/2021 1:45:00 PM 6.32 43.376 0.494 8.32 3.8 13.6
1/12/2021 2:00:00 PM 6.47 43.646 0.493 8.33 3.74 13.57
1/12/2021 2:15:00 PM 6.58 43.844 0.493 8.34 4.5 13.53
1/12/2021 2:30:00 PM 6.69 44.042 0.492 8.35 3.98 13.49
1/12/2021 2:45:00 PM 6.8 44.24 0.492 8.36 3.77 13.44
1/12/2021 3:00:00 PM 6.88 44.384 0.491 8.36 3.83 13.38
1/12/2021 3:15:00 PM 6.95 44.51 0.491 8.36 3.94 13.31
1/12/2021 3:30:00 PM 6.99 44.582 0.49 8.36 3.82 13.23
1/12/2021 3:45:00 PM 7.02 44.636 0.49 8.36 4.02 13.16
1/12/2021 4:00:00 PM 7.05 44.69 0.49 8.35 4.34 13.07
1/12/2021 4:15:00 PM 7.07 44.726 0.49 8.35 3.65 12.98
1/12/2021 4:30:00 PM 7.08 44.744 0.49 8.34 3.48 12.88
1/12/2021 4:45:00 PM 7.07 44.726 0.49 8.32 3.66 12.77
1/12/2021 5:00:00 PM 7.05 44.69 0.49 8.31 3.35 12.67
1/12/2021 5:15:00 PM 7.04 44.672 0.49 8.3 3.77 12.56
1/12/2021 5:30:00 PM 7.02 44.636 0.49 8.28 3.53 12.47
1/12/2021 5:45:00 PM 7 44.6 0.49 8.26 4.26 12.38
1/12/2021 6:00:00 PM 6.97 44.546 0.49 8.25 4.12 12.31
1/12/2021 6:15:00 PM 6.94 44.492 0.491 8.24 4.03 12.25
1/12/2021 6:30:00 PM 6.9 44.42 0.491 8.22 3.96 12.2
1/12/2021 6:45:00 PM 6.86 44.348 0.492 8.21 3.96 12.16
1/12/2021 7:00:00 PM 6.81 44.258 0.492 8.2 3.78 12.13
1/12/2021 7:15:00 PM 6.75 44.15 0.492 8.19 3.57 12.11
1/12/2021 7:30:00 PM 6.69 44.042 0.493 8.18 3.63 12.09
1/12/2021 7:45:00 PM 6.63 43.934 0.493 8.17 3.51 12.08
1/12/2021 8:00:00 PM 6.57 43.826 0.494 8.16 3.51 12.08
1/12/2021 8:15:00 PM 6.52 43.736 0.493 8.15 3.73 12.08
1/12/2021 8:30:00 PM 6.47 43.646 0.494 8.15 3.58 12.08
1/12/2021 8:45:00 PM 6.41 43.538 0.495 8.14 3.24 12.07
1/12/2021 9:00:00 PM 6.36 43.448 0.495 8.13 3.44 12.08
1/12/2021 9:15:00 PM 6.3 43.34 0.495 8.12 3.2 12.08
1/12/2021 9:30:00 PM 6.25 43.25 0.496 8.11 3.52 12.08
1/12/2021 9:45:00 PM 6.2 43.16 0.496 8.11 3.39 12.08
1/12/2021 10:00:00 PM 6.16 43.088 0.497 8.1 3.4 12.09
1/12/2021 10:15:00 PM 6.12 43.016 0.497 8.09 3.43 12.09
1/12/2021 10:30:00 PM 6.07 42.926 0.497 8.09 3.58 12.1
1/12/2021 10:45:00 PM 6.01 42.818 0.498 8.09 3.5 12.11
1/12/2021 11:00:00 PM 5.95 42.71 0.497 8.08 3.63 12.12
1/12/2021 11:15:00 PM 5.91 42.638 0.498 8.08 4.33 12.13
1/12/2021 11:30:00 PM 5.87 42.566 0.498 8.08 3.85 12.14
1/12/2021 11:45:00 PM 5.83 42.494 0.498 8.08 4.13 12.15
1/13/2021 12:00:00 AM 5.8 42.44 0.498 8.07 4.04 12.16
1/13/2021 12:15:00 AM 5.78 42.404 0.498 8.07 3.89 12.16
1/13/2021 12:30:00 AM 5.76 42.368 0.497 8.07 3.59 12.17
1/13/2021 12:45:00 AM 5.75 42.35 0.499 8.07 3.7 12.17
1/13/2021 1:00:00 AM 5.75 42.35 0.5 8.07 3.47 12.17
1/13/2021 1:15:00 AM 5.75 42.35 0.499 8.07 3.73 12.17
1/13/2021 1:30:00 AM 5.76 42.368 0.499 8.07 4.08 12.16
1/13/2021 1:45:00 AM 5.76 42.368 0.498 8.07 4.11 12.17
1/13/2021 2:00:00 AM 5.76 42.368 0.498 8.07 4.11 12.16
1/13/2021 2:15:00 AM 5.74 42.332 0.498 8.06 4.76 12.16
1/13/2021 2:30:00 AM 5.71 42.278 0.499 8.06 4.63 12.16
1/13/2021 2:45:00 AM 5.69 42.242 0.499 8.06 3.94 12.17
1/13/2021 3:00:00 AM 5.66 42.188 0.5 8.06 3.78 12.17
1/13/2021 3:15:00 AM 5.63 42.134 0.508 8.07 4.51 12.18
1/13/2021 3:30:00 AM 5.59 42.062 0.525 8.07 5.7 12.18
1/13/2021 3:45:00 AM 5.56 42.008 0.508 8.07 5.11 12.19
1/13/2021 4:00:00 AM 5.52 41.936 0.495 8.06 4.64 12.2
1/13/2021 4:15:00 AM 5.49 41.882 0.5 8.06 4.53 12.21
1/13/2021 4:30:00 AM 5.46 41.828 0.496 8.07 4.73 12.22
1/13/2021 4:45:00 AM 5.44 41.792 0.496 8.07 4.96 12.22
1/13/2021 5:00:00 AM 5.41 41.738 0.496 8.07 4.34 12.23
1/13/2021 5:15:00 AM 5.4 41.72 0.496 8.07 4.34 12.23
1/13/2021 5:30:00 AM 5.38 41.684 0.496 8.07 4.04 12.24
1/13/2021 5:45:00 AM 5.35 41.63 0.496 8.07 4.24 12.25
1/13/2021 6:00:00 AM 5.33 41.594 0.497 8.07 4.43 12.26
1/13/2021 6:15:00 AM 5.31 41.558 0.497 8.07 4.2 12.26
1/13/2021 6:30:00 AM 5.28 41.504 0.497 8.07 4.09 12.27
1/13/2021 6:45:00 AM 5.26 41.468 0.497 8.07 4.1 12.28
1/13/2021 7:00:00 AM 5.23 41.414 0.497 8.07 3.86 12.29
1/13/2021 7:15:00 AM 5.2 41.36 0.497 8.06 3.95 12.3
1/13/2021 7:30:00 AM 5.2 41.36 0.497 8.07 3.88 12.31
1/13/2021 7:45:00 AM 5.2 41.36 0.497 8.07 4.19 12.32
1/13/2021 8:00:00 AM 5.2 41.36 0.497 8.07 3.96 12.34
1/13/2021 8:15:00 AM 5.22 41.396 0.497 8.07 4.1 12.37
1/13/2021 8:30:00 AM 5.24 41.432 0.497 8.08 3.78 12.39
1/13/2021 8:45:00 AM 5.27 41.486 0.497 8.08 3.78 12.45
1/13/2021 9:00:00 AM 5.32 41.576 0.497 8.09 3.79 12.51
1/13/2021 9:15:00 AM 5.38 41.684 0.497 8.1 3.91 12.58
1/13/2021 9:30:00 AM 5.44 41.792 0.494 8.11 3.91 12.66
1/13/2021 9:45:00 AM 5.52 41.936 0.509 8.12 3.92 12.74
1/13/2021 10:00:00 AM 5.6 42.08 0.499 8.13 4.14 12.83
1/13/2021 10:15:00 AM 5.67 42.206 0.5 8.15 3.88 12.93
1/13/2021 10:30:00 AM 5.72 42.296 0.498 8.16 3.8 13
1/13/2021 10:45:00 AM 5.8 42.44 0.498 8.18 4.21 13.09
1/13/2021 11:00:00 AM 5.87 42.566 0.498 8.2 4.14 13.17
1/13/2021 11:15:00 AM 5.95 42.71 0.497 8.21 3.89 13.23
1/13/2021 11:30:00 AM 6.05 42.89 0.497 8.23 3.38 13.3
1/13/2021 11:45:00 AM 6.13 43.034 0.497 8.25 3.4 13.35
1/13/2021 12:00:00 PM 6.2 43.16 0.496 8.26 3.28 13.38
1/13/2021 12:15:00 PM 6.3 43.34 0.496 8.27 3.21 13.41
1/13/2021 12:30:00 PM 6.39 43.502 0.495 8.29 2.96 13.44
1/13/2021 12:45:00 PM 6.5 43.7 0.495 8.3 3.24 13.47
1/13/2021 1:00:00 PM 6.69 44.042 0.494 8.32 2.92 13.51
1/13/2021 1:15:00 PM 6.83 44.294 0.493 8.33 3.05 13.53
1/13/2021 1:30:00 PM 6.91 44.438 0.493 8.35 3.09 13.54
1/13/2021 1:45:00 PM 6.96 44.528 0.492 8.36 3.61 13.53
1/13/2021 2:00:00 PM 7.04 44.672 0.491 8.37 3.16 13.51
1/13/2021 2:15:00 PM 7.11 44.798 0.491 8.39 5.13 13.5
1/13/2021 2:30:00 PM 7.16 44.888 0.49 8.4 3.26 13.47
1/13/2021 2:45:00 PM 7.22 44.996 0.49 8.4 3.27 13.44
1/13/2021 3:00:00 PM 7.26 45.068 0.49 8.41 2.99 13.41
1/13/2021 3:15:00 PM 7.3 45.14 0.49 8.41 3.54 13.36
1/13/2021 3:30:00 PM 7.33 45.194 0.49 8.41 3.36 13.29
1/13/2021 3:45:00 PM 7.33 45.194 0.49 8.41 3.27 13.21
1/13/2021 4:00:00 PM 7.33 45.194 0.49 8.4 3.51 13.12
1/13/2021 4:15:00 PM 7.32 45.176 0.49 8.39 3.62 13.03
1/13/2021 4:30:00 PM 7.31 45.158 0.49 8.38 3.52 12.93
1/13/2021 4:45:00 PM 7.29 45.122 0.491 8.37 3.18 12.81
1/13/2021 5:00:00 PM 7.26 45.068 0.491 8.34 3.6 12.69
1/13/2021 5:15:00 PM 7.24 45.032 0.491 8.33 3.53 12.56
1/13/2021 5:30:00 PM 7.22 44.996 0.491 8.31 3.6 12.45
1/13/2021 5:45:00 PM 7.2 44.96 0.491 8.29 3.99 12.35
1/13/2021 6:00:00 PM 7.18 44.924 0.491 8.28 3.5 12.27
1/13/2021 6:15:00 PM 7.16 44.888 0.491 8.27 3.66 12.19
1/13/2021 6:30:00 PM 7.13 44.834 0.491 8.25 3.72 12.12
1/13/2021 6:45:00 PM 7.09 44.762 0.491 8.24 4.1 12.07
1/13/2021 7:00:00 PM 7.05 44.69 0.492 8.23 3.82 12.03
1/13/2021 7:15:00 PM 7.02 44.636 0.492 8.21 3.75 12
1/13/2021 7:30:00 PM 6.98 44.564 0.492 8.2 3.62 11.98
1/13/2021 7:45:00 PM 6.93 44.474 0.492 8.19 3.37 11.96
1/13/2021 8:00:00 PM 6.88 44.384 0.493 8.19 3.58 11.94
1/13/2021 8:15:00 PM 6.83 44.294 0.493 8.17 3.35 11.93
1/13/2021 8:30:00 PM 6.77 44.186 0.493 8.16 3.43 11.93
1/13/2021 8:45:00 PM 6.7 44.06 0.494 8.16 3.1 11.92
1/13/2021 9:00:00 PM 6.63 43.934 0.494 8.14 3.39 11.92
1/13/2021 9:15:00 PM 6.55 43.79 0.495 8.14 3.53 11.9
1/13/2021 9:30:00 PM 6.48 43.664 0.495 8.13 3.4 11.9
1/13/2021 9:45:00 PM 6.41 43.538 0.496 8.12 3.4 11.9
1/13/2021 10:00:00 PM 6.35 43.43 0.497 8.11 3.46 11.91
1/13/2021 10:15:00 PM 6.28 43.304 0.497 8.1 3.52 11.91
1/13/2021 10:30:00 PM 6.22 43.196 0.497 8.1 3.5 11.93
1/13/2021 10:45:00 PM 6.17 43.106 0.497 8.09 3.39 11.94
1/13/2021 11:00:00 PM 6.13 43.034 0.497 8.09 3.52 11.95
1/13/2021 11:15:00 PM 6.1 42.98 0.498 8.08 3.46 11.96
1/13/2021 11:30:00 PM 6.06 42.908 0.498 8.08 3.45 11.97
1/13/2021 11:45:00 PM 6.02 42.836 0.498 8.08 4.43 11.98
1/14/2021 12:00:00 AM 5.97 42.746 0.498 8.08 3.48 11.99
1/14/2021 12:15:00 AM 5.93 42.674 0.498 8.08 3.48 12
1/14/2021 12:30:00 AM 5.88 42.584 0.498 8.08 3.53 12.01
1/14/2021 12:45:00 AM 5.84 42.512 0.497 8.07 4.38 12.02
1/14/2021 1:00:00 AM 5.79 42.422 0.498 8.07 4.38 12.02
1/14/2021 1:15:00 AM 5.74 42.332 0.5 8.07 3.64 12.04
1/14/2021 1:30:00 AM 5.7 42.26 0.498 8.07 3.98 12.05
1/14/2021 1:45:00 AM 5.68 42.224 0.499 8.07 3.4 12.06
1/14/2021 2:00:00 AM 5.66 42.188 0.498 8.07 3.49 12.07
1/14/2021 2:15:00 AM 5.64 42.152 0.499 8.07 3.49 12.07
1/14/2021 2:30:00 AM 5.64 42.152 0.501 8.07 3.51 12.07
1/14/2021 2:45:00 AM 5.63 42.134 0.508 8.06 3.64 12.08
1/14/2021 3:00:00 AM 5.64 42.152 0.524 8.07 3.74 12.08
1/14/2021 3:15:00 AM 5.65 42.17 0.5 8.07 3.38 12.07
1/14/2021 3:30:00 AM 5.67 42.206 0.499 8.07 3.51 12.07
1/14/2021 3:45:00 AM 5.69 42.242 0.499 8.07 4.13 12.06
1/14/2021 4:00:00 AM 5.71 42.278 0.499 8.07 3.96 12.06
1/14/2021 4:15:00 AM 5.73 42.314 0.499 8.07 3.75 12.05
1/14/2021 4:30:00 AM 5.74 42.332 0.499 8.07 3.78 12.04
1/14/2021 4:45:00 AM 5.74 42.332 0.499 8.07 4.37 12.04
1/14/2021 5:00:00 AM 5.75 42.35 0.499 8.07 4.74 12.03
1/14/2021 5:15:00 AM 5.75 42.35 0.499 8.07 4.12 12.03
1/14/2021 5:30:00 AM 5.75 42.35 0.499 8.07 4.16 12.03
1/14/2021 5:45:00 AM 5.75 42.35 0.499 8.07 4.18 12.03
1/14/2021 6:00:00 AM 5.75 42.35 0.499 8.07 4.25 12.03
1/14/2021 6:15:00 AM 5.75 42.35 0.499 8.07 4.52 12.02
1/14/2021 6:30:00 AM 5.75 42.35 0.5 8.07 5.37 12.03
1/14/2021 6:45:00 AM 5.75 42.35 0.499 8.07 3.94 12.03
1/14/2021 7:00:00 AM 5.75 42.35 0.498 8.07 4.1 12.03
1/14/2021 7:15:00 AM 5.75 42.35 0.499 8.07 3.97 12.02
1/14/2021 7:30:00 AM 5.77 42.386 0.499 8.07 6.38 12.01
1/14/2021 7:45:00 AM 5.79 42.422 0.498 8.07 5.34 12.03
1/14/2021 8:00:00 AM 5.81 42.458 0.498 8.07 3.38 12.05
1/14/2021 8:15:00 AM 5.84 42.512 0.499 8.07 3.23 12.07
1/14/2021 8:30:00 AM 5.87 42.566 0.498 8.08 3.22 12.11
1/14/2021 8:45:00 AM 5.91 42.638 0.498 8.08 2.95 12.16
1/14/2021 9:00:00 AM 5.96 42.728 0.498 8.09 3.33 12.22
1/14/2021 9:15:00 AM 6.02 42.836 0.498 8.1 3.16 12.3
1/14/2021 9:30:00 AM 6.08 42.944 0.498 8.11 3 12.39
1/14/2021 9:45:00 AM 6.12 43.016 0.498 8.13 2.97 12.49
1/14/2021 10:00:00 AM 6.19 43.142 0.497 8.14 3.24 12.59
1/14/2021 10:15:00 AM 6.27 43.286 0.497 8.15 2.8 12.68
1/14/2021 10:30:00 AM 6.33 43.394 0.497 8.17 3.03 12.77
1/14/2021 10:45:00 AM 6.41 43.538 0.496 8.19 2.8 12.85
1/14/2021 11:00:00 AM 6.55 43.79 0.496 8.21 3.12 12.96
1/14/2021 11:15:00 AM 6.7 44.06 0.495 8.23 3.29 13.06
1/14/2021 11:30:00 AM 6.81 44.258 0.494 8.25 3.92 13.14
1/14/2021 11:45:00 AM 6.94 44.492 0.494 8.27 3.49 13.2
1/14/2021 12:00:00 PM 7.11 44.798 0.493 8.29 3.11 13.28
1/14/2021 12:15:00 PM 7.23 45.014 0.493 8.31 2.94 13.35
1/14/2021 12:30:00 PM 7.34 45.212 0.492 8.33 2.55 13.4
1/14/2021 12:45:00 PM 7.45 45.41 0.491 8.35 2.86 13.44
1/14/2021 1:00:00 PM 7.59 45.662 0.491 8.37 2.73 13.46
1/14/2021 1:15:00 PM 7.69 45.842 0.49 8.39 3.15 13.46
1/14/2021 1:30:00 PM 7.77 45.986 0.49 8.41 3.05 13.46
1/14/2021 1:45:00 PM 7.87 46.166 0.489 8.42 3.81 13.46
1/14/2021 2:00:00 PM 7.98 46.364 0.488 8.44 3.04 13.46
1/14/2021 2:15:00 PM 8.1 46.58 0.487 8.45 2.84 13.45
1/14/2021 2:30:00 PM 8.19 46.742 0.487 8.46 3.2 13.41
1/14/2021 2:45:00 PM 8.23 46.814 0.486 8.47 3.12 13.36
1/14/2021 3:00:00 PM 8.3 46.94 0.486 8.48 3.02 13.29
1/14/2021 3:15:00 PM 8.35 47.03 0.485 8.48 3.13 13.22
1/14/2021 3:30:00 PM 8.4 47.12 0.485 8.49 2.75 13.15
1/14/2021 3:45:00 PM 8.44 47.192 0.485 8.49 2.62 13.08
1/14/2021 4:00:00 PM 8.48 47.264 0.485 8.48 3.26 12.96
1/14/2021 4:15:00 PM 8.5 47.3 0.484 8.48 2.68 12.83
1/14/2021 4:30:00 PM 8.5 47.3 0.484 8.46 2.76 12.69
1/14/2021 4:45:00 PM 8.48 47.264 0.485 8.44 3.03 12.55
1/14/2021 5:00:00 PM 8.44 47.192 0.485 8.42 3.11 12.4
1/14/2021 5:15:00 PM 8.38 47.084 0.486 8.4 2.72 12.26
1/14/2021 5:30:00 PM 8.33 46.994 0.487 8.37 2.8 12.14
1/14/2021 5:45:00 PM 8.26 46.868 0.487 8.34 3.26 12.03
1/14/2021 6:00:00 PM 8.2 46.76 0.488 8.32 3.12 11.94
1/14/2021 6:15:00 PM 8.14 46.652 0.488 8.3 3.07 11.87
1/14/2021 6:30:00 PM 8.08 46.544 0.489 8.28 3.14 11.81
1/14/2021 6:45:00 PM 8.02 46.436 0.489 8.26 3.69 11.76
1/14/2021 7:00:00 PM 7.95 46.31 0.49 8.25 3.4 11.72
1/14/2021 7:15:00 PM 7.89 46.202 0.49 8.23 3.47 11.69
1/14/2021 7:30:00 PM 7.83 46.094 0.49 8.22 3.25 11.66
1/14/2021 7:45:00 PM 7.77 45.986 0.491 8.21 3.27 11.64
1/14/2021 8:00:00 PM 7.7 45.86 0.491 8.2 3.38 11.63
1/14/2021 8:15:00 PM 7.64 45.752 0.491 8.19 3.28 11.62
1/14/2021 8:30:00 PM 7.56 45.608 0.493 8.18 3.14 11.62
1/14/2021 8:45:00 PM 7.48 45.464 0.493 8.16 3.2 11.62
1/14/2021 9:00:00 PM 7.4 45.32 0.493 8.15 3.22 11.62
1/14/2021 9:15:00 PM 7.31 45.158 0.495 8.14 3.14 11.62
1/14/2021 9:30:00 PM 7.22 44.996 0.495 8.13 3.25 11.62
1/14/2021 9:45:00 PM 7.13 44.834 0.495 8.12 3.03 11.62
1/14/2021 10:00:00 PM 7.05 44.69 0.496 8.11 3.31 11.63
1/14/2021 10:15:00 PM 6.97 44.546 0.496 8.1 3.28 11.64
1/14/2021 10:30:00 PM 6.9 44.42 0.497 8.1 3.16 11.66
1/14/2021 10:45:00 PM 6.84 44.312 0.496 8.09 3.26 11.67
1/14/2021 11:00:00 PM 6.77 44.186 0.496 8.09 2.97 11.7
1/14/2021 11:15:00 PM 6.72 44.096 0.497 8.09 3.1 11.72
1/14/2021 11:30:00 PM 6.67 44.006 0.497 8.08 3 11.73
1/14/2021 11:45:00 PM 6.62 43.916 0.497 8.08 3.29 11.75
1/15/2021 12:00:00 AM 6.57 43.826 0.497 8.08 3.13 11.76
1/15/2021 12:15:00 AM 6.53 43.754 0.497 8.08 3.09 11.77
1/15/2021 12:30:00 AM 6.49 43.682 0.497 8.08 3.07 11.78
1/15/2021 12:45:00 AM 6.44 43.592 0.497 8.08 3.18 11.79
1/15/2021 1:00:00 AM 6.38 43.484 0.498 8.07 3.15 11.81
1/15/2021 1:15:00 AM 6.33 43.394 0.497 8.07 3.17 11.83
1/15/2021 1:30:00 AM 6.27 43.286 0.497 8.07 3.19 11.85
1/15/2021 1:45:00 AM 6.22 43.196 0.497 8.07 3.05 11.86
1/15/2021 2:00:00 AM 6.17 43.106 0.498 8.07 3.64 11.88
1/15/2021 2:15:00 AM 6.12 43.016 0.499 8.07 3.5 11.9
1/15/2021 2:30:00 AM 6.07 42.926 0.499 8.07 2.99 11.91
1/15/2021 2:45:00 AM 6.03 42.854 0.498 8.07 4.17 11.93
1/15/2021 3:00:00 AM 5.99 42.782 0.499 8.07 3.74 11.94
1/15/2021 3:15:00 AM 5.97 42.746 0.5 8.07 3.8 11.95
1/15/2021 3:30:00 AM 5.96 42.728 0.499 8.07 4.16 11.96
1/15/2021 3:45:00 AM 5.94 42.692 0.499 8.07 3.11 11.96
1/15/2021 4:00:00 AM 5.92 42.656 0.499 8.07 3.1 11.97
1/15/2021 4:15:00 AM 5.91 42.638 0.5 8.07 3.29 11.97
1/15/2021 4:30:00 AM 5.9 42.62 0.5 8.07 3.16 11.98
1/15/2021 4:45:00 AM 5.89 42.602 0.5 8.07 3.45 11.98
1/15/2021 5:00:00 AM 5.89 42.602 0.5 8.07 2.94 11.98
1/15/2021 5:15:00 AM 5.87 42.566 0.5 8.07 3.05 11.99
1/15/2021 5:30:00 AM 5.86 42.548 0.501 8.07 3.28 11.99
1/15/2021 5:45:00 AM 5.85 42.53 0.5 8.07 3.2 12
1/15/2021 6:00:00 AM 5.84 42.512 0.5 8.07 3.1 12
1/15/2021 6:15:00 AM 5.84 42.512 0.499 8.07 4.17 12
1/15/2021 6:30:00 AM 5.84 42.512 0.501 8.08 3.24 12
1/15/2021 6:45:00 AM 5.83 42.494 0.501 8.07 3.19 12.01
1/15/2021 7:00:00 AM 5.82 42.476 0.5 8.08 3.55 12.01
1/15/2021 7:15:00 AM 5.81 42.458 0.5 8.07 8.3 12.01
1/15/2021 7:30:00 AM 5.8 42.44 0.5 8.08 7.52 12.01
1/15/2021 7:45:00 AM 5.78 42.404 0.501 8.08 3.41 12.03
1/15/2021 8:00:00 AM 5.79 42.422 0.501 8.08 4.07 12.05
1/15/2021 8:15:00 AM 5.79 42.422 0.501 8.08 4.08 12.08
1/15/2021 8:30:00 AM 5.81 42.458 0.501 8.09 31.51 12.13
1/15/2021 8:45:00 AM 5.84 42.512 0.501 8.09 12.99 12.19
1/15/2021 9:00:00 AM 5.88 42.584 0.501 8.1 4.97 12.27
1/15/2021 9:15:00 AM 5.95 42.71 0.501 8.11 4.1 12.37
1/15/2021 9:30:00 AM 6.02 42.836 0.5 8.12 3.62 12.48
1/15/2021 9:45:00 AM 6.1 42.98 0.5 8.14 3.81 12.59
1/15/2021 10:00:00 AM 6.18 43.124 0.5 8.16 3.9 12.68
1/15/2021 10:15:00 AM 6.24 43.232 0.499 8.18 3.63 12.79
1/15/2021 10:30:00 AM 6.31 43.358 0.499 8.2 4.11 12.88
1/15/2021 10:45:00 AM 6.4 43.52 0.499 8.22 3.66 12.98
1/15/2021 11:00:00 AM 6.46 43.628 0.498 8.23 3.81 13.05
1/15/2021 11:15:00 AM 6.51 43.718 0.498 8.25 5.88 13.07
1/15/2021 11:30:00 AM 6.56 43.808 0.497 8.26 3.09 13.09
1/15/2021 11:45:00 AM 6.62 43.916 0.497 8.27 3.15 13.11
1/15/2021 12:00:00 PM 6.69 44.042 0.497 8.28 3.33 13.14
1/15/2021 12:15:00 PM 6.78 44.204 0.497 8.29 3.74 13.16
1/15/2021 12:30:00 PM 6.85 44.33 0.496 8.3 3.5 13.17
1/15/2021 12:45:00 PM 6.91 44.438 0.496 8.31 3.32 13.15
1/15/2021 1:00:00 PM 6.99 44.582 0.496 8.32 3.18 13.16
1/15/2021 1:15:00 PM 7.08 44.744 0.495 8.34 3.29 13.21
1/15/2021 1:30:00 PM 7.15 44.87 0.495 8.35 3.94 13.24
1/15/2021 1:45:00 PM 7.22 44.996 0.493 8.37 3.23 13.24
1/15/2021 2:00:00 PM 7.3 45.14 0.494 8.38 2.65 13.22
1/15/2021 2:15:00 PM 7.36 45.248 0.493 8.39 2.98 13.17
1/15/2021 2:30:00 PM 7.43 45.374 0.492 8.39 2.77 13.11
1/15/2021 2:45:00 PM 7.49 45.482 0.492 8.4 2.71 13.05
1/15/2021 3:00:00 PM 7.54 45.572 0.492 8.4 2.73 12.99
1/15/2021 3:15:00 PM 7.58 45.644 0.492 8.39 4.03 12.91
1/15/2021 3:30:00 PM 7.62 45.716 0.492 8.39 2.81 12.82
1/15/2021 3:45:00 PM 7.66 45.788 0.492 8.38 2.88 12.73
1/15/2021 4:00:00 PM 7.69 45.842 0.492 8.37 2.44 12.64
1/15/2021 4:15:00 PM 7.71 45.878 0.492 8.36 2.59 12.54
1/15/2021 4:30:00 PM 7.73 45.914 0.493 8.35 2.75 12.45
1/15/2021 4:45:00 PM 7.75 45.95 0.493 8.34 3.4 12.35
1/15/2021 5:00:00 PM 7.78 46.004 0.493 8.32 2.52 12.25
1/15/2021 5:15:00 PM 7.81 46.058 0.493 8.31 2.63 12.16
1/15/2021 5:30:00 PM 7.83 46.094 0.493 8.3 2.75 12.07
1/15/2021 5:45:00 PM 7.85 46.13 0.493 8.28 2.73 11.98
1/15/2021 6:00:00 PM 7.87 46.166 0.494 8.26 2.91 11.89
1/15/2021 6:15:00 PM 7.89 46.202 0.495 8.25 2.65 11.82
1/15/2021 6:30:00 PM 7.91 46.238 0.494 8.23 2.95 11.76
1/15/2021 6:45:00 PM 7.93 46.274 0.495 8.22 2.81 11.7
1/15/2021 7:00:00 PM 7.94 46.292 0.495 8.2 2.86 11.66
1/15/2021 7:15:00 PM 7.96 46.328 0.495 8.2 2.77 11.62
1/15/2021 7:30:00 PM 7.97 46.346 0.495 8.18 2.79 11.58
1/15/2021 7:45:00 PM 7.98 46.364 0.495 8.17 2.82 11.55
1/15/2021 8:00:00 PM 7.98 46.364 0.495 8.16 2.91 11.52
1/15/2021 8:15:00 PM 7.99 46.382 0.495 8.15 2.9 11.49
1/15/2021 8:30:00 PM 7.99 46.382 0.495 8.14 3.13 11.46
1/15/2021 8:45:00 PM 8 46.4 0.494 8.14 3.67 11.43
1/15/2021 9:00:00 PM 8 46.4 0.492 8.12 3.1 11.42
1/15/2021 9:15:00 PM 8 46.4 0.489 8.12 3.59 11.4
1/15/2021 9:30:00 PM 7.98 46.364 0.486 8.11 4.73 11.39
1/15/2021 9:45:00 PM 7.97 46.346 0.485 8.1 4.26 11.37
1/15/2021 10:00:00 PM 7.97 46.346 0.483 8.09 4.65 11.36
1/15/2021 10:15:00 PM 7.96 46.328 0.48 8.09 5.46 11.35
1/15/2021 10:30:00 PM 7.94 46.292 0.477 8.08 6.23 11.35
1/15/2021 10:45:00 PM 7.93 46.274 0.476 8.07 8.13 11.33
1/15/2021 11:00:00 PM 7.92 46.256 0.473 8.07 9.1 11.33
1/15/2021 11:15:00 PM 7.9 46.22 0.472 8.05 8.48 11.32
1/15/2021 11:30:00 PM 7.88 46.184 0.47 8.05 11.72 11.31
1/15/2021 11:45:00 PM 7.87 46.166 0.469 8.04 12 11.3
1/16/2021 12:00:00 AM 7.85 46.13 0.469 8.03 13.23 11.29
1/16/2021 12:15:00 AM 7.83 46.094 0.462 8.02 13.82 11.29
1/16/2021 12:30:00 AM 7.81 46.058 0.461 8.01 13.95 11.28
1/16/2021 12:45:00 AM 7.79 46.022 0.458 8.01 14.74 11.28
1/16/2021 1:00:00 AM 7.76 45.968 0.454 8 15.14 11.28
1/16/2021 1:15:00 AM 7.72 45.896 0.448 7.99 16.4 11.27
1/16/2021 1:30:00 AM 7.68 45.824 0.442 7.97 21.7 11.25
1/16/2021 1:45:00 AM 7.63 45.734 0.436 7.96 20.78 11.24
1/16/2021 2:00:00 AM 7.58 45.644 0.431 7.94 26.46 11.23
1/16/2021 2:15:00 AM 7.54 45.572 0.427 7.93 31.06 11.19
1/16/2021 2:30:00 AM 7.51 45.518 0.424 7.91 33.04 11.15
1/16/2021 2:45:00 AM 7.5 45.5 0.424 7.9 34.24 11.11
1/16/2021 3:00:00 AM 7.5 45.5 0.424 7.89 33.64 11.09
1/16/2021 3:15:00 AM 7.5 45.5 0.425 7.89 31.41 11.07
1/16/2021 3:30:00 AM 7.52 45.536 0.426 7.89 31.24 11.06
1/16/2021 3:45:00 AM 7.51 45.518 0.425 7.89 26.65 11.06
1/16/2021 4:00:00 AM 7.5 45.5 0.424 7.88 25.24 11.07
1/16/2021 4:15:00 AM 7.49 45.482 0.42 7.88 27.58 11.08
1/16/2021 4:30:00 AM 7.46 45.428 0.415 7.88 23.78 11.1
1/16/2021 4:45:00 AM 7.42 45.356 0.41 7.87 20.05 11.12
1/16/2021 5:00:00 AM 7.38 45.284 0.405 7.87 23.98 11.14
1/16/2021 5:15:00 AM 7.34 45.212 0.402 7.86 22.9 11.16
1/16/2021 5:30:00 AM 7.3 45.14 0.399 7.86 22.45 11.18
1/16/2021 5:45:00 AM 7.26 45.068 0.396 7.85 22.09 11.19
1/16/2021 6:00:00 AM 7.22 44.996 0.39 7.85 32.62 11.19
1/16/2021 6:15:00 AM 7.17 44.906 0.385 7.84 20.8 11.19
1/16/2021 6:30:00 AM 7.13 44.834 0.38 7.83 21.81 11.19
1/16/2021 6:45:00 AM 7.08 44.744 0.377 7.83 21.62 11.2
1/16/2021 7:00:00 AM 7.01 44.618 0.375 7.8 21.45 11.21
1/16/2021 7:15:00 AM 6.94 44.492 0.374 7.78 21.71 11.22
1/16/2021 7:30:00 AM 6.88 44.384 0.375 7.78 21.29 11.24
1/16/2021 7:45:00 AM 6.83 44.294 0.376 7.79 20.93 11.25
1/16/2021 8:00:00 AM 6.78 44.204 0.378 7.8 20.43 11.27
1/16/2021 8:15:00 AM 6.74 44.132 0.38 7.8 20.84 11.29
1/16/2021 8:30:00 AM 6.72 44.096 0.383 7.81 17.56 11.32
1/16/2021 8:45:00 AM 6.71 44.078 0.385 7.82 18.33 11.37
1/16/2021 9:00:00 AM 6.7 44.06 0.388 7.83 17.05 11.4
1/16/2021 9:15:00 AM 6.69 44.042 0.39 7.84 16.57 11.45
1/16/2021 9:30:00 AM 6.69 44.042 0.392 7.85 15.47 11.52
1/16/2021 9:45:00 AM 6.7 44.06 0.394 7.86 14.47 11.6
1/16/2021 10:00:00 AM 6.73 44.114 0.395 7.88 13.15 11.69
1/16/2021 10:15:00 AM 6.77 44.186 0.396 7.9 12.56 11.82
1/16/2021 10:30:00 AM 6.81 44.258 0.397 7.91 11.97 11.93
1/16/2021 10:45:00 AM 6.88 44.384 0.398 7.94 12.15 12.08
1/16/2021 11:00:00 AM 6.95 44.51 0.399 7.97 10.73 12.24
1/16/2021 11:15:00 AM 6.98 44.564 0.399 7.99 10.4 12.37
1/16/2021 11:30:00 AM 7.05 44.69 0.4 8.02 10.21 12.49
1/16/2021 11:45:00 AM 7.11 44.798 0.401 8.05 9.48 12.64
1/16/2021 12:00:00 PM 7.17 44.906 0.402 8.07 9.12 12.77
1/16/2021 12:15:00 PM 7.23 45.014 0.402 8.1 8.94 12.88
1/16/2021 12:30:00 PM 7.35 45.23 0.403 8.14 9.07 13.01
1/16/2021 12:45:00 PM 7.45 45.41 0.405 8.17 8.46 13.13
1/16/2021 1:00:00 PM 7.53 45.554 0.406 8.2 8.11 13.2
1/16/2021 1:15:00 PM 7.59 45.662 0.407 8.23 7.98 13.26
1/16/2021 1:30:00 PM 7.63 45.734 0.409 8.25 7.76 13.28
1/16/2021 1:45:00 PM 7.7 45.86 0.41 8.27 7.78 13.31
1/16/2021 2:00:00 PM 7.77 45.986 0.412 8.29 7.41 13.32
1/16/2021 2:15:00 PM 7.81 46.058 0.413 8.31 7.27 13.31
1/16/2021 2:30:00 PM 7.85 46.13 0.415 8.32 7.05 13.31
1/16/2021 2:45:00 PM 7.89 46.202 0.417 8.33 6.59 13.31
1/16/2021 3:00:00 PM 7.92 46.256 0.418 8.35 6.45 13.31
1/16/2021 3:15:00 PM 7.93 46.274 0.42 8.36 6.32 13.28
1/16/2021 3:30:00 PM 7.95 46.31 0.422 8.37 6.23 13.21
1/16/2021 3:45:00 PM 7.95 46.31 0.424 8.37 6.18 13.15
1/16/2021 4:00:00 PM 7.97 46.346 0.426 8.37 5.92 13.08
1/16/2021 4:15:00 PM 7.97 46.346 0.428 8.37 7.53 12.99
1/16/2021 4:30:00 PM 7.99 46.382 0.429 8.36 5.72 12.87
1/16/2021 4:45:00 PM 8.01 46.418 0.431 8.35 5.8 12.74
1/16/2021 5:00:00 PM 8.02 46.436 0.433 8.34 5.56 12.59
1/16/2021 5:15:00 PM 8.04 46.472 0.435 8.32 5.64 12.43
1/16/2021 5:30:00 PM 8.05 46.49 0.436 8.3 5.57 12.29
1/16/2021 5:45:00 PM 8.04 46.472 0.438 8.28 5.43 12.15
1/16/2021 6:00:00 PM 8.04 46.472 0.44 8.27 5.44 12.03
1/16/2021 6:15:00 PM 8.04 46.472 0.441 8.24 5.88 11.93
1/16/2021 6:30:00 PM 8.02 46.436 0.443 8.23 5.94 11.84
1/16/2021 6:45:00 PM 7.99 46.382 0.444 8.21 5.52 11.76
1/16/2021 7:00:00 PM 7.95 46.31 0.446 8.19 5.69 11.7
1/16/2021 7:15:00 PM 7.87 46.166 0.447 8.17 5.21 11.65
1/16/2021 7:30:00 PM 7.79 46.022 0.449 8.16 5.45 11.61
1/16/2021 7:45:00 PM 7.7 45.86 0.45 8.14 5.36 11.58
1/16/2021 8:00:00 PM 7.6 45.68 0.452 8.13 5.05 11.56
1/16/2021 8:15:00 PM 7.51 45.518 0.453 8.11 5.11 11.54
1/16/2021 8:30:00 PM 7.41 45.338 0.455 8.1 5.11 11.53
1/16/2021 8:45:00 PM 7.32 45.176 0.456 8.09 5.19 11.51
1/16/2021 9:00:00 PM 7.22 44.996 0.457 8.08 5.22 11.49
1/16/2021 9:15:00 PM 7.13 44.834 0.458 8.07 5.04 11.48
1/16/2021 9:30:00 PM 7.04 44.672 0.46 8.06 4.95 11.47
1/16/2021 9:45:00 PM 6.97 44.546 0.461 8.05 5.09 11.47
1/16/2021 10:00:00 PM 6.91 44.438 0.462 8.04 5.23 11.48
1/16/2021 10:15:00 PM 6.84 44.312 0.463 8.04 4.83 11.48
1/16/2021 10:30:00 PM 6.78 44.204 0.463 8.04 4.74 11.5
1/16/2021 10:45:00 PM 6.72 44.096 0.464 8.03 5.02 11.51
1/16/2021 11:00:00 PM 6.67 44.006 0.465 8.03 5.06 11.52
1/16/2021 11:15:00 PM 6.63 43.934 0.465 8.03 4.83 11.54
1/16/2021 11:30:00 PM 6.58 43.844 0.466 8.03 4.85 11.55
1/16/2021 11:45:00 PM 6.55 43.79 0.467 8.03 4.85 11.57
1/17/2021 12:00:00 AM 6.51 43.718 0.467 8.03 5 11.58
1/17/2021 12:15:00 AM 6.45 43.61 0.468 8.03 4.92 11.6
1/17/2021 12:30:00 AM 6.39 43.502 0.468 8.03 4.75 11.61
1/17/2021 12:45:00 AM 6.34 43.412 0.469 8.03 5.02 11.63
1/17/2021 1:00:00 AM 6.29 43.322 0.47 8.03 4.99 11.65
1/17/2021 1:15:00 AM 6.25 43.25 0.471 8.03 5.58 11.66
1/17/2021 1:30:00 AM 6.19 43.142 0.471 8.03 5.16 11.69
1/17/2021 1:45:00 AM 6.15 43.07 0.471 8.03 5.04 11.7
1/17/2021 2:00:00 AM 6.1 42.98 0.472 8.03 4.61 11.72
1/17/2021 2:15:00 AM 6.04 42.872 0.473 8.03 4.88 11.74
1/17/2021 2:30:00 AM 6 42.8 0.473 8.03 4.92 11.75
1/17/2021 2:45:00 AM 5.95 42.71 0.474 8.03 4.84 11.77
1/17/2021 3:00:00 AM 5.91 42.638 0.474 8.04 4.46 11.78
1/17/2021 3:15:00 AM 5.87 42.566 0.475 8.03 4.69 11.8
1/17/2021 3:30:00 AM 5.85 42.53 0.475 8.03 5.18 11.81
1/17/2021 3:45:00 AM 5.82 42.476 0.476 8.04 5 11.82
1/17/2021 4:00:00 AM 5.81 42.458 0.476 8.03 5.41 11.83
1/17/2021 4:15:00 AM 5.8 42.44 0.476 8.04 4.5 11.84
1/17/2021 4:30:00 AM 5.79 42.422 0.477 8.04 4.73 11.85
1/17/2021 4:45:00 AM 5.77 42.386 0.477 8.04 4.98 11.85
1/17/2021 5:00:00 AM 5.77 42.386 0.477 8.04 5.22 11.87
1/17/2021 5:15:00 AM 5.76 42.368 0.478 8.04 4.49 11.87
1/17/2021 5:30:00 AM 5.74 42.332 0.478 8.04 4.18 11.88
1/17/2021 5:45:00 AM 5.74 42.332 0.478 8.04 4.15 11.89
1/17/2021 6:00:00 AM 5.74 42.332 0.479 8.04 4.01 11.89
1/17/2021 6:15:00 AM 5.73 42.314 0.479 8.04 3.82 11.9
1/17/2021 6:30:00 AM 5.71 42.278 0.479 8.04 4.21 11.91
1/17/2021 6:45:00 AM 5.69 42.242 0.48 8.04 3.71 11.91
1/17/2021 7:00:00 AM 5.67 42.206 0.48 8.04 3.86 11.92
1/17/2021 7:15:00 AM 5.66 42.188 0.48 8.05 3.84 11.93
1/17/2021 7:30:00 AM 5.65 42.17 0.481 8.05 4.41 11.94
1/17/2021 7:45:00 AM 5.64 42.152 0.481 8.04 3.78 11.94
1/17/2021 8:00:00 AM 5.64 42.152 0.481 8.05 3.83 11.95
1/17/2021 8:15:00 AM 5.65 42.17 0.482 8.05 3.59 11.96
1/17/2021 8:30:00 AM 5.65 42.17 0.482 8.05 3.57 12
1/17/2021 8:45:00 AM 5.68 42.224 0.482 8.05 3.38 12.05
1/17/2021 9:00:00 AM 5.7 42.26 0.482 8.06 3.26 12.1
1/17/2021 9:15:00 AM 5.73 42.314 0.482 8.07 3.18 12.16
1/17/2021 9:30:00 AM 5.76 42.368 0.483 8.08 3.06 12.21
1/17/2021 9:45:00 AM 5.81 42.458 0.483 8.09 3.35 12.3
1/17/2021 10:00:00 AM 5.87 42.566 0.483 8.1 3.09 12.41
1/17/2021 10:15:00 AM 5.92 42.656 0.483 8.12 3.04 12.52
1/17/2021 10:30:00 AM 6 42.8 0.484 8.14 3.09 12.65
1/17/2021 10:45:00 AM 6.11 42.998 0.484 8.16 2.85 12.8
1/17/2021 11:00:00 AM 6.19 43.142 0.483 8.19 2.71 12.94
1/17/2021 11:15:00 AM 6.29 43.322 0.483 8.21 2.57 13.07
1/17/2021 11:30:00 AM 6.37 43.466 0.482 8.24 2.74 13.21
1/17/2021 11:45:00 AM 6.41 43.538 0.482 8.27 2.56 13.34
1/17/2021 12:00:00 PM 6.5 43.7 0.494 8.29 2.72 13.45
1/17/2021 12:15:00 PM 6.58 43.844 0.486 8.32 2.46 13.55
1/17/2021 12:30:00 PM 6.62 43.916 0.489 8.34 2.62 13.61
1/17/2021 12:45:00 PM 6.65 43.97 0.485 8.36 2.39 13.63
1/17/2021 1:00:00 PM 6.72 44.096 0.484 8.38 2.45 13.67
1/17/2021 1:15:00 PM 6.88 44.384 0.483 8.4 2.44 13.73
1/17/2021 1:30:00 PM 6.98 44.564 0.482 8.42 2.4 13.76
1/17/2021 1:45:00 PM 7.02 44.636 0.482 8.43 2.37 13.74
1/17/2021 2:00:00 PM 7.05 44.69 0.482 8.44 2.51 13.71
1/17/2021 2:15:00 PM 7.1 44.78 0.482 8.45 2.5 13.7
1/17/2021 2:30:00 PM 7.14 44.852 0.481 8.47 2.49 13.71
1/17/2021 2:45:00 PM 7.19 44.942 0.48 8.48 2.4 13.68
1/17/2021 3:00:00 PM 7.24 45.032 0.48 8.49 2.39 13.65
1/17/2021 3:15:00 PM 7.29 45.122 0.48 8.5 2.5 13.57
1/17/2021 3:30:00 PM 7.33 45.194 0.48 8.5 2.43 13.47
1/17/2021 3:45:00 PM 7.38 45.284 0.479 8.5 2.48 13.38
1/17/2021 4:00:00 PM 7.43 45.374 0.48 8.5 2.49 13.27
1/17/2021 4:15:00 PM 7.48 45.464 0.479 8.49 2.39 13.13
1/17/2021 4:30:00 PM 7.53 45.554 0.479 8.48 2.47 12.97
1/17/2021 4:45:00 PM 7.57 45.626 0.48 8.46 2.6 12.81
1/17/2021 5:00:00 PM 7.6 45.68 0.48 8.44 2.47 12.66
1/17/2021 5:15:00 PM 7.62 45.716 0.48 8.42 2.53 12.52
1/17/2021 5:30:00 PM 7.64 45.752 0.481 8.39 2.6 12.38
1/17/2021 5:45:00 PM 7.66 45.788 0.481 8.37 2.58 12.25
1/17/2021 6:00:00 PM 7.66 45.788 0.482 8.35 2.56 12.14
1/17/2021 6:15:00 PM 7.67 45.806 0.482 8.33 2.82 12.03
1/17/2021 6:30:00 PM 7.66 45.788 0.483 8.31 2.7 11.94
1/17/2021 6:45:00 PM 7.66 45.788 0.483 8.28 2.77 11.87
1/17/2021 7:00:00 PM 7.65 45.77 0.484 8.26 2.81 11.81
1/17/2021 7:15:00 PM 7.63 45.734 0.485 8.24 2.73 11.75
1/17/2021 7:30:00 PM 7.58 45.644 0.486 8.22 2.65 11.71
1/17/2021 7:45:00 PM 7.53 45.554 0.486 8.21 3.03 11.67
1/17/2021 8:00:00 PM 7.48 45.464 0.487 8.19 2.8 11.65
1/17/2021 8:15:00 PM 7.43 45.374 0.487 8.17 2.78 11.64
1/17/2021 8:30:00 PM 7.39 45.302 0.488 8.16 2.71 11.61
1/17/2021 8:45:00 PM 7.34 45.212 0.489 8.14 2.73 11.6
1/17/2021 9:00:00 PM 7.3 45.14 0.49 8.13 2.87 11.57
1/17/2021 9:15:00 PM 7.25 45.05 0.49 8.12 3.1 11.56
1/17/2021 9:30:00 PM 7.2 44.96 0.49 8.11 2.8 11.54
1/17/2021 9:45:00 PM 7.15 44.87 0.491 8.1 2.89 11.53
1/17/2021 10:00:00 PM 7.09 44.762 0.491 8.09 2.83 11.52
1/17/2021 10:15:00 PM 7.05 44.69 0.491 8.09 3.09 11.53
1/17/2021 10:30:00 PM 7.02 44.636 0.491 8.08 2.84 11.53
1/17/2021 10:45:00 PM 6.98 44.564 0.492 8.08 2.83 11.54
1/17/2021 11:00:00 PM 6.94 44.492 0.492 8.08 2.76 11.54
1/17/2021 11:15:00 PM 6.92 44.456 0.492 8.07 2.79 11.55
1/17/2021 11:30:00 PM 6.89 44.402 0.492 8.07 2.89 11.56
1/17/2021 11:45:00 PM 6.87 44.366 0.492 8.07 2.76 11.57
1/18/2021 12:00:00 AM 6.84 44.312 0.492 8.07 2.85 11.57
1/18/2021 12:15:00 AM 6.81 44.258 0.492 8.07 2.91 11.58
1/18/2021 12:30:00 AM 6.78 44.204 0.492 8.06 2.72 11.59
1/18/2021 12:45:00 AM 6.74 44.132 0.492 8.06 2.92 11.6
1/18/2021 1:00:00 AM 6.69 44.042 0.492 8.06 2.65 11.6
1/18/2021 1:15:00 AM 6.64 43.952 0.492 8.06 2.83 11.61
1/18/2021 1:30:00 AM 6.59 43.862 0.493 8.07 2.84 11.62
1/18/2021 1:45:00 AM 6.53 43.754 0.493 8.06 2.69 11.63
1/18/2021 2:00:00 AM 6.5 43.7 0.493 8.06 2.72 11.64
1/18/2021 2:15:00 AM 6.47 43.646 0.493 8.07 2.77 11.66
1/18/2021 2:30:00 AM 6.45 43.61 0.493 8.06 2.9 11.67
1/18/2021 2:45:00 AM 6.44 43.592 0.493 8.06 3.8 11.68
1/18/2021 3:00:00 AM 6.43 43.574 0.494 8.06 2.79 11.68
1/18/2021 3:15:00 AM 6.43 43.574 0.494 8.06 2.88 11.69
1/18/2021 3:30:00 AM 6.41 43.538 0.494 8.06 2.88 11.69
1/18/2021 3:45:00 AM 6.38 43.484 0.495 8.07 2.83 11.69
1/18/2021 4:00:00 AM 6.35 43.43 0.495 8.06 2.92 11.7
1/18/2021 4:15:00 AM 6.32 43.376 0.495 8.06 2.75 11.71
1/18/2021 4:30:00 AM 6.28 43.304 0.495 8.07 2.84 11.72
1/18/2021 4:45:00 AM 6.24 43.232 0.495 8.07 2.94 11.72
1/18/2021 5:00:00 AM 6.2 43.16 0.494 8.06 2.92 11.74
1/18/2021 5:15:00 AM 6.15 43.07 0.495 8.06 2.91 11.75
1/18/2021 5:30:00 AM 6.11 42.998 0.495 8.07 2.91 11.77
1/18/2021 5:45:00 AM 6.06 42.908 0.496 8.07 3.06 11.78
1/18/2021 6:00:00 AM 6.03 42.854 0.496 8.07 3.1 11.8
1/18/2021 6:15:00 AM 6 42.8 0.496 8.07 2.97 11.81
1/18/2021 6:30:00 AM 5.97 42.746 0.496 8.07 2.88 11.81
1/18/2021 6:45:00 AM 5.93 42.674 0.495 8.07 2.98 11.82
1/18/2021 7:00:00 AM 5.9 42.62 0.496 8.07 2.9 11.83
1/18/2021 7:15:00 AM 5.88 42.584 0.496 8.07 2.89 11.84
1/18/2021 7:30:00 AM 5.87 42.566 0.5 8.07 2.91 11.84
1/18/2021 7:45:00 AM 5.88 42.584 0.498 8.07 2.83 11.86
1/18/2021 8:00:00 AM 5.89 42.602 0.497 8.07 2.83 11.89
1/18/2021 8:15:00 AM 5.89 42.602 0.497 8.08 2.68 11.93
1/18/2021 8:30:00 AM 5.89 42.602 0.497 8.08 2.87 11.98
1/18/2021 8:45:00 AM 5.91 42.638 0.497 8.09 2.81 12.07
1/18/2021 9:00:00 AM 5.92 42.656 0.497 8.1 2.72 12.15
1/18/2021 9:15:00 AM 5.92 42.656 0.496 8.11 2.68 12.22
1/18/2021 9:30:00 AM 5.94 42.692 0.497 8.12 2.69 12.3
1/18/2021 9:45:00 AM 6 42.8 0.496 8.14 2.54 12.44
1/18/2021 10:00:00 AM 6.08 42.944 0.496 8.17 2.43 12.62
1/18/2021 10:15:00 AM 6.16 43.088 0.495 8.19 2.47 12.78
1/18/2021 10:30:00 AM 6.23 43.214 0.495 8.21 2.38 12.92
1/18/2021 10:45:00 AM 6.3 43.34 0.494 8.24 2.29 13.05
1/18/2021 11:00:00 AM 6.37 43.466 0.494 8.27 2.32 13.2
1/18/2021 11:15:00 AM 6.45 43.61 0.493 8.29 2.32 13.35
1/18/2021 11:30:00 AM 6.55 43.79 0.493 8.32 2.33 13.47
1/18/2021 11:45:00 AM 6.63 43.934 0.492 8.35 2.29 13.59
1/18/2021 12:00:00 PM 6.71 44.078 0.492 8.37 2.4 13.66
1/18/2021 12:15:00 PM 6.78 44.204 0.491 8.39 2.19 13.75
1/18/2021 12:30:00 PM 6.85 44.33 0.491 8.42 2.25 13.82
1/18/2021 12:45:00 PM 6.91 44.438 0.49 8.44 2.34 13.88
1/18/2021 1:00:00 PM 6.97 44.546 0.489 8.47 2.2 13.95
1/18/2021 1:15:00 PM 7.03 44.654 0.488 8.5 2.24 13.99
1/18/2021 1:30:00 PM 7.06 44.708 0.487 8.52 2.65 13.98
1/18/2021 1:45:00 PM 7.13 44.834 0.486 8.54 2.26 13.96
1/18/2021 2:00:00 PM 7.19 44.942 0.485 8.55 2.16 13.96
1/18/2021 2:15:00 PM 7.31 45.158 0.485 8.57 2.27 13.97
1/18/2021 2:30:00 PM 7.38 45.284 0.484 8.59 2.25 13.93
1/18/2021 2:45:00 PM 7.42 45.356 0.483 8.6 2.34 13.85
1/18/2021 3:00:00 PM 7.49 45.482 0.483 8.6 2.29 13.78
1/18/2021 3:15:00 PM 7.54 45.572 0.483 8.61 2.59 13.74
1/18/2021 3:30:00 PM 7.57 45.626 0.483 8.62 2.34 13.68
1/18/2021 3:45:00 PM 7.59 45.662 0.483 8.61 2.26 13.59
1/18/2021 4:00:00 PM 7.58 45.644 0.483 8.6 2.4 13.48
1/18/2021 4:15:00 PM 7.57 45.626 0.483 8.6 2.36 13.36
1/18/2021 4:30:00 PM 7.58 45.644 0.483 8.59 2.57 13.24
1/18/2021 4:45:00 PM 7.58 45.644 0.484 8.57 2.46 13.12
1/18/2021 5:00:00 PM 7.54 45.572 0.484 8.56 2.34 12.98
1/18/2021 5:15:00 PM 7.54 45.572 0.485 8.54 2.48 12.83
1/18/2021 5:30:00 PM 7.5 45.5 0.486 8.51 2.48 12.66
1/18/2021 5:45:00 PM 7.47 45.446 0.487 8.48 2.29 12.52
1/18/2021 6:00:00 PM 7.44 45.392 0.487 8.46 2.43 12.39
1/18/2021 6:15:00 PM 7.4 45.32 0.488 8.43 2.49 12.28
1/18/2021 6:30:00 PM 7.36 45.248 0.489 8.4 2.49 12.19
1/18/2021 6:45:00 PM 7.32 45.176 0.49 8.38 2.48 12.11
1/18/2021 7:00:00 PM 7.25 45.05 0.49 8.35 2.61 12.04
1/18/2021 7:15:00 PM 7.17 44.906 0.491 8.32 2.56 11.99
1/18/2021 7:30:00 PM 7.08 44.744 0.492 8.29 2.61 11.95
1/18/2021 7:45:00 PM 6.99 44.582 0.493 8.27 2.58 11.94
1/18/2021 8:00:00 PM 6.9 44.42 0.494 8.26 2.41 11.94
1/18/2021 8:15:00 PM 6.82 44.276 0.494 8.25 2.48 11.93
1/18/2021 8:30:00 PM 6.74 44.132 0.495 8.23 2.54 11.93
1/18/2021 8:45:00 PM 6.66 43.988 0.496 8.21 2.44 11.92
1/18/2021 9:00:00 PM 6.59 43.862 0.497 8.19 2.44 11.91
1/18/2021 9:15:00 PM 6.54 43.772 0.498 8.18 2.63 11.89
1/18/2021 9:30:00 PM 6.49 43.682 0.498 8.17 2.54 11.88
1/18/2021 9:45:00 PM 6.45 43.61 0.499 8.16 2.58 11.87
1/18/2021 10:00:00 PM 6.41 43.538 0.5 8.14 2.4 11.87
1/18/2021 10:15:00 PM 6.36 43.448 0.5 8.13 2.36 11.86
1/18/2021 10:30:00 PM 6.3 43.34 0.501 8.13 2.5 11.87
1/18/2021 10:45:00 PM 6.26 43.268 0.502 8.12 2.76 11.88
1/18/2021 11:00:00 PM 6.22 43.196 0.501 8.11 2.53 11.88
1/18/2021 11:15:00 PM 6.19 43.142 0.502 8.11 2.41 11.89
1/18/2021 11:30:00 PM 6.15 43.07 0.502 8.1 2.39 11.9
1/18/2021 11:45:00 PM 6.1 42.98 0.502 8.1 2.53 11.92
1/19/2021 12:00:00 AM 6.05 42.89 0.503 8.1 2.59 11.93
1/19/2021 12:15:00 AM 6.02 42.836 0.502 8.1 2.55 11.94
1/19/2021 12:30:00 AM 6 42.8 0.503 8.1 2.51 11.95
1/19/2021 12:45:00 AM 5.97 42.746 0.503 8.1 2.51 11.95
1/19/2021 1:00:00 AM 5.93 42.674 0.503 8.09 2.58 11.96
1/19/2021 1:15:00 AM 5.9 42.62 0.503 8.09 2.49 11.97
1/19/2021 1:30:00 AM 5.88 42.584 0.503 8.09 2.57 11.97
1/19/2021 1:45:00 AM 5.86 42.548 0.504 8.09 2.78 11.97
1/19/2021 2:00:00 AM 5.85 42.53 0.503 8.09 2.75 11.98
1/19/2021 2:15:00 AM 5.84 42.512 0.503 8.09 2.8 11.98
1/19/2021 2:30:00 AM 5.83 42.494 0.503 8.09 2.72 11.99
1/19/2021 2:45:00 AM 5.8 42.44 0.503 8.09 2.77 11.99
1/19/2021 3:00:00 AM 5.77 42.386 0.503 8.09 2.89 12
1/19/2021 3:15:00 AM 5.74 42.332 0.504 8.09 3.12 12.01
1/19/2021 3:30:00 AM 5.71 42.278 0.504 8.09 2.97 12.02
1/19/2021 3:45:00 AM 5.68 42.224 0.504 8.09 3.87 12.02
1/19/2021 4:00:00 AM 5.65 42.17 0.504 8.09 2.86 12.03
1/19/2021 4:15:00 AM 5.64 42.152 0.504 8.09 2.69 12.04
1/19/2021 4:30:00 AM 5.65 42.17 0.504 8.09 2.71 12.05
1/19/2021 4:45:00 AM 5.65 42.17 0.504 8.09 2.77 12.04
1/19/2021 5:00:00 AM 5.65 42.17 0.504 8.09 2.77 12.05
1/19/2021 5:15:00 AM 5.65 42.17 0.505 8.09 2.71 12.06
1/19/2021 5:30:00 AM 5.67 42.206 0.505 8.09 2.52 12.05
1/19/2021 5:45:00 AM 5.68 42.224 0.505 8.09 2.86 12.05
1/19/2021 6:00:00 AM 5.69 42.242 0.504 8.09 2.84 12.05
1/19/2021 6:15:00 AM 5.7 42.26 0.505 8.09 3.01 12.05
1/19/2021 6:30:00 AM 5.69 42.242 0.504 8.09 2.97 12.05
1/19/2021 6:45:00 AM 5.67 42.206 0.504 8.09 2.85 12.06
1/19/2021 7:00:00 AM 5.66 42.188 0.505 8.09 2.56 12.07
1/19/2021 7:15:00 AM 5.65 42.17 0.504 8.09 2.56 12.07
1/19/2021 7:30:00 AM 5.64 42.152 0.504 8.09 2.47 12.08
1/19/2021 7:45:00 AM 5.62 42.116 0.505 8.09 2.6 12.1
1/19/2021 8:00:00 AM 5.6 42.08 0.505 8.09 2.51 12.14
1/19/2021 8:15:00 AM 5.57 42.026 0.505 8.1 2.6 12.19
1/19/2021 8:30:00 AM 5.58 42.044 0.505 8.11 2.61 12.26
1/19/2021 8:45:00 AM 5.62 42.116 0.505 8.12 2.79 12.35
1/19/2021 9:00:00 AM 5.65 42.17 0.505 8.13 2.86 12.46
1/19/2021 9:15:00 AM 5.71 42.278 0.504 8.14 3 12.57
1/19/2021 9:30:00 AM 5.77 42.386 0.504 8.16 2.65 12.7
1/19/2021 9:45:00 AM 5.83 42.494 0.503 8.18 2.61 12.85
1/19/2021 10:00:00 AM 5.89 42.602 0.503 8.21 2.64 13
1/19/2021 10:15:00 AM 5.96 42.728 0.502 8.23 2.61 13.13
1/19/2021 10:30:00 AM 6.04 42.872 0.502 8.25 2.53 13.27
1/19/2021 10:45:00 AM 6.18 43.124 0.501 8.28 2.66 13.42
1/19/2021 11:00:00 AM 6.21 43.178 0.501 8.31 2.77 13.55
1/19/2021 11:15:00 AM 6.27 43.286 0.5 8.33 2.71 13.63
1/19/2021 11:30:00 AM 6.29 43.322 0.5 8.35 2.59 13.72
1/19/2021 11:45:00 AM 6.33 43.394 0.5 8.37 2.92 13.78
1/19/2021 12:00:00 PM 6.36 43.448 0.499 8.39 2.77 13.85
1/19/2021 12:15:00 PM 6.44 43.592 0.498 8.42 2.85 13.94
1/19/2021 12:30:00 PM 6.55 43.79 0.497 8.44 2.6 14.03
1/19/2021 12:45:00 PM 6.65 43.97 0.497 8.47 2.45 14.11
1/19/2021 1:00:00 PM 6.74 44.132 0.496 8.49 2.26 14.15
1/19/2021 1:15:00 PM 6.86 44.348 0.495 8.51 2.33 14.18
1/19/2021 1:30:00 PM 6.92 44.456 0.494 8.54 2.15 14.19
1/19/2021 1:45:00 PM 7 44.6 0.494 8.55 2.18 14.19
1/19/2021 2:00:00 PM 7.09 44.762 0.492 8.57 2.25 14.2
1/19/2021 2:15:00 PM 7.17 44.906 0.492 8.59 2.39 14.21
1/19/2021 2:30:00 PM 7.21 44.978 0.491 8.61 2.61 14.18
1/19/2021 2:45:00 PM 7.28 45.104 0.491 8.62 2.53 14.14
1/19/2021 3:00:00 PM 7.35 45.23 0.49 8.63 2.44 14.1
1/19/2021 3:15:00 PM 7.41 45.338 0.489 8.65 2.4 14.04
1/19/2021 3:30:00 PM 7.48 45.464 0.488 8.66 2.81 13.94
1/19/2021 3:45:00 PM 7.53 45.554 0.488 8.67 2.56 13.83
1/19/2021 4:00:00 PM 7.54 45.572 0.488 8.67 2.39 13.71
1/19/2021 4:15:00 PM 7.53 45.554 0.488 8.66 2.32 13.58
1/19/2021 4:30:00 PM 7.52 45.536 0.488 8.65 2.18 13.43
1/19/2021 4:45:00 PM 7.5 45.5 0.489 8.62 2.14 13.26
1/19/2021 5:00:00 PM 7.45 45.41 0.489 8.6 2.51 13.09
1/19/2021 5:15:00 PM 7.4 45.32 0.491 8.57 3.53 12.92
1/19/2021 5:30:00 PM 7.36 45.248 0.492 8.54 3.46 12.76
1/19/2021 5:45:00 PM 7.32 45.176 0.492 8.52 3.01 12.63
1/19/2021 6:00:00 PM 7.28 45.104 0.493 8.5 2.44 12.51
1/19/2021 6:15:00 PM 7.24 45.032 0.493 8.47 2.37 12.4
1/19/2021 6:30:00 PM 7.21 44.978 0.494 8.45 2.57 12.31
1/19/2021 6:45:00 PM 7.17 44.906 0.494 8.42 2.62 12.23
1/19/2021 7:00:00 PM 7.11 44.798 0.495 8.39 2.53 12.16
1/19/2021 7:15:00 PM 7.06 44.708 0.496 8.37 2.65 12.11
1/19/2021 7:30:00 PM 7 44.6 0.496 8.35 2.39 12.07
1/19/2021 7:45:00 PM 6.93 44.474 0.497 8.33 2.51 12.04
1/19/2021 8:00:00 PM 6.86 44.348 0.498 8.31 2.6 12.03
1/19/2021 8:15:00 PM 6.78 44.204 0.499 8.29 2.78 12.02
1/19/2021 8:30:00 PM 6.7 44.06 0.499 8.27 2.53 12.01
1/19/2021 8:45:00 PM 6.61 43.898 0.501 8.25 2.41 12
1/19/2021 9:00:00 PM 6.51 43.718 0.502 8.23 2.46 11.99
1/19/2021 9:15:00 PM 6.41 43.538 0.502 8.21 2.61 11.98
1/19/2021 9:30:00 PM 6.32 43.376 0.503 8.19 2.74 11.97
1/19/2021 9:45:00 PM 6.22 43.196 0.504 8.18 2.64 11.97
1/19/2021 10:00:00 PM 6.12 43.016 0.504 8.16 2.38 11.97
1/19/2021 10:15:00 PM 6.04 42.872 0.505 8.15 2.51 11.97
1/19/2021 10:30:00 PM 5.97 42.746 0.505 8.14 2.48 11.98
1/19/2021 10:45:00 PM 5.92 42.656 0.506 8.13 2.48 11.98
1/19/2021 11:00:00 PM 5.88 42.584 0.506 8.13 2.47 11.99
1/19/2021 11:15:00 PM 5.84 42.512 0.506 8.12 2.62 11.99
1/19/2021 11:30:00 PM 5.8 42.44 0.507 8.12 2.7 12
1/19/2021 11:45:00 PM 5.78 42.404 0.507 8.11 2.99 12.01
1/20/2021 12:00:00 AM 5.75 42.35 0.507 8.11 2.71 12.02
1/20/2021 12:15:00 AM 5.72 42.296 0.507 8.11 3.43 12.02
1/20/2021 12:30:00 AM 5.69 42.242 0.507 8.11 2.68 12.03
1/20/2021 12:45:00 AM 5.67 42.206 0.507 8.1 2.7 12.03
1/20/2021 1:00:00 AM 5.66 42.188 0.507 8.1 3.05 12.04
1/20/2021 1:15:00 AM 5.64 42.152 0.507 8.1 3 12.05
1/20/2021 1:30:00 AM 5.62 42.116 0.507 8.1 2.88 12.05
1/20/2021 1:45:00 AM 5.61 42.098 0.507 8.09 2.5 12.05
1/20/2021 2:00:00 AM 5.61 42.098 0.507 8.09 2.42 12.05
1/20/2021 2:15:00 AM 5.6 42.08 0.507 8.09 2.52 12.05
1/20/2021 2:30:00 AM 5.59 42.062 0.507 8.09 2.41 12.05
1/20/2021 2:45:00 AM 5.59 42.062 0.507 8.09 2.7 12.05
1/20/2021 3:00:00 AM 5.58 42.044 0.508 8.09 2.53 12.06
1/20/2021 3:15:00 AM 5.58 42.044 0.508 8.09 2.4 12.05
1/20/2021 3:30:00 AM 5.58 42.044 0.507 8.09 2.44 12.04
1/20/2021 3:45:00 AM 5.58 42.044 0.508 8.09 2.9 12.04
1/20/2021 4:00:00 AM 5.59 42.062 0.508 8.09 2.59 12.03
1/20/2021 4:15:00 AM 5.61 42.098 0.508 8.09 2.42 12.03
1/20/2021 4:30:00 AM 5.62 42.116 0.508 8.09 2.83 12.02
1/20/2021 4:45:00 AM 5.63 42.134 0.508 8.09 2.53 12.01
1/20/2021 5:00:00 AM 5.65 42.17 0.508 8.09 2.6 12
1/20/2021 5:15:00 AM 5.65 42.17 0.508 8.09 2.5 12
1/20/2021 5:30:00 AM 5.66 42.188 0.508 8.09 2.55 11.99
1/20/2021 5:45:00 AM 5.69 42.242 0.508 8.09 2.61 11.99
1/20/2021 6:00:00 AM 5.7 42.26 0.508 8.09 2.42 11.98
1/20/2021 6:15:00 AM 5.72 42.296 0.508 8.09 2.98 11.97
1/20/2021 6:30:00 AM 5.71 42.278 0.508 8.1 2.88 11.96
1/20/2021 6:45:00 AM 5.72 42.296 0.508 8.09 2.79 11.96
1/20/2021 7:00:00 AM 5.71 42.278 0.508 8.1 2.49 11.95
1/20/2021 7:15:00 AM 5.7 42.26 0.508 8.09 2.6 11.96
1/20/2021 7:30:00 AM 5.7 42.26 0.508 8.1 2.53 11.96
1/20/2021 7:45:00 AM 5.7 42.26 0.508 8.1 2.53 11.97
1/20/2021 8:00:00 AM 5.71 42.278 0.508 8.1 2.48 12
1/20/2021 8:15:00 AM 5.71 42.278 0.508 8.11 2.42 12.04
1/20/2021 8:30:00 AM 5.69 42.242 0.508 8.11 2.49 12.09
1/20/2021 8:45:00 AM 5.7 42.26 0.507 8.12 2.34 12.16
1/20/2021 9:00:00 AM 5.74 42.332 0.507 8.14 2.33 12.28
1/20/2021 9:15:00 AM 5.79 42.422 0.507 8.15 2.37 12.41
1/20/2021 9:30:00 AM 5.77 42.386 0.507 8.17 2.43 12.52
1/20/2021 9:45:00 AM 5.79 42.422 0.507 8.18 2.29 12.62
1/20/2021 10:00:00 AM 5.87 42.566 0.506 8.2 2.38 12.78
1/20/2021 10:15:00 AM 5.93 42.674 0.506 8.23 2.24 12.97
1/20/2021 10:30:00 AM 5.97 42.746 0.505 8.26 2.17 13.13
1/20/2021 10:45:00 AM 6.05 42.89 0.505 8.28 2.16 13.3
1/20/2021 11:00:00 AM 6.1 42.98 0.504 8.31 2.08 13.46
1/20/2021 11:15:00 AM 6.12 43.016 0.503 8.34 2.13 13.61
1/20/2021 11:30:00 AM 6.13 43.034 0.503 8.36 2.27 13.71
1/20/2021 11:45:00 AM 6.27 43.286 0.502 8.38 2.11 13.81
1/20/2021 12:00:00 PM 6.3 43.34 0.501 8.41 2.03 13.94
1/20/2021 12:15:00 PM 6.37 43.466 0.5 8.44 2.15 14.04
1/20/2021 12:30:00 PM 6.27 43.286 0.5 8.45 2.14 14.05
1/20/2021 12:45:00 PM 6.37 43.466 0.499 8.47 2.1 14.11
1/20/2021 1:00:00 PM 6.45 43.61 0.498 8.5 2.01 14.21
1/20/2021 1:15:00 PM 6.59 43.862 0.496 8.53 2.02 14.27
1/20/2021 1:30:00 PM 6.55 43.79 0.495 8.55 2.11 14.26
1/20/2021 1:45:00 PM 6.54 43.772 0.495 8.57 2.15 14.24
1/20/2021 2:00:00 PM 6.57 43.826 0.494 8.58 2.1 14.23
1/20/2021 2:15:00 PM 6.59 43.862 0.493 8.6 2.16 14.25
1/20/2021 2:30:00 PM 6.65 43.97 0.493 8.61 2.14 14.25
1/20/2021 2:45:00 PM 6.67 44.006 0.492 8.63 2.38 14.26
1/20/2021 3:00:00 PM 6.7 44.06 0.492 8.64 2.12 14.25
1/20/2021 3:15:00 PM 6.72 44.096 0.491 8.65 2.11 14.25
1/20/2021 3:30:00 PM 6.68 44.024 0.491 8.66 2.09 14.22
1/20/2021 3:45:00 PM 6.61 43.898 0.491 8.67 2.21 14.16
1/20/2021 4:00:00 PM 6.57 43.826 0.49 8.67 2.22 14.09
1/20/2021 4:15:00 PM 6.5 43.7 0.491 8.67 2.22 14
1/20/2021 4:30:00 PM 6.42 43.556 0.492 8.66 2.16 13.87
1/20/2021 4:45:00 PM 6.34 43.412 0.492 8.64 2.23 13.73
1/20/2021 5:00:00 PM 6.23 43.214 0.493 8.62 2.28 13.57
1/20/2021 5:15:00 PM 6.16 43.088 0.494 8.59 2.29 13.4
1/20/2021 5:30:00 PM 6.08 42.944 0.495 8.56 2.19 13.24
1/20/2021 5:45:00 PM 6.02 42.836 0.496 8.53 2.28 13.08
1/20/2021 6:00:00 PM 5.98 42.764 0.497 8.5 2.29 12.95
1/20/2021 6:15:00 PM 5.92 42.656 0.498 8.48 2.31 12.83
1/20/2021 6:30:00 PM 5.9 42.62 0.499 8.45 2.36 12.73
1/20/2021 6:45:00 PM 5.87 42.566 0.499 8.43 2.35 12.65
1/20/2021 7:00:00 PM 5.84 42.512 0.499 8.41 2.39 12.59
1/20/2021 7:15:00 PM 5.81 42.458 0.499 8.4 2.52 12.53
1/20/2021 7:30:00 PM 5.78 42.404 0.499 8.39 2.62 12.49
1/20/2021 7:45:00 PM 5.73 42.314 0.5 8.36 2.54 12.45
1/20/2021 8:00:00 PM 5.67 42.206 0.501 8.34 2.49 12.42
1/20/2021 8:15:00 PM 5.59 42.062 0.502 8.32 2.57 12.39
1/20/2021 8:30:00 PM 5.5 41.9 0.503 8.3 2.69 12.39
1/20/2021 8:45:00 PM 5.4 41.72 0.504 8.28 2.44 12.39
1/20/2021 9:00:00 PM 5.3 41.54 0.505 8.26 2.47 12.39
1/20/2021 9:15:00 PM 5.21 41.378 0.506 8.24 2.41 12.39
1/20/2021 9:30:00 PM 5.13 41.234 0.508 8.23 2.35 12.38
1/20/2021 9:45:00 PM 5.05 41.09 0.513 8.21 2.96 12.38
1/20/2021 10:00:00 PM 4.96 40.928 0.511 8.19 2.64 12.38
1/20/2021 10:15:00 PM 4.88 40.784 0.514 8.18 2.59 12.39
1/20/2021 10:30:00 PM 4.8 40.64 0.512 8.17 2.31 12.39
1/20/2021 10:45:00 PM 4.73 40.514 0.507 8.16 2.46 12.4
1/20/2021 11:00:00 PM 4.67 40.406 0.508 8.15 2.3 12.41
1/20/2021 11:15:00 PM 4.61 40.298 0.508 8.14 2.75 12.41
1/20/2021 11:30:00 PM 4.56 40.208 0.509 8.14 2.37 12.42
1/20/2021 11:45:00 PM 4.51 40.118 0.509 8.14 2.23 12.42
1/21/2021 12:00:00 AM 4.46 40.028 0.509 8.13 2.37 12.43
1/21/2021 12:15:00 AM 4.41 39.938 0.509 8.13 2.43 12.44
1/21/2021 12:30:00 AM 4.37 39.866 0.509 8.13 2.24 12.45
1/21/2021 12:45:00 AM 4.33 39.794 0.509 8.13 2.24 12.46
1/21/2021 1:00:00 AM 4.29 39.722 0.509 8.12 2.3 12.47
1/21/2021 1:15:00 AM 4.24 39.632 0.509 8.12 2.44 12.48
1/21/2021 1:30:00 AM 4.2 39.56 0.509 8.12 2.34 12.48
1/21/2021 1:45:00 AM 4.17 39.506 0.509 8.12 2.39 12.5
1/21/2021 2:00:00 AM 4.13 39.434 0.51 8.12 2.3 12.5
1/21/2021 2:15:00 AM 4.1 39.38 0.509 8.12 2.47 12.52
1/21/2021 2:30:00 AM 4.06 39.308 0.51 8.12 2.63 12.52
1/21/2021 2:45:00 AM 4.03 39.254 0.51 8.12 2.46 12.53
1/21/2021 3:00:00 AM 3.99 39.182 0.51 8.12 2.3 12.54
1/21/2021 3:15:00 AM 3.95 39.11 0.51 8.12 3.68 12.55
1/21/2021 3:30:00 AM 3.92 39.056 0.51 8.12 3.53 12.55
1/21/2021 3:45:00 AM 3.88 38.984 0.511 8.12 3.11 12.56
1/21/2021 4:00:00 AM 3.84 38.912 0.511 8.12 2.74 12.57
1/21/2021 4:15:00 AM 3.81 38.858 0.511 8.12 2.93 12.58
1/21/2021 4:30:00 AM 3.78 38.804 0.511 8.12 2.52 12.59
1/21/2021 4:45:00 AM 3.75 38.75 0.511 8.12 2.67 12.59
1/21/2021 5:00:00 AM 3.71 38.678 0.511 8.12 2.95 12.61
1/21/2021 5:15:00 AM 3.68 38.624 0.511 8.12 2.66 12.63
1/21/2021 5:30:00 AM 3.65 38.57 0.511 8.12 2.46 12.63
1/21/2021 5:45:00 AM 3.63 38.534 0.512 8.12 2.52 12.64
1/21/2021 6:00:00 AM 3.63 38.534 0.512 8.12 2.6 12.64
1/21/2021 6:15:00 AM 3.63 38.534 0.512 8.12 3.53 12.65
1/21/2021 6:30:00 AM 3.63 38.534 0.512 8.12 2.63 12.66
1/21/2021 6:45:00 AM 3.64 38.552 0.512 8.12 2.65 12.65
1/21/2021 7:00:00 AM 3.64 38.552 0.512 8.12 2.5 12.66
1/21/2021 7:15:00 AM 3.66 38.588 0.511 8.12 2.61 12.65
1/21/2021 7:30:00 AM 3.68 38.624 0.511 8.12 3.03 12.65
1/21/2021 7:45:00 AM 3.7 38.66 0.511 8.12 2.38 12.66
1/21/2021 8:00:00 AM 3.73 38.714 0.511 8.12 3.3 12.68
1/21/2021 8:15:00 AM 3.76 38.768 0.511 8.13 2.42 12.72
1/21/2021 8:30:00 AM 3.79 38.822 0.511 8.14 3.27 12.79
1/21/2021 8:45:00 AM 3.81 38.858 0.511 8.14 3.81 12.87
1/21/2021 9:00:00 AM 3.82 38.876 0.511 8.15 2.32 12.94
1/21/2021 9:15:00 AM 3.84 38.912 0.511 8.17 2.74 13.01
1/21/2021 9:30:00 AM 3.86 38.948 0.511 8.18 3.18 13.1
1/21/2021 9:45:00 AM 3.91 39.038 0.511 8.19 7.82 13.21
1/21/2021 10:00:00 AM 3.96 39.128 0.511 8.21 1.98 13.32
1/21/2021 10:15:00 AM 4.05 39.29 0.511 8.23 1.94 13.44
1/21/2021 10:30:00 AM 4.14 39.452 0.511 8.25 2.02 13.56
1/21/2021 10:45:00 AM 4.27 39.686 0.511 8.27 1.84 13.66
1/21/2021 11:00:00 AM 4.4 39.92 0.51 8.3 1.87 13.79
1/21/2021 11:15:00 AM 4.53 40.154 0.51 8.32 1.85 13.89
1/21/2021 11:30:00 AM 4.67 40.406 0.522 8.35 1.99 13.99
1/21/2021 11:45:00 AM 4.82 40.676 0.513 8.37 1.9 14.09
1/21/2021 12:00:00 PM 4.96 40.928 0.512 8.39 1.88 14.18
1/21/2021 12:15:00 PM 5.12 41.216 0.511 8.42 2.01 14.23
1/21/2021 12:30:00 PM 5.29 41.522 0.511 8.44 1.94 14.28
1/21/2021 12:45:00 PM 5.45 41.81 0.509 8.46 2.06 14.35
1/21/2021 1:00:00 PM 5.64 42.152 0.508 8.49 2.04 14.39
1/21/2021 1:15:00 PM 5.82 42.476 0.507 8.52 1.9 14.42
1/21/2021 1:30:00 PM 6.01 42.818 0.505 8.55 2.01 14.46
1/21/2021 1:45:00 PM 6.2 43.16 0.503 8.58 1.97 14.47
1/21/2021 2:00:00 PM 6.38 43.484 0.5 8.61 2 14.48
1/21/2021 2:15:00 PM 6.54 43.772 0.498 8.63 1.97 14.46
1/21/2021 2:30:00 PM 6.67 44.006 0.497 8.65 2.05 14.42
1/21/2021 2:45:00 PM 6.8 44.24 0.494 8.67 2.07 14.37
1/21/2021 3:00:00 PM 6.91 44.438 0.493 8.69 2 14.31
1/21/2021 3:15:00 PM 7.01 44.618 0.491 8.7 1.92 14.23
1/21/2021 3:30:00 PM 7.09 44.762 0.49 8.71 2.31 14.15
1/21/2021 3:45:00 PM 7.15 44.87 0.489 8.72 1.95 14.03
1/21/2021 4:00:00 PM 7.18 44.924 0.489 8.72 1.93 13.89
1/21/2021 4:15:00 PM 7.2 44.96 0.488 8.71 1.94 13.74
1/21/2021 4:30:00 PM 7.23 45.014 0.488 8.7 2.06 13.58
1/21/2021 4:45:00 PM 7.22 44.996 0.488 8.69 2.09 13.4
1/21/2021 5:00:00 PM 7.21 44.978 0.487 8.67 2.06 13.2
1/21/2021 5:15:00 PM 7.19 44.942 0.488 8.64 2.3 13
1/21/2021 5:30:00 PM 7.18 44.924 0.488 8.62 2.04 12.81
1/21/2021 5:45:00 PM 7.17 44.906 0.488 8.59 2.37 12.65
1/21/2021 6:00:00 PM 7.15 44.87 0.489 8.56 2.04 12.49
1/21/2021 6:15:00 PM 7.13 44.834 0.489 8.54 4.42 12.37
1/21/2021 6:30:00 PM 7.1 44.78 0.49 8.51 2.1 12.25
1/21/2021 6:45:00 PM 7.06 44.708 0.491 8.49 2.21 12.16
1/21/2021 7:00:00 PM 7.01 44.618 0.492 8.46 2.27 12.08
1/21/2021 7:15:00 PM 6.96 44.528 0.493 8.44 2.31 12.01
1/21/2021 7:30:00 PM 6.9 44.42 0.494 8.41 2.15 11.97
1/21/2021 7:45:00 PM 6.84 44.312 0.495 8.39 2.64 11.92
1/21/2021 8:00:00 PM 6.78 44.204 0.496 8.36 2.18 11.89
1/21/2021 8:15:00 PM 6.71 44.078 0.497 8.34 2.2 11.87
1/21/2021 8:30:00 PM 6.64 43.952 0.498 8.31 2.15 11.84
1/21/2021 8:45:00 PM 6.56 43.808 0.499 8.29 2.1 11.82
1/21/2021 9:00:00 PM 6.47 43.646 0.5 8.27 2.06 11.81
1/21/2021 9:15:00 PM 6.38 43.484 0.501 8.24 2.18 11.79
1/21/2021 9:30:00 PM 6.28 43.304 0.503 8.22 2.2 11.78
1/21/2021 9:45:00 PM 6.19 43.142 0.503 8.2 2.08 11.78
1/21/2021 10:00:00 PM 6.1 42.98 0.504 8.19 2.23 11.78
1/21/2021 10:15:00 PM 6.01 42.818 0.505 8.17 2.23 11.78
1/21/2021 10:30:00 PM 5.92 42.656 0.505 8.16 2.32 11.79
1/21/2021 10:45:00 PM 5.84 42.512 0.505 8.15 2.47 11.8
1/21/2021 11:00:00 PM 5.77 42.386 0.505 8.13 2.3 11.8
1/21/2021 11:15:00 PM 5.73 42.314 0.506 8.13 2.39 11.82
1/21/2021 11:30:00 PM 5.69 42.242 0.506 8.12 2.28 11.83
1/21/2021 11:45:00 PM 5.66 42.188 0.506 8.11 2.3 11.84
1/22/2021 12:00:00 AM 5.63 42.134 0.506 8.12 2.76 11.85
1/22/2021 12:15:00 AM 5.61 42.098 0.506 8.11 2.33 11.86
1/22/2021 12:30:00 AM 5.59 42.062 0.506 8.11 2.29 11.88
1/22/2021 12:45:00 AM 5.58 42.044 0.506 8.11 2.24 11.89
1/22/2021 1:00:00 AM 5.58 42.044 0.506 8.1 2.37 11.88
1/22/2021 1:15:00 AM 5.57 42.026 0.505 8.11 2.32 11.89
1/22/2021 1:30:00 AM 5.57 42.026 0.506 8.11 2.37 11.89
1/22/2021 1:45:00 AM 5.56 42.008 0.506 8.1 2.49 11.89
1/22/2021 2:00:00 AM 5.56 42.008 0.506 8.1 2.5 11.89
1/22/2021 2:15:00 AM 5.55 41.99 0.506 8.1 2.43 11.89
1/22/2021 2:30:00 AM 5.54 41.972 0.505 8.1 2.34 11.9
1/22/2021 2:45:00 AM 5.52 41.936 0.506 8.1 2.38 11.83
1/22/2021 3:00:00 AM 5.52 41.936 0.506 8.1 2.44 11.9
1/22/2021 3:15:00 AM 5.51 41.918 0.506 8.1 2.47 11.92
1/22/2021 3:30:00 AM 5.49 41.882 0.506 8.1 2.29 11.92
1/22/2021 3:45:00 AM 5.48 41.864 0.506 8.1 2.9 11.91
1/22/2021 4:00:00 AM 5.46 41.828 0.507 8.1 2.34 11.92
1/22/2021 4:15:00 AM 5.45 41.81 0.506 8.1 2.25 11.92
1/22/2021 4:30:00 AM 5.45 41.81 0.506 8.09 2.42 11.92
1/22/2021 4:45:00 AM 5.44 41.792 0.507 8.1 2.34 11.92
1/22/2021 5:00:00 AM 5.43 41.774 0.507 8.1 2.36 11.92
1/22/2021 5:15:00 AM 5.42 41.756 0.507 8.1 2.43 11.92
1/22/2021 5:30:00 AM 5.41 41.738 0.507 8.1 2.6 11.92
1/22/2021 5:45:00 AM 5.4 41.72 0.507 8.1 2.65 11.91
1/22/2021 6:00:00 AM 5.38 41.684 0.507 8.1 2.6 11.91
1/22/2021 6:15:00 AM 5.37 41.666 0.506 8.1 2.96 11.92
1/22/2021 6:30:00 AM 5.37 41.666 0.507 8.1 3.2 11.92
1/22/2021 6:45:00 AM 5.37 41.666 0.507 8.1 2.42 11.92
1/22/2021 7:00:00 AM 5.35 41.63 0.507 8.1 2.43 11.93
1/22/2021 7:15:00 AM 5.34 41.612 0.507 8.11 2.46 11.94
1/22/2021 7:30:00 AM 5.33 41.594 0.507 8.11 2.73 11.95
1/22/2021 7:45:00 AM 5.32 41.576 0.507 8.11 2.24 11.97
1/22/2021 8:00:00 AM 5.32 41.576 0.507 8.11 2.11 12.02
1/22/2021 8:15:00 AM 5.35 41.63 0.507 8.12 2.06 12.09
1/22/2021 8:30:00 AM 5.39 41.702 0.507 8.13 2.23 12.18
1/22/2021 8:45:00 AM 5.42 41.756 0.506 8.14 2.22 12.29
1/22/2021 9:00:00 AM 5.42 41.756 0.507 8.15 2.16 12.38
1/22/2021 9:15:00 AM 5.45 41.81 0.507 8.17 2.1 12.49
1/22/2021 9:30:00 AM 5.49 41.882 0.506 8.19 2.04 12.63
1/22/2021 9:45:00 AM 5.55 41.99 0.506 8.21 1.95 12.78
1/22/2021 10:00:00 AM 5.6 42.08 0.505 8.23 2.08 12.93
1/22/2021 10:15:00 AM 5.67 42.206 0.505 8.26 1.91 13.07
1/22/2021 10:30:00 AM 5.75 42.35 0.504 8.28 2.21 13.23
1/22/2021 10:45:00 AM 5.83 42.494 0.503 8.31 2.09 13.41
1/22/2021 11:00:00 AM 5.9 42.62 0.503 8.34 2.08 13.59
1/22/2021 11:15:00 AM 5.96 42.728 0.502 8.37 2.04 13.74
1/22/2021 11:30:00 AM 5.99 42.782 0.502 8.4 2.02 13.85
1/22/2021 11:45:00 AM 6.05 42.89 0.501 8.43 1.96 13.98
1/22/2021 12:00:00 PM 6.11 42.998 0.5 8.45 1.87 14.1
1/22/2021 12:15:00 PM 6.14 43.052 0.499 8.48 1.92 14.16
1/22/2021 12:30:00 PM 6.18 43.124 0.499 8.5 1.9 14.18
1/22/2021 12:45:00 PM 6.24 43.232 0.498 8.52 1.9 14.21
1/22/2021 1:00:00 PM 6.31 43.358 0.497 8.54 2.04 14.28
1/22/2021 1:15:00 PM 6.39 43.502 0.495 8.57 1.87 14.35
1/22/2021 1:30:00 PM 6.54 43.772 0.495 8.59 2.3 14.39
1/22/2021 1:45:00 PM 6.68 44.024 0.493 8.62 2.14 14.43
1/22/2021 2:00:00 PM 6.72 44.096 0.492 8.64 2.07 14.43
1/22/2021 2:15:00 PM 6.81 44.258 0.492 8.66 1.98 14.44
1/22/2021 2:30:00 PM 6.83 44.294 0.49 8.68 1.89 14.4
1/22/2021 2:45:00 PM 6.89 44.402 0.489 8.7 2.16 14.38
1/22/2021 3:00:00 PM 6.97 44.546 0.488 8.72 2 14.36
1/22/2021 3:15:00 PM 7 44.6 0.488 8.72 2.35 14.3
1/22/2021 3:30:00 PM 7.01 44.618 0.488 8.73 2.19 14.19
1/22/2021 3:45:00 PM 7.03 44.654 0.487 8.73 2.09 14.11
1/22/2021 4:00:00 PM 7.07 44.726 0.487 8.73 2.21 14.03
1/22/2021 4:15:00 PM 7.08 44.744 0.488 8.72 2.12 13.95
1/22/2021 4:30:00 PM 7.08 44.744 0.488 8.71 2.44 13.82
1/22/2021 4:45:00 PM 7.07 44.726 0.488 8.7 2.26 13.68
1/22/2021 5:00:00 PM 7.04 44.672 0.489 8.69 2.12 13.53
1/22/2021 5:15:00 PM 7.02 44.636 0.489 8.67 2.19 13.35
1/22/2021 5:30:00 PM 7.01 44.618 0.49 8.64 1.99 13.15
1/22/2021 5:45:00 PM 6.99 44.582 0.491 8.62 2.83 12.97
1/22/2021 6:00:00 PM 6.97 44.546 0.491 8.59 2.27 12.8
1/22/2021 6:15:00 PM 6.96 44.528 0.492 8.56 2.11 12.65
1/22/2021 6:30:00 PM 6.97 44.546 0.493 8.53 2.44 12.5
1/22/2021 6:45:00 PM 6.98 44.564 0.494 8.5 2.46 12.37
1/22/2021 7:00:00 PM 6.97 44.546 0.495 8.47 2.27 12.24
1/22/2021 7:15:00 PM 6.93 44.474 0.496 8.42 2.52 12.16
1/22/2021 7:30:00 PM 6.9 44.42 0.498 8.39 6.09 12.08
1/22/2021 7:45:00 PM 6.85 44.33 0.499 8.36 2.37 12.03
1/22/2021 8:00:00 PM 6.79 44.222 0.5 8.34 2.16 12
1/22/2021 8:15:00 PM 6.77 44.186 0.5 8.32 2.15 11.98
1/22/2021 8:30:00 PM 6.73 44.114 0.501 8.3 2.14 11.94
1/22/2021 8:45:00 PM 6.71 44.078 0.501 8.28 2.29 11.92
1/22/2021 9:00:00 PM 6.68 44.024 0.502 8.26 2.38 11.89
1/22/2021 9:15:00 PM 6.62 43.916 0.503 8.25 2.18 11.87
1/22/2021 9:30:00 PM 6.57 43.826 0.504 8.23 2.11 11.84
1/22/2021 9:45:00 PM 6.5 43.7 0.505 8.21 2.33 11.82
1/22/2021 10:00:00 PM 6.46 43.628 0.506 8.19 2.17 11.8
1/22/2021 10:15:00 PM 6.4 43.52 0.506 8.17 2.09 11.8
1/22/2021 10:30:00 PM 6.33 43.394 0.507 8.17 2.11 11.79
1/22/2021 10:45:00 PM 6.27 43.286 0.507 8.16 2.17 11.79
1/22/2021 11:00:00 PM 6.21 43.178 0.508 8.15 2.25 11.79
1/22/2021 11:15:00 PM 6.14 43.052 0.508 8.15 2.14 11.8
1/22/2021 11:30:00 PM 6.11 42.998 0.508 8.15 2.48 11.81
1/22/2021 11:45:00 PM 6.06 42.908 0.508 8.14 2.25 11.82
1/23/2021 12:00:00 AM 6 42.8 0.508 8.14 2.03 11.83
1/23/2021 12:15:00 AM 5.96 42.728 0.508 8.13 2.05 11.84
1/23/2021 12:30:00 AM 5.91 42.638 0.509 8.13 2.09 11.85
1/23/2021 12:45:00 AM 5.86 42.548 0.508 8.13 2.35 11.87
1/23/2021 1:00:00 AM 5.82 42.476 0.509 8.13 2.23 11.88
1/23/2021 1:15:00 AM 5.78 42.404 0.509 8.12 2.14 11.89
1/23/2021 1:30:00 AM 5.75 42.35 0.509 8.13 2.15 11.91
1/23/2021 1:45:00 AM 5.7 42.26 0.509 8.13 2.48 11.93
1/23/2021 2:00:00 AM 5.65 42.17 0.509 8.12 2.07 11.94
1/23/2021 2:15:00 AM 5.62 42.116 0.509 8.12 2.17 11.96
1/23/2021 2:30:00 AM 5.59 42.062 0.51 8.12 2.13 11.98
1/23/2021 2:45:00 AM 5.54 41.972 0.51 8.12 2.33 11.99
1/23/2021 3:00:00 AM 5.5 41.9 0.51 8.12 2.43 12.01
1/23/2021 3:15:00 AM 5.46 41.828 0.51 8.12 2.37 12.03
1/23/2021 3:30:00 AM 5.38 41.684 0.51 8.12 2.58 12.06
1/23/2021 3:45:00 AM 5.33 41.594 0.511 8.12 2.92 12.07
1/23/2021 4:00:00 AM 5.3 41.54 0.512 8.12 2.71 12.09
1/23/2021 4:15:00 AM 5.23 41.414 0.511 8.12 2.59 12.11
1/23/2021 4:30:00 AM 5.18 41.324 0.511 8.12 2.59 12.12
1/23/2021 4:45:00 AM 5.11 41.198 0.512 8.12 2.7 12.14
1/23/2021 5:00:00 AM 5.06 41.108 0.512 8.12 2.51 12.16
1/23/2021 5:15:00 AM 5 41 0.512 8.12 2.55 12.18
1/23/2021 5:30:00 AM 4.93 40.874 0.513 8.12 2.39 12.2
1/23/2021 5:45:00 AM 4.86 40.748 0.513 8.12 2.36 12.22
1/23/2021 6:00:00 AM 4.8 40.64 0.513 8.12 2.31 12.24
1/23/2021 6:15:00 AM 4.76 40.568 0.513 8.12 2.35 12.26
1/23/2021 6:30:00 AM 4.68 40.424 0.523 8.12 2.49 12.28
1/23/2021 6:45:00 AM 4.61 40.298 0.596 8.12 2.68 12.3
1/23/2021 7:00:00 AM 4.58 40.244 0.507 8.13 2.67 12.31
1/23/2021 7:15:00 AM 4.53 40.154 0.51 8.12 2.32 12.33
1/23/2021 7:30:00 AM 4.48 40.064 0.511 8.13 2.28 12.36
1/23/2021 7:45:00 AM 4.42 39.956 0.511 8.13 2.25 12.4
1/23/2021 8:00:00 AM 4.38 39.884 0.511 8.13 2.15 12.45
1/23/2021 8:15:00 AM 4.37 39.866 0.511 8.14 2.11 12.52
1/23/2021 8:30:00 AM 4.33 39.794 0.511 8.15 2.23 12.62
1/23/2021 8:45:00 AM 4.33 39.794 0.511 8.16 2.33 12.73
1/23/2021 9:00:00 AM 4.28 39.704 0.511 8.17 2.31 12.86
1/23/2021 9:15:00 AM 4.25 39.65 0.511 8.19 2.23 13.02
1/23/2021 9:30:00 AM 4.23 39.614 0.511 8.21 2.11 13.17
1/23/2021 9:45:00 AM 4.22 39.596 0.511 8.23 2.07 13.32
1/23/2021 10:00:00 AM 4.19 39.542 0.51 8.25 2 13.52
1/23/2021 10:15:00 AM 4.2 39.56 0.51 8.28 1.97 13.71
1/23/2021 10:30:00 AM 4.23 39.614 0.509 8.3 1.77 13.9
1/23/2021 10:45:00 AM 4.23 39.614 0.509 8.33 1.79 14.08
1/23/2021 11:00:00 AM 4.23 39.614 0.509 8.36 1.84 14.25
1/23/2021 11:15:00 AM 4.26 39.668 0.508 8.39 1.78 14.42
1/23/2021 11:30:00 AM 4.3 39.74 0.508 8.42 1.74 14.56
1/23/2021 11:45:00 AM 4.34 39.812 0.507 8.45 1.87 14.67
1/23/2021 12:00:00 PM 4.36 39.848 0.507 8.47 1.83 14.77
1/23/2021 12:15:00 PM 4.39 39.902 0.506 8.49 1.8 14.88
1/23/2021 12:30:00 PM 4.41 39.938 0.505 8.51 1.83 14.97
1/23/2021 12:45:00 PM 4.43 39.974 0.505 8.54 1.82 15.06
1/23/2021 1:00:00 PM 4.44 39.992 0.504 8.56 1.73 15.12
1/23/2021 1:15:00 PM 4.5 40.1 0.503 8.58 1.79 15.19
1/23/2021 1:30:00 PM 4.51 40.118 0.502 8.61 1.75 15.22
1/23/2021 1:45:00 PM 4.52 40.136 0.5 8.63 1.9 15.25
1/23/2021 2:00:00 PM 4.53 40.154 0.5 8.65 1.94 15.27
1/23/2021 2:15:00 PM 4.59 40.262 0.498 8.67 1.96 15.27
1/23/2021 2:30:00 PM 4.63 40.334 0.497 8.69 1.8 15.27
1/23/2021 2:45:00 PM 4.72 40.496 0.496 8.71 1.84 15.28
1/23/2021 3:00:00 PM 4.76 40.568 0.495 8.73 1.88 15.26
1/23/2021 3:15:00 PM 4.83 40.694 0.494 8.74 1.78 15.23
1/23/2021 3:30:00 PM 4.85 40.73 0.494 8.76 1.74 15.2
1/23/2021 3:45:00 PM 4.9 40.82 0.493 8.77 1.77 15.13
1/23/2021 4:00:00 PM 4.93 40.874 0.493 8.77 1.85 15.04
1/23/2021 4:15:00 PM 4.95 40.91 0.492 8.77 1.95 14.95
1/23/2021 4:30:00 PM 4.97 40.946 0.492 8.78 1.89 14.81
1/23/2021 4:45:00 PM 4.96 40.928 0.492 8.77 1.81 14.66
1/23/2021 5:00:00 PM 4.94 40.892 0.492 8.76 2.1 14.49
1/23/2021 5:15:00 PM 4.93 40.874 0.493 8.75 1.95 14.29
1/23/2021 5:30:00 PM 4.92 40.856 0.493 8.73 1.9 14.08
1/23/2021 5:45:00 PM 4.93 40.874 0.494 8.71 1.89 13.87
1/23/2021 6:00:00 PM 4.95 40.91 0.495 8.68 1.92 13.68
1/23/2021 6:15:00 PM 4.97 40.946 0.495 8.66 1.87 13.51
1/23/2021 6:30:00 PM 4.98 40.964 0.496 8.64 1.88 13.35
1/23/2021 6:45:00 PM 4.99 40.982 0.496 8.61 1.97 13.21
1/23/2021 7:00:00 PM 5 41 0.497 8.59 1.95 13.1
1/23/2021 7:15:00 PM 5 41 0.498 8.56 1.91 13
1/23/2021 7:30:00 PM 4.99 40.982 0.499 8.54 2.03 12.93
1/23/2021 7:45:00 PM 4.98 40.964 0.499 8.52 1.89 12.85
1/23/2021 8:00:00 PM 4.95 40.91 0.501 8.49 1.99 12.8
1/23/2021 8:15:00 PM 4.9 40.82 0.502 8.46 1.94 12.76
1/23/2021 8:30:00 PM 4.83 40.694 0.503 8.43 1.84 12.73
1/23/2021 8:45:00 PM 4.76 40.568 0.504 8.41 1.89 12.72
1/23/2021 9:00:00 PM 4.69 40.442 0.506 8.38 2.14 12.7
1/23/2021 9:15:00 PM 4.61 40.298 0.507 8.35 1.98 12.69
1/23/2021 9:30:00 PM 4.52 40.136 0.508 8.33 2.09 12.67
1/23/2021 9:45:00 PM 4.43 39.974 0.51 8.3 2.14 12.66
1/23/2021 10:00:00 PM 4.33 39.794 0.511 8.27 2.13 12.66
1/23/2021 10:15:00 PM 4.23 39.614 0.513 8.25 2.1 12.67
1/23/2021 10:30:00 PM 4.14 39.452 0.513 8.23 2.06 12.67
1/23/2021 10:45:00 PM 4.05 39.29 0.515 8.21 2.01 12.68
1/23/2021 11:00:00 PM 3.96 39.128 0.515 8.2 1.97 12.69
1/23/2021 11:15:00 PM 3.88 38.984 0.516 8.19 2.13 12.7
1/23/2021 11:30:00 PM 3.81 38.858 0.516 8.18 2.03 12.72
1/23/2021 11:45:00 PM 3.77 38.786 0.516 8.18 1.99 12.73
1/24/2021 12:00:00 AM 3.73 38.714 0.517 8.17 2.15 12.74
1/24/2021 12:15:00 AM 3.69 38.642 0.516 8.17 2.17 12.76
1/24/2021 12:30:00 AM 3.66 38.588 0.517 8.16 2.29 12.77
1/24/2021 12:45:00 AM 3.63 38.534 0.516 8.16 2.15 12.78
1/24/2021 1:00:00 AM 3.6 38.48 0.516 8.16 1.99 12.8
1/24/2021 1:15:00 AM 3.57 38.426 0.516 8.16 2 12.8
1/24/2021 1:30:00 AM 3.52 38.336 0.516 8.16 1.98 12.82
1/24/2021 1:45:00 AM 3.48 38.264 0.516 8.15 1.95 12.83
1/24/2021 2:00:00 AM 3.46 38.228 0.516 8.15 1.92 12.84
1/24/2021 2:15:00 AM 3.44 38.192 0.516 8.15 2.02 12.85
1/24/2021 2:30:00 AM 3.41 38.138 0.516 8.15 2.03 12.86
1/24/2021 2:45:00 AM 3.37 38.066 0.516 8.15 2.1 12.87
1/24/2021 3:00:00 AM 3.33 37.994 0.516 8.15 2.18 12.89
1/24/2021 3:15:00 AM 3.28 37.904 0.516 8.15 2.27 12.9
1/24/2021 3:30:00 AM 3.25 37.85 0.516 8.15 3.74 12.9
1/24/2021 3:45:00 AM 3.22 37.796 0.516 8.15 2.28 12.92
1/24/2021 4:00:00 AM 3.18 37.724 0.517 8.15 2.38 12.93
1/24/2021 4:15:00 AM 3.14 37.652 0.517 8.15 3.36 12.93
1/24/2021 4:30:00 AM 3.1 37.58 0.518 8.14 2.42 12.95
1/24/2021 4:45:00 AM 3.07 37.526 0.519 8.16 2.79 12.95
1/24/2021 5:00:00 AM 3.03 37.454 0.521 8.17 2.53 12.97
1/24/2021 5:15:00 AM 3.02 37.436 0.523 8.17 2.21 12.97
1/24/2021 5:30:00 AM 2.99 37.382 0.525 8.17 4.21 12.99
1/24/2021 5:45:00 AM 2.97 37.346 0.528 8.17 2.44 12.99
1/24/2021 6:00:00 AM 2.95 37.31 0.531 8.17 2.26 13
1/24/2021 6:15:00 AM 2.94 37.292 0.533 8.18 4.22 13
1/24/2021 6:30:00 AM 2.92 37.256 0.534 8.18 2.09 13.01
1/24/2021 6:45:00 AM 2.9 37.22 0.533 8.18 2.2 13.01
1/24/2021 7:00:00 AM 2.88 37.184 0.532 8.18 2.02 13.03
1/24/2021 7:15:00 AM 2.86 37.148 0.531 8.18 1.91 13.04
1/24/2021 7:30:00 AM 2.83 37.094 0.53 8.18 1.95 13.05
1/24/2021 7:45:00 AM 2.82 37.076 0.53 8.18 2.18 13.08
1/24/2021 8:00:00 AM 2.8 37.04 0.53 8.19 1.86 13.13
1/24/2021 8:15:00 AM 2.78 37.004 0.53 8.19 1.86 13.19
1/24/2021 8:30:00 AM 2.77 36.986 0.529 8.2 1.82 13.27
1/24/2021 8:45:00 AM 2.76 36.968 0.529 8.21 1.85 13.36
1/24/2021 9:00:00 AM 2.77 36.986 0.528 8.22 2.02 13.45
1/24/2021 9:15:00 AM 2.78 37.004 0.527 8.23 1.87 13.56
1/24/2021 9:30:00 AM 2.8 37.04 0.526 8.25 1.81 13.68
1/24/2021 9:45:00 AM 2.79 37.022 0.525 8.26 1.74 13.8
1/24/2021 10:00:00 AM 2.81 37.058 0.524 8.28 1.84 13.94
1/24/2021 10:15:00 AM 2.86 37.148 0.523 8.3 1.78 14.09
1/24/2021 10:30:00 AM 2.92 37.256 0.522 8.32 1.71 14.22
1/24/2021 10:45:00 AM 3.03 37.454 0.521 8.35 1.6 14.34
1/24/2021 11:00:00 AM 3.15 37.67 0.519 8.37 1.77 14.48
1/24/2021 11:15:00 AM 3.26 37.868 0.518 8.4 1.63 14.65
1/24/2021 11:30:00 AM 3.34 38.012 0.517 8.42 1.64 14.8
1/24/2021 11:45:00 AM 3.51 38.318 0.516 8.45 1.68 14.94
1/24/2021 12:00:00 PM 3.62 38.516 0.515 8.48 1.83 15.05
1/24/2021 12:15:00 PM 3.78 38.804 0.514 8.51 1.77 15.16
1/24/2021 12:30:00 PM 3.91 39.038 0.513 8.53 1.81 15.22
1/24/2021 12:45:00 PM 4.03 39.254 0.512 8.55 1.6 15.29
1/24/2021 1:00:00 PM 4.18 39.524 0.511 8.57 1.59 15.32
1/24/2021 1:15:00 PM 4.31 39.758 0.51 8.6 1.61 15.34
1/24/2021 1:30:00 PM 4.47 40.046 0.509 8.62 1.77 15.37
1/24/2021 1:45:00 PM 4.63 40.334 0.508 8.65 1.59 15.37
1/24/2021 2:00:00 PM 4.77 40.586 0.506 8.68 1.71 15.39
1/24/2021 2:15:00 PM 4.92 40.856 0.519 8.7 2.01 15.37
1/24/2021 2:30:00 PM 5.04 41.072 0.512 8.72 2 15.34
1/24/2021 2:45:00 PM 5.15 41.27 0.507 8.74 1.8 15.3
1/24/2021 3:00:00 PM 5.25 41.45 0.506 8.76 1.87 15.23
1/24/2021 3:15:00 PM 5.34 41.612 0.505 8.77 1.77 15.18
1/24/2021 3:30:00 PM 5.39 41.702 0.505 8.78 1.86 15.07
1/24/2021 3:45:00 PM 5.44 41.792 0.505 8.78 1.95 14.97
1/24/2021 4:00:00 PM 5.49 41.882 0.504 8.79 1.66 14.86
1/24/2021 4:15:00 PM 5.51 41.918 0.504 8.78 1.59 14.72
1/24/2021 4:30:00 PM 5.54 41.972 0.505 8.78 1.57 14.55
1/24/2021 4:45:00 PM 5.56 42.008 0.505 8.77 1.71 14.35
1/24/2021 5:00:00 PM 5.57 42.026 0.505 8.75 1.77 14.15
1/24/2021 5:15:00 PM 5.56 42.008 0.505 8.73 1.87 13.94
1/24/2021 5:30:00 PM 5.57 42.026 0.505 8.71 1.8 13.71
1/24/2021 5:45:00 PM 5.58 42.044 0.506 8.69 1.84 13.5
1/24/2021 6:00:00 PM 5.61 42.098 0.505 8.66 1.99 13.31
1/24/2021 6:15:00 PM 5.64 42.152 0.505 8.63 1.84 13.15
1/24/2021 6:30:00 PM 5.67 42.206 0.505 8.61 1.81 13
1/24/2021 6:45:00 PM 5.7 42.26 0.505 8.58 2.68 12.87
1/24/2021 7:00:00 PM 5.71 42.278 0.504 8.56 1.8 12.78
1/24/2021 7:15:00 PM 5.72 42.296 0.504 8.53 1.77 12.68
1/24/2021 7:30:00 PM 5.72 42.296 0.504 8.5 1.94 12.61
1/24/2021 7:45:00 PM 5.72 42.296 0.504 8.48 1.83 12.55
1/24/2021 8:00:00 PM 5.71 42.278 0.503 8.45 2.02 12.5
1/24/2021 8:15:00 PM 5.69 42.242 0.503 8.43 1.92 12.45
1/24/2021 8:30:00 PM 5.68 42.224 0.503 8.41 1.84 12.41
1/24/2021 8:45:00 PM 5.65 42.17 0.503 8.38 1.88 12.38
1/24/2021 9:00:00 PM 5.62 42.116 0.503 8.36 1.77 12.35
1/24/2021 9:15:00 PM 5.57 42.026 0.505 8.34 2.01 12.32
1/24/2021 9:30:00 PM 5.53 41.954 0.505 8.31 1.88 12.3
1/24/2021 9:45:00 PM 5.48 41.864 0.507 8.29 1.97 12.27
1/24/2021 10:00:00 PM 5.43 41.774 0.509 8.27 1.86 12.26
1/24/2021 10:15:00 PM 5.39 41.702 0.51 8.25 2.19 12.23
1/24/2021 10:30:00 PM 5.35 41.63 0.511 8.23 1.81 12.22
1/24/2021 10:45:00 PM 5.31 41.558 0.511 8.22 1.8 12.2
1/24/2021 11:00:00 PM 5.28 41.504 0.512 8.2 1.92 12.19
1/24/2021 11:15:00 PM 5.25 41.45 0.513 8.2 1.95 12.18
1/24/2021 11:30:00 PM 5.23 41.414 0.513 8.19 1.88 12.18
1/24/2021 11:45:00 PM 5.22 41.396 0.514 8.19 1.9 12.18
1/25/2021 12:00:00 AM 5.2 41.36 0.514 8.18 1.87 12.17
1/25/2021 12:15:00 AM 5.19 41.342 0.515 8.18 1.86 12.17
1/25/2021 12:30:00 AM 5.18 41.324 0.515 8.17 1.84 12.17
1/25/2021 12:45:00 AM 5.17 41.306 0.516 8.17 1.96 12.17
1/25/2021 1:00:00 AM 5.16 41.288 0.516 8.17 1.73 12.16
1/25/2021 1:15:00 AM 5.15 41.27 0.516 8.16 1.92 12.16
1/25/2021 1:30:00 AM 5.15 41.27 0.517 8.16 2.08 12.15
1/25/2021 1:45:00 AM 5.14 41.252 0.517 8.16 2.07 12.15
1/25/2021 2:00:00 AM 5.14 41.252 0.516 8.16 1.94 12.15
1/25/2021 2:15:00 AM 5.14 41.252 0.516 8.16 1.99 12.15
1/25/2021 2:30:00 AM 5.14 41.252 0.517 8.16 1.84 12.15
1/25/2021 2:45:00 AM 5.14 41.252 0.517 8.16 2.17 12.15
1/25/2021 3:00:00 AM 5.14 41.252 0.516 8.15 2.08 12.15
1/25/2021 3:15:00 AM 5.14 41.252 0.517 8.15 2.13 12.14
1/25/2021 3:30:00 AM 5.14 41.252 0.517 8.15 1.97 12.15
1/25/2021 3:45:00 AM 5.14 41.252 0.517 8.15 2.22 12.15
1/25/2021 4:00:00 AM 5.14 41.252 0.517 8.15 1.88 12.15
1/25/2021 4:15:00 AM 5.14 41.252 0.517 8.15 2.17 12.14
1/25/2021 4:30:00 AM 5.13 41.234 0.517 8.15 2.04 12.15
1/25/2021 4:45:00 AM 5.13 41.234 0.517 8.15 1.92 12.14
1/25/2021 5:00:00 AM 5.13 41.234 0.517 8.15 1.8 12.14
1/25/2021 5:15:00 AM 5.13 41.234 0.517 8.15 1.8 12.15
1/25/2021 5:30:00 AM 5.13 41.234 0.518 8.15 1.86 12.15
1/25/2021 5:45:00 AM 5.13 41.234 0.517 8.16 1.75 12.14
1/25/2021 6:00:00 AM 5.12 41.216 0.517 8.15 1.88 12.15
1/25/2021 6:15:00 AM 5.12 41.216 0.517 8.15 2 12.14
1/25/2021 6:30:00 AM 5.12 41.216 0.517 8.16 1.96 12.14
1/25/2021 6:45:00 AM 5.12 41.216 0.517 8.15 1.86 12.15
1/25/2021 7:00:00 AM 5.12 41.216 0.517 8.15 2.09 12.15
1/25/2021 7:15:00 AM 5.11 41.198 0.517 8.15 2.02 12.15
1/25/2021 7:30:00 AM 5.11 41.198 0.517 8.16 2.13 12.15
1/25/2021 7:45:00 AM 5.11 41.198 0.517 8.16 1.86 12.17
1/25/2021 8:00:00 AM 5.12 41.216 0.517 8.16 1.8 12.2
1/25/2021 8:15:00 AM 5.12 41.216 0.517 8.16 1.86 12.24
1/25/2021 8:30:00 AM 5.13 41.234 0.517 8.17 1.78 12.3
1/25/2021 8:45:00 AM 5.14 41.252 0.517 8.18 1.91 12.39
1/25/2021 9:00:00 AM 5.15 41.27 0.517 8.19 1.74 12.48
1/25/2021 9:15:00 AM 5.15 41.27 0.516 8.2 1.78 12.57
1/25/2021 9:30:00 AM 5.17 41.306 0.516 8.22 1.75 12.69
1/25/2021 9:45:00 AM 5.19 41.342 0.515 8.24 2.31 12.83
1/25/2021 10:00:00 AM 5.23 41.414 0.515 8.26 2.77 12.99
1/25/2021 10:15:00 AM 5.28 41.504 0.515 8.28 1.68 13.17
1/25/2021 10:30:00 AM 5.36 41.648 0.514 8.31 1.62 13.38
1/25/2021 10:45:00 AM 5.42 41.756 0.514 8.34 1.59 13.57
1/25/2021 11:00:00 AM 5.5 41.9 0.513 8.37 1.62 13.77
1/25/2021 11:15:00 AM 5.55 41.99 0.512 8.4 1.66 13.94
1/25/2021 11:30:00 AM 5.61 42.098 0.511 8.43 1.73 14.12
1/25/2021 11:45:00 AM 5.67 42.206 0.51 8.46 1.61 14.28
1/25/2021 12:00:00 PM 5.73 42.314 0.509 8.49 1.69 14.41
1/25/2021 12:15:00 PM 5.79 42.422 0.508 8.52 1.72 14.52
1/25/2021 12:30:00 PM 5.84 42.512 0.507 8.54 1.71 14.6
1/25/2021 12:45:00 PM 5.88 42.584 0.506 8.56 1.61 14.66
1/25/2021 1:00:00 PM 5.94 42.692 0.506 8.58 1.72 14.72
1/25/2021 1:15:00 PM 6 42.8 0.504 8.61 1.61 14.79
1/25/2021 1:30:00 PM 6.06 42.908 0.503 8.63 1.6 14.86
1/25/2021 1:45:00 PM 6.1 42.98 0.502 8.65 1.62 14.9
1/25/2021 2:00:00 PM 6.15 43.07 0.501 8.67 1.79 14.92
1/25/2021 2:15:00 PM 6.19 43.142 0.5 8.69 1.73 14.95
1/25/2021 2:30:00 PM 6.22 43.196 0.499 8.7 1.76 14.95
1/25/2021 2:45:00 PM 6.25 43.25 0.498 8.72 1.85 14.94
1/25/2021 3:00:00 PM 6.28 43.304 0.497 8.73 1.88 14.9
1/25/2021 3:15:00 PM 6.31 43.358 0.497 8.74 1.88 14.82
1/25/2021 3:30:00 PM 6.33 43.394 0.496 8.75 1.96 14.71
1/25/2021 3:45:00 PM 6.35 43.43 0.496 8.75 1.99 14.58
1/25/2021 4:00:00 PM 6.38 43.484 0.496 8.75 2.12 14.43
1/25/2021 4:15:00 PM 6.4 43.52 0.495 8.74 1.92 14.26
1/25/2021 4:30:00 PM 6.42 43.556 0.495 8.74 1.98 14.07
1/25/2021 4:45:00 PM 6.44 43.592 0.496 8.72 1.85 13.86
1/25/2021 5:00:00 PM 6.45 43.61 0.496 8.71 2.06 13.65
1/25/2021 5:15:00 PM 6.46 43.628 0.496 8.69 1.73 13.44
1/25/2021 5:30:00 PM 6.47 43.646 0.497 8.67 2.01 13.24
1/25/2021 5:45:00 PM 6.48 43.664 0.498 8.65 1.91 13.06
1/25/2021 6:00:00 PM 6.49 43.682 0.498 8.62 1.89 12.89
1/25/2021 6:15:00 PM 6.5 43.7 0.499 8.6 1.9 12.74
1/25/2021 6:30:00 PM 6.5 43.7 0.5 8.57 1.8 12.6
1/25/2021 6:45:00 PM 6.5 43.7 0.5 8.54 1.9 12.49
1/25/2021 7:00:00 PM 6.5 43.7 0.501 8.52 1.79 12.39
1/25/2021 7:15:00 PM 6.49 43.682 0.502 8.49 1.95 12.31
1/25/2021 7:30:00 PM 6.48 43.664 0.503 8.47 1.86 12.24
1/25/2021 7:45:00 PM 6.47 43.646 0.504 8.44 1.83 12.18
1/25/2021 8:00:00 PM 6.45 43.61 0.505 8.42 1.85 12.13
1/25/2021 8:15:00 PM 6.43 43.574 0.506 8.39 1.86 12.08
1/25/2021 8:30:00 PM 6.41 43.538 0.506 8.37 1.96 12.04
1/25/2021 8:45:00 PM 6.39 43.502 0.507 8.34 2.06 12
1/25/2021 9:00:00 PM 6.36 43.448 0.509 8.32 1.86 11.96
1/25/2021 9:15:00 PM 6.34 43.412 0.51 8.3 1.93 11.93
1/25/2021 9:30:00 PM 6.31 43.358 0.511 8.28 2 11.91
1/25/2021 9:45:00 PM 6.28 43.304 0.511 8.26 2.12 11.89
1/25/2021 10:00:00 PM 6.26 43.268 0.512 8.24 1.94 11.86
1/25/2021 10:15:00 PM 6.23 43.214 0.513 8.23 1.73 11.85
1/25/2021 10:30:00 PM 6.2 43.16 0.513 8.22 1.88 11.84
1/25/2021 10:45:00 PM 6.16 43.088 0.514 8.21 2.08 11.84
1/25/2021 11:00:00 PM 6.13 43.034 0.514 8.2 2.13 11.84
1/25/2021 11:15:00 PM 6.1 42.98 0.514 8.19 2.16 11.83
1/25/2021 11:30:00 PM 6.08 42.944 0.514 8.19 2.03 11.84
1/25/2021 11:45:00 PM 6.06 42.908 0.514 8.18 1.87 11.84
1/26/2021 12:00:00 AM 6.04 42.872 0.514 8.18 1.93 11.84
1/26/2021 12:15:00 AM 6.02 42.836 0.514 8.17 1.88 11.84
1/26/2021 12:30:00 AM 6 42.8 0.514 8.17 1.95 11.84
1/26/2021 12:45:00 AM 5.99 42.782 0.514 8.17 1.84 11.84
1/26/2021 1:00:00 AM 5.97 42.746 0.514 8.17 3 11.84
1/26/2021 1:15:00 AM 5.95 42.71 0.514 8.17 1.94 11.84
1/26/2021 1:30:00 AM 5.94 42.692 0.514 8.16 1.84 11.84
1/26/2021 1:45:00 AM 5.92 42.656 0.514 8.16 1.99 11.85
1/26/2021 2:00:00 AM 5.91 42.638 0.514 8.16 1.84 11.85
1/26/2021 2:15:00 AM 5.89 42.602 0.514 8.16 1.89 11.85
1/26/2021 2:30:00 AM 5.88 42.584 0.514 8.16 1.98 11.86
1/26/2021 2:45:00 AM 5.87 42.566 0.514 8.16 1.9 11.86
1/26/2021 3:00:00 AM 5.86 42.548 0.513 8.16 1.99 11.86
1/26/2021 3:15:00 AM 5.85 42.53 0.514 8.16 1.87 11.86
1/26/2021 3:30:00 AM 5.84 42.512 0.514 8.15 1.93 11.87
1/26/2021 3:45:00 AM 5.84 42.512 0.514 8.15 2.08 11.86
1/26/2021 4:00:00 AM 5.83 42.494 0.514 8.15 2.03 11.86
1/26/2021 4:15:00 AM 5.83 42.494 0.514 8.15 1.9 11.86
1/26/2021 4:30:00 AM 5.83 42.494 0.514 8.15 1.82 11.86
1/26/2021 4:45:00 AM 5.83 42.494 0.514 8.15 1.9 11.86
1/26/2021 5:00:00 AM 5.82 42.476 0.514 8.15 1.96 11.86
1/26/2021 5:15:00 AM 5.82 42.476 0.514 8.15 1.85 11.86
1/26/2021 5:30:00 AM 5.82 42.476 0.514 8.15 2.07 11.86
1/26/2021 5:45:00 AM 5.82 42.476 0.514 8.15 1.96 11.86
1/26/2021 6:00:00 AM 5.82 42.476 0.514 8.15 2.11 11.85
1/26/2021 6:15:00 AM 5.82 42.476 0.514 8.15 2.22 11.85
1/26/2021 6:30:00 AM 5.81 42.458 0.514 8.15 2.05 11.85
1/26/2021 6:45:00 AM 5.82 42.476 0.514 8.15 2.07 11.85
1/26/2021 7:00:00 AM 5.82 42.476 0.514 8.15 2.18 11.85
1/26/2021 7:15:00 AM 5.82 42.476 0.514 8.15 2.32 11.85
1/26/2021 7:30:00 AM 5.82 42.476 0.514 8.15 2.17 11.85
1/26/2021 7:45:00 AM 5.82 42.476 0.514 8.15 2.06 11.86
1/26/2021 8:00:00 AM 5.81 42.458 0.514 8.15 2.15 11.88
1/26/2021 8:15:00 AM 5.8 42.44 0.513 8.16 2 11.92
1/26/2021 8:30:00 AM 5.8 42.44 0.514 8.16 2.05 11.95
1/26/2021 8:45:00 AM 5.81 42.458 0.513 8.17 1.99 12.01
1/26/2021 9:00:00 AM 5.82 42.476 0.513 8.18 1.94 12.08
1/26/2021 9:15:00 AM 5.83 42.494 0.513 8.19 1.87 12.17
1/26/2021 9:30:00 AM 5.83 42.494 0.512 8.2 1.88 12.26
1/26/2021 9:45:00 AM 5.82 42.476 0.512 8.21 1.69 12.32
1/26/2021 10:00:00 AM 5.82 42.476 0.513 8.22 1.88 12.4
1/26/2021 10:15:00 AM 5.75 42.35 0.511 8.23 1.88 12.47
1/26/2021 10:30:00 AM 5.68 42.224 0.509 8.24 2.09 12.56
1/26/2021 10:45:00 AM 5.72 42.296 0.509 8.25 2.36 12.66
1/26/2021 11:00:00 AM 5.73 42.314 0.509 8.27 2.06 12.76
1/26/2021 11:15:00 AM 5.74 42.332 0.509 8.28 1.84 12.84
1/26/2021 11:30:00 AM 5.74 42.332 0.508 8.3 2.05 12.95
1/26/2021 11:45:00 AM 5.76 42.368 0.508 8.32 1.99 13.08
1/26/2021 12:00:00 PM 5.8 42.44 0.507 8.34 1.91 13.21
1/26/2021 12:15:00 PM 5.83 42.494 0.507 8.36 2.12 13.32
1/26/2021 12:30:00 PM 5.86 42.548 0.506 8.38 1.84 13.43
1/26/2021 12:45:00 PM 5.87 42.566 0.506 8.4 1.86 13.56
1/26/2021 1:00:00 PM 5.89 42.602 0.505 8.42 1.86 13.66
1/26/2021 1:15:00 PM 5.9 42.62 0.504 8.44 1.73 13.73
1/26/2021 1:30:00 PM 5.92 42.656 0.503 8.46 1.9 13.78
1/26/2021 1:45:00 PM 5.95 42.71 0.503 8.47 2 13.81
1/26/2021 2:00:00 PM 5.97 42.746 0.502 8.48 1.86 13.82
1/26/2021 2:15:00 PM 6 42.8 0.502 8.49 1.81 13.78
1/26/2021 2:30:00 PM 6.03 42.854 0.501 8.49 2.04 13.72
1/26/2021 2:45:00 PM 6.04 42.872 0.501 8.49 1.83 13.66
1/26/2021 3:00:00 PM 6.06 42.908 0.5 8.49 1.94 13.59
1/26/2021 3:15:00 PM 6.07 42.926 0.5 8.49 1.8 13.49
1/26/2021 3:30:00 PM 6.08 42.944 0.5 8.48 1.99 13.38
1/26/2021 3:45:00 PM 6.09 42.962 0.499 8.47 1.83 13.28
1/26/2021 4:00:00 PM 6.11 42.998 0.499 8.46 2.02 13.18
1/26/2021 4:15:00 PM 6.14 43.052 0.499 8.45 2 13.1
1/26/2021 4:30:00 PM 6.15 43.07 0.499 8.44 1.93 13.01
1/26/2021 4:45:00 PM 6.17 43.106 0.5 8.43 1.9 12.9
1/26/2021 5:00:00 PM 6.18 43.124 0.5 8.42 1.96 12.8
1/26/2021 5:15:00 PM 6.2 43.16 0.5 8.41 1.96 12.7
1/26/2021 5:30:00 PM 6.21 43.178 0.5 8.39 1.96 12.6
1/26/2021 5:45:00 PM 6.22 43.196 0.5 8.38 1.99 12.5
1/26/2021 6:00:00 PM 6.24 43.232 0.501 8.36 1.92 12.4
1/26/2021 6:15:00 PM 6.25 43.25 0.501 8.35 2.05 12.31
1/26/2021 6:30:00 PM 6.25 43.25 0.502 8.33 1.93 12.24
1/26/2021 6:45:00 PM 6.26 43.268 0.502 8.31 2.21 12.17
1/26/2021 7:00:00 PM 6.26 43.268 0.502 8.3 1.87 12.11
1/26/2021 7:15:00 PM 6.27 43.286 0.502 8.29 2.39 12.06
1/26/2021 7:30:00 PM 6.27 43.286 0.503 8.27 1.85 12.01
1/26/2021 7:45:00 PM 6.27 43.286 0.503 8.26 1.95 11.97
1/26/2021 8:00:00 PM 6.28 43.304 0.503 8.25 2.07 11.94
1/26/2021 8:15:00 PM 6.28 43.304 0.503 8.24 2.08 11.91
1/26/2021 8:30:00 PM 6.27 43.286 0.504 8.23 2.08 11.87
1/26/2021 8:45:00 PM 6.27 43.286 0.504 8.22 2.17 11.85
1/26/2021 9:00:00 PM 6.27 43.286 0.504 8.21 2.57 11.84
1/26/2021 9:15:00 PM 6.27 43.286 0.504 8.2 2.17 11.82
1/26/2021 9:30:00 PM 6.27 43.286 0.504 8.19 4.59 11.8
1/26/2021 9:45:00 PM 6.27 43.286 0.504 8.19 2.18 11.78
1/26/2021 10:00:00 PM 6.26 43.268 0.505 8.18 2.1 11.76
1/26/2021 10:15:00 PM 6.26 43.268 0.504 8.17 2.07 11.75
1/26/2021 10:30:00 PM 6.25 43.25 0.504 8.17 2.07 11.74
1/26/2021 10:45:00 PM 6.24 43.232 0.504 8.16 2.11 11.73
1/26/2021 11:00:00 PM 6.23 43.214 0.504 8.16 2.09 11.73
1/26/2021 11:15:00 PM 6.23 43.214 0.504 8.16 2.26 11.73
1/26/2021 11:30:00 PM 6.22 43.196 0.505 8.15 2.08 11.73
1/26/2021 11:45:00 PM 6.21 43.178 0.505 8.15 1.96 11.72
1/27/2021 12:00:00 AM 6.21 43.178 0.505 8.15 2.19 11.72
1/27/2021 12:15:00 AM 6.21 43.178 0.505 8.15 2.2 11.72
1/27/2021 12:30:00 AM 6.21 43.178 0.505 8.15 1.99 11.72
1/27/2021 12:45:00 AM 6.2 43.16 0.505 8.15 2.17 11.72
1/27/2021 1:00:00 AM 6.2 43.16 0.505 8.15 2.1 11.72
1/27/2021 1:15:00 AM 6.2 43.16 0.505 8.15 2.03 11.72
1/27/2021 1:30:00 AM 6.2 43.16 0.505 8.14 2.25 11.72
1/27/2021 1:45:00 AM 6.21 43.178 0.505 8.14 1.97 11.73
1/27/2021 2:00:00 AM 6.2 43.16 0.505 8.14 1.92 11.73
1/27/2021 2:15:00 AM 6.2 43.16 0.505 8.14 1.91 11.73
1/27/2021 2:30:00 AM 6.2 43.16 0.505 8.14 2.52 11.73
1/27/2021 2:45:00 AM 6.21 43.178 0.505 8.14 2.8 11.73
1/27/2021 3:00:00 AM 6.21 43.178 0.505 8.14 2.09 11.73
1/27/2021 3:15:00 AM 6.2 43.16 0.505 8.14 2 11.73
1/27/2021 3:30:00 AM 6.2 43.16 0.505 8.14 2.27 11.73
1/27/2021 3:45:00 AM 6.2 43.16 0.505 8.14 2.23 11.73
1/27/2021 4:00:00 AM 6.2 43.16 0.505 8.14 2.36 11.74
1/27/2021 4:15:00 AM 6.2 43.16 0.505 8.14 2.24 11.73
1/27/2021 4:30:00 AM 6.2 43.16 0.505 8.14 2.86 11.73
1/27/2021 4:45:00 AM 6.2 43.16 0.506 8.14 3.66 11.73
1/27/2021 5:00:00 AM 6.2 43.16 0.506 8.14 2.16 11.74
1/27/2021 5:15:00 AM 6.19 43.142 0.505 8.14 2.2 11.74
1/27/2021 5:30:00 AM 6.19 43.142 0.506 8.14 2.11 11.75
1/27/2021 5:45:00 AM 6.19 43.142 0.506 8.14 2 11.75
1/27/2021 6:00:00 AM 6.19 43.142 0.507 8.14 2.12 11.75
1/27/2021 6:15:00 AM 6.18 43.124 0.507 8.14 2.21 11.75
1/27/2021 6:30:00 AM 6.18 43.124 0.508 8.14 2.2 11.76
1/27/2021 6:45:00 AM 6.17 43.106 0.508 8.14 2.34 11.76
1/27/2021 7:00:00 AM 6.17 43.106 0.509 8.14 1.98 11.76
1/27/2021 7:15:00 AM 6.17 43.106 0.509 8.14 2.12 11.77
1/27/2021 7:30:00 AM 6.17 43.106 0.51 8.14 1.97 11.77
1/27/2021 7:45:00 AM 6.18 43.124 0.51 8.15 2.01 11.79
1/27/2021 8:00:00 AM 6.18 43.124 0.51 8.15 1.99 11.81
1/27/2021 8:15:00 AM 6.18 43.124 0.511 8.15 1.94 11.86
1/27/2021 8:30:00 AM 6.19 43.142 0.51 8.16 2.2 11.91
1/27/2021 8:45:00 AM 6.21 43.178 0.51 8.17 4.76 11.97
1/27/2021 9:00:00 AM 6.22 43.196 0.51 8.18 2.04 12.06
1/27/2021 9:15:00 AM 6.26 43.268 0.51 8.2 1.85 12.24
1/27/2021 9:30:00 AM 6.28 43.304 0.51 8.22 1.77 12.44
1/27/2021 9:45:00 AM 6.31 43.358 0.51 8.24 1.93 12.61
1/27/2021 10:00:00 AM 6.34 43.412 0.509 8.27 1.71 12.77
1/27/2021 10:15:00 AM 6.37 43.466 0.509 8.3 1.91 12.99
1/27/2021 10:30:00 AM 6.41 43.538 0.508 8.33 1.86 13.18
1/27/2021 10:45:00 AM 6.43 43.574 0.508 8.36 1.78 13.36
1/27/2021 11:00:00 AM 6.45 43.61 0.507 8.38 1.64 13.5
1/27/2021 11:15:00 AM 6.5 43.7 0.506 8.41 1.72 13.64
1/27/2021 11:30:00 AM 6.56 43.808 0.505 8.44 1.83 13.8
1/27/2021 11:45:00 AM 6.62 43.916 0.505 8.46 1.77 13.95
1/27/2021 12:00:00 PM 6.7 44.06 0.504 8.49 1.65 14.07
1/27/2021 12:15:00 PM 6.81 44.258 0.503 8.52 1.73 14.25
1/27/2021 12:30:00 PM 6.84 44.312 0.502 8.55 1.83 14.42
1/27/2021 12:45:00 PM 6.91 44.438 0.501 8.58 1.78 14.55
1/27/2021 1:00:00 PM 6.91 44.438 0.5 8.6 1.62 14.65
1/27/2021 1:15:00 PM 6.95 44.51 0.499 8.63 1.6 14.73
1/27/2021 1:30:00 PM 7 44.6 0.498 8.65 1.78 14.81
1/27/2021 1:45:00 PM 7.04 44.672 0.496 8.68 1.83 14.87
1/27/2021 2:00:00 PM 7.15 44.87 0.495 8.7 1.72 14.94
1/27/2021 2:15:00 PM 7.23 45.014 0.494 8.72 1.69 15
1/27/2021 2:30:00 PM 7.26 45.068 0.493 8.74 1.81 15.03
1/27/2021 2:45:00 PM 7.27 45.086 0.492 8.76 1.86 14.99
1/27/2021 3:00:00 PM 7.33 45.194 0.491 8.78 1.74 14.97
1/27/2021 3:15:00 PM 7.38 45.284 0.49 8.79 1.77 14.94
1/27/2021 3:30:00 PM 7.36 45.248 0.49 8.79 1.89 14.85
1/27/2021 3:45:00 PM 7.31 45.158 0.49 8.79 1.64 14.71
1/27/2021 4:00:00 PM 7.28 45.104 0.489 8.79 1.71 14.58
1/27/2021 4:15:00 PM 7.22 44.996 0.49 8.79 3.74 14.43
1/27/2021 4:30:00 PM 7.16 44.888 0.49 8.78 1.79 14.24
1/27/2021 4:45:00 PM 7.11 44.798 0.49 8.76 1.73 14.06
1/27/2021 5:00:00 PM 7.05 44.69 0.49 8.75 1.72 13.85
1/27/2021 5:15:00 PM 7.01 44.618 0.491 8.73 1.85 13.64
1/27/2021 5:30:00 PM 6.96 44.528 0.492 8.71 1.74 13.42
1/27/2021 5:45:00 PM 6.93 44.474 0.493 8.68 1.9 13.2
1/27/2021 6:00:00 PM 6.89 44.402 0.494 8.66 1.71 13.01
1/27/2021 6:15:00 PM 6.85 44.33 0.494 8.63 1.64 12.83
1/27/2021 6:30:00 PM 6.8 44.24 0.495 8.6 1.77 12.68
1/27/2021 6:45:00 PM 6.76 44.168 0.496 8.57 1.86 12.54
1/27/2021 7:00:00 PM 6.71 44.078 0.497 8.54 1.81 12.43
1/27/2021 7:15:00 PM 6.68 44.024 0.498 8.52 1.87 12.34
1/27/2021 7:30:00 PM 6.63 43.934 0.499 8.5 1.99 12.27
1/27/2021 7:45:00 PM 6.6 43.88 0.5 8.47 1.71 12.21
1/27/2021 8:00:00 PM 6.55 43.79 0.501 8.45 1.77 12.16
1/27/2021 8:15:00 PM 6.5 43.7 0.501 8.43 1.89 12.12
1/27/2021 8:30:00 PM 6.46 43.628 0.503 8.4 1.91 12.08
1/27/2021 8:45:00 PM 6.4 43.52 0.504 8.38 2.08 12.05
1/27/2021 9:00:00 PM 6.36 43.448 0.504 8.36 1.77 12.02
1/27/2021 9:15:00 PM 6.3 43.34 0.506 8.33 1.85 12.01
1/27/2021 9:30:00 PM 6.23 43.214 0.507 8.31 1.89 12
1/27/2021 9:45:00 PM 6.16 43.088 0.508 8.29 1.84 11.99
1/27/2021 10:00:00 PM 6.07 42.926 0.509 8.28 1.69 11.98
1/27/2021 10:15:00 PM 5.99 42.782 0.51 8.26 1.79 11.97
1/27/2021 10:30:00 PM 5.92 42.656 0.511 8.24 1.81 11.97
1/27/2021 10:45:00 PM 5.82 42.476 0.512 8.23 1.85 11.98
1/27/2021 11:00:00 PM 5.74 42.332 0.512 8.22 1.96 11.98
1/27/2021 11:15:00 PM 5.66 42.188 0.513 8.21 1.76 12
1/27/2021 11:30:00 PM 5.59 42.062 0.513 8.2 1.84 12.01
1/27/2021 11:45:00 PM 5.54 41.972 0.513 8.19 2.08 12.02
1/28/2021 12:00:00 AM 5.47 41.846 0.514 8.19 1.77 12.03
1/28/2021 12:15:00 AM 5.41 41.738 0.514 8.18 2.01 12.05
1/28/2021 12:30:00 AM 5.35 41.63 0.514 8.18 2.18 12.06
1/28/2021 12:45:00 AM 5.29 41.522 0.514 8.18 1.81 12.08
1/28/2021 1:00:00 AM 5.24 41.432 0.514 8.18 1.81 12.09
1/28/2021 1:15:00 AM 5.18 41.324 0.514 8.17 1.83 12.1
1/28/2021 1:30:00 AM 5.13 41.234 0.515 8.17 1.89 12.12
1/28/2021 1:45:00 AM 5.08 41.144 0.515 8.17 2.15 12.13
1/28/2021 2:00:00 AM 5.02 41.036 0.515 8.17 3.07 12.14
1/28/2021 2:15:00 AM 4.97 40.946 0.515 8.17 2.36 12.16
1/28/2021 2:30:00 AM 4.92 40.856 0.515 8.17 2.15 12.18
1/28/2021 2:45:00 AM 4.87 40.766 0.515 8.16 2.56 12.21
1/28/2021 3:00:00 AM 4.82 40.676 0.516 8.16 2.28 12.22
1/28/2021 3:15:00 AM 4.75 40.55 0.516 8.16 1.76 12.24
1/28/2021 3:30:00 AM 4.71 40.478 0.516 8.16 1.87 12.26
1/28/2021 3:45:00 AM 4.65 40.37 0.517 8.16 1.95 12.28
1/28/2021 4:00:00 AM 4.59 40.262 0.518 8.16 2.01 12.29
1/28/2021 4:15:00 AM 4.54 40.172 0.518 8.16 2.34 12.31
1/28/2021 4:30:00 AM 4.5 40.1 0.518 8.16 2.11 12.32
1/28/2021 4:45:00 AM 4.46 40.028 0.519 8.16 1.98 12.34
1/28/2021 5:00:00 AM 4.41 39.938 0.518 8.16 2.05 12.35
1/28/2021 5:15:00 AM 4.39 39.902 0.52 8.16 2 12.36
1/28/2021 5:30:00 AM 4.33 39.794 0.545 8.16 2.12 12.39
1/28/2021 5:45:00 AM 4.26 39.668 0.514 8.16 2.28 12.4
1/28/2021 6:00:00 AM 4.23 39.614 0.515 8.16 2.04 12.42
1/28/2021 6:15:00 AM 4.18 39.524 0.515 8.16 1.79 12.44
1/28/2021 6:30:00 AM 4.12 39.416 0.516 8.16 1.97 12.46
1/28/2021 6:45:00 AM 4.08 39.344 0.516 8.17 2.33 12.48
1/28/2021 7:00:00 AM 4.02 39.236 0.516 8.17 1.82 12.5
1/28/2021 7:15:00 AM 3.99 39.182 0.516 8.17 1.79 12.52
1/28/2021 7:30:00 AM 3.94 39.092 0.516 8.17 1.97 12.55
1/28/2021 7:45:00 AM 3.91 39.038 0.516 8.17 1.83 12.59
1/28/2021 8:00:00 AM 3.88 38.984 0.516 8.18 1.8 12.67
1/28/2021 8:15:00 AM 3.86 38.948 0.516 8.19 1.86 12.75
1/28/2021 8:30:00 AM 3.82 38.876 0.516 8.2 1.83 12.87
1/28/2021 8:45:00 AM 3.81 38.858 0.516 8.21 1.74 13.03
1/28/2021 9:00:00 AM 3.78 38.804 0.516 8.24 2.06 13.22
1/28/2021 9:15:00 AM 3.75 38.75 0.516 8.26 1.85 13.41
1/28/2021 9:30:00 AM 3.7 38.66 0.516 8.27 1.65 13.56
1/28/2021 9:45:00 AM 3.66 38.588 0.515 8.29 1.62 13.69
1/28/2021 10:00:00 AM 3.64 38.552 0.515 8.31 1.76 13.84
1/28/2021 10:15:00 AM 3.61 38.498 0.515 8.33 1.69 13.99
1/28/2021 10:30:00 AM 3.62 38.516 0.515 8.35 1.7 14.12
1/28/2021 10:45:00 AM 3.66 38.588 0.514 8.37 1.73 14.23
1/28/2021 11:00:00 AM 3.66 38.588 0.514 8.39 1.68 14.35
1/28/2021 11:15:00 AM 3.7 38.66 0.514 8.41 1.66 14.46
1/28/2021 11:30:00 AM 3.78 38.804 0.513 8.43 1.65 14.57
1/28/2021 11:45:00 AM 3.9 39.02 0.512 8.45 1.57 14.68
1/28/2021 12:00:00 PM 3.99 39.182 0.511 8.47 1.53 14.8
1/28/2021 12:15:00 PM 4.1 39.38 0.51 8.49 1.77 14.88
1/28/2021 12:30:00 PM 4.19 39.542 0.509 8.51 1.72 14.96
1/28/2021 12:45:00 PM 4.28 39.704 0.508 8.53 1.91 15.02
1/28/2021 1:00:00 PM 4.39 39.902 0.507 8.54 1.69 15.06
1/28/2021 1:15:00 PM 4.53 40.154 0.506 8.56 1.67 15.1
1/28/2021 1:30:00 PM 4.67 40.406 0.505 8.58 1.67 15.16
1/28/2021 1:45:00 PM 4.78 40.604 0.504 8.6 1.61 15.19
1/28/2021 2:00:00 PM 4.85 40.73 0.502 8.62 1.62 15.22
1/28/2021 2:15:00 PM 4.92 40.856 0.502 8.64 2.01 15.22
1/28/2021 2:30:00 PM 4.96 40.928 0.501 8.66 1.58 15.2
1/28/2021 2:45:00 PM 5.02 41.036 0.5 8.67 1.75 15.17
1/28/2021 3:00:00 PM 5.05 41.09 0.5 8.68 1.68 15.12
1/28/2021 3:15:00 PM 5.07 41.126 0.5 8.69 1.65 15.06
1/28/2021 3:30:00 PM 5.09 41.162 0.5 8.7 1.78 14.98
1/28/2021 3:45:00 PM 5.07 41.126 0.5 8.7 1.66 14.87
1/28/2021 4:00:00 PM 5.03 41.054 0.501 8.7 1.82 14.75
1/28/2021 4:15:00 PM 4.96 40.928 0.502 8.7 1.97 14.62
1/28/2021 4:30:00 PM 4.92 40.856 0.503 8.69 1.8 14.48
1/28/2021 4:45:00 PM 4.91 40.838 0.59 8.68 1.72 14.3
1/28/2021 5:00:00 PM 4.85 40.73 0.51 8.66 1.69 14.13
1/28/2021 5:15:00 PM 4.8 40.64 0.513 8.64 1.71 13.94
1/28/2021 5:30:00 PM 4.75 40.55 0.514 8.62 1.64 13.75
1/28/2021 5:45:00 PM 4.69 40.442 0.515 8.59 1.71 13.56
1/28/2021 6:00:00 PM 4.66 40.388 0.515 8.57 1.62 13.39
1/28/2021 6:15:00 PM 4.64 40.352 0.509 8.54 1.78 13.26
1/28/2021 6:30:00 PM 4.61 40.298 0.508 8.52 1.74 13.14
1/28/2021 6:45:00 PM 4.55 40.19 0.507 8.5 1.76 13.05
1/28/2021 7:00:00 PM 4.53 40.154 0.506 8.48 1.75 12.97
1/28/2021 7:15:00 PM 4.45 40.01 0.505 8.47 1.77 12.91
1/28/2021 7:30:00 PM 4.38 39.884 0.505 8.45 1.72 12.88
1/28/2021 7:45:00 PM 4.3 39.74 0.504 8.43 1.79 12.85
1/28/2021 8:00:00 PM 4.21 39.578 0.504 8.41 1.9 12.84
1/28/2021 8:15:00 PM 4.12 39.416 0.504 8.4 1.97 12.83
1/28/2021 8:30:00 PM 4.04 39.272 0.505 8.38 1.73 12.82
1/28/2021 8:45:00 PM 3.95 39.11 0.506 8.37 1.82 12.82
1/28/2021 9:00:00 PM 3.85 38.93 0.508 8.35 1.94 12.83
1/28/2021 9:15:00 PM 3.74 38.732 0.509 8.34 1.89 12.84
1/28/2021 9:30:00 PM 3.64 38.552 0.511 8.33 1.92 12.85
1/28/2021 9:45:00 PM 3.57 38.426 0.513 8.32 1.83 12.86
1/28/2021 10:00:00 PM 3.45 38.21 0.515 8.3 2.02 12.89
1/28/2021 10:15:00 PM 3.33 37.994 0.516 8.29 2.01 12.9
1/28/2021 10:30:00 PM 3.21 37.778 0.518 8.28 1.86 12.92
1/28/2021 10:45:00 PM 3.1 37.58 0.519 8.26 1.84 12.94
1/28/2021 11:00:00 PM 2.96 37.328 0.52 8.25 1.79 12.98
1/28/2021 11:15:00 PM 2.86 37.148 0.521 8.24 2.16 13.01
1/28/2021 11:30:00 PM 2.74 36.932 0.522 8.24 1.87 13.04
1/28/2021 11:45:00 PM 2.66 36.788 0.523 8.23 1.92 13.06
1/29/2021 12:00:00 AM 2.55 36.59 0.523 8.23 1.85 13.1
1/29/2021 12:15:00 AM 2.45 36.41 0.524 8.23 1.75 13.13
1/29/2021 12:30:00 AM 2.38 36.284 0.524 8.22 1.72 13.16
1/29/2021 12:45:00 AM 2.3 36.14 0.525 8.22 1.67 13.2
1/29/2021 1:00:00 AM 2.24 36.032 0.525 8.22 1.7 13.23
1/29/2021 1:15:00 AM 2.2 35.96 0.525 8.21 1.84 13.25
1/29/2021 1:30:00 AM 2.16 35.888 0.524 8.21 1.84 13.28
1/29/2021 1:45:00 AM 2.12 35.816 0.524 8.21 1.76 13.29
1/29/2021 2:00:00 AM 2.08 35.744 0.524 8.21 1.91 13.3
1/29/2021 2:15:00 AM 2.08 35.744 0.523 8.21 1.96 13.32
1/29/2021 2:30:00 AM 2.05 35.69 0.523 8.21 2 13.33
1/29/2021 2:45:00 AM 2 35.6 0.522 8.2 3.59 13.35
1/29/2021 3:00:00 AM 1.96 35.528 0.522 8.2 2.06 13.37
1/29/2021 3:15:00 AM 1.92 35.456 0.522 8.2 2.05 13.38
1/29/2021 3:30:00 AM 1.9 35.42 0.522 8.2 1.86 13.39
1/29/2021 3:45:00 AM 1.87 35.366 0.523 8.2 2.09 13.41
1/29/2021 4:00:00 AM 1.83 35.294 0.523 8.2 2.81 13.42
1/29/2021 4:15:00 AM 1.8 35.24 0.524 8.2 2.27 13.43
1/29/2021 4:30:00 AM 1.76 35.168 0.526 8.2 1.81 13.44
1/29/2021 4:45:00 AM 1.71 35.078 0.528 8.2 2.3 13.45
1/29/2021 5:00:00 AM 1.72 35.096 0.53 8.21 4.42 13.45
1/29/2021 5:15:00 AM 1.68 35.024 0.534 8.21 1.93 13.46
1/29/2021 5:30:00 AM 1.63 34.934 0.538 8.21 1.71 13.47
1/29/2021 5:45:00 AM 1.62 34.916 0.542 8.21 1.85 13.47
1/29/2021 6:00:00 AM 1.58 34.844 0.545 8.21 1.78 13.48
1/29/2021 6:15:00 AM 1.55 34.79 0.549 8.22 1.97 13.48
1/29/2021 6:30:00 AM 1.54 34.772 0.552 8.22 1.75 13.48
1/29/2021 6:45:00 AM 1.51 34.718 0.554 8.22 1.86 13.48
1/29/2021 7:00:00 AM 1.53 34.754 0.556 8.22 2.01 13.47
1/29/2021 7:15:00 AM 1.53 34.754 0.556 8.22 1.64 13.47
1/29/2021 7:30:00 AM 1.55 34.79 0.556 8.22 1.72 13.48
1/29/2021 7:45:00 AM 1.57 34.826 0.556 8.23 1.71 13.51
1/29/2021 8:00:00 AM 1.61 34.898 0.555 8.23 1.72 13.57
1/29/2021 8:15:00 AM 1.64 34.952 0.554 8.24 1.72 13.64
1/29/2021 8:30:00 AM 1.67 35.006 0.553 8.26 1.6 13.75
1/29/2021 8:45:00 AM 1.74 35.132 0.552 8.27 1.63 13.86
1/29/2021 9:00:00 AM 1.78 35.204 0.551 8.28 1.59 14
1/29/2021 9:15:00 AM 1.84 35.312 0.55 8.3 1.57 14.15
1/29/2021 9:30:00 AM 1.89 35.402 0.548 8.32 1.59 14.31
1/29/2021 9:45:00 AM 1.94 35.492 0.546 8.34 1.5 14.49
1/29/2021 10:00:00 AM 2 35.6 0.544 8.37 1.71 14.66
1/29/2021 10:15:00 AM 2.06 35.708 0.542 8.39 1.55 14.82
1/29/2021 10:30:00 AM 2.12 35.816 0.54 8.41 1.59 14.98
1/29/2021 10:45:00 AM 2.17 35.906 0.538 8.43 1.69 15.13
1/29/2021 11:00:00 AM 2.26 36.068 0.536 8.45 1.5 15.27
1/29/2021 11:15:00 AM 2.39 36.302 0.534 8.47 1.56 15.4
1/29/2021 11:30:00 AM 2.45 36.41 0.532 8.5 1.56 15.51
1/29/2021 11:45:00 AM 2.55 36.59 0.53 8.52 1.56 15.62
1/29/2021 12:00:00 PM 2.75 36.95 0.529 8.53 1.64 15.71
1/29/2021 12:15:00 PM 2.81 37.058 0.528 8.55 1.68 15.77
1/29/2021 12:30:00 PM 2.83 37.094 0.527 8.56 1.52 15.81
1/29/2021 12:45:00 PM 2.92 37.256 0.526 8.58 1.55 15.84
1/29/2021 1:00:00 PM 3.1 37.58 0.525 8.59 1.55 15.87
1/29/2021 1:15:00 PM 3.16 37.688 0.524 8.61 1.62 15.9
1/29/2021 1:30:00 PM 3.33 37.994 0.522 8.63 1.57 15.92
1/29/2021 1:45:00 PM 3.52 38.336 0.521 8.65 1.6 15.94
1/29/2021 2:00:00 PM 3.65 38.57 0.52 8.67 1.66 15.96
1/29/2021 2:15:00 PM 3.81 38.858 0.518 8.68 1.49 15.95
1/29/2021 2:30:00 PM 3.83 38.894 0.517 8.7 1.67 15.91
1/29/2021 2:45:00 PM 3.87 38.966 0.516 8.71 2.58 15.87
1/29/2021 3:00:00 PM 3.97 39.146 0.515 8.72 1.63 15.82
1/29/2021 3:15:00 PM 4.04 39.272 0.514 8.73 1.53 15.78
1/29/2021 3:30:00 PM 4.07 39.326 0.514 8.74 1.59 15.7
1/29/2021 3:45:00 PM 4.08 39.344 0.513 8.74 1.56 15.64
1/29/2021 4:00:00 PM 4.06 39.308 0.513 8.74 1.58 15.53
1/29/2021 4:15:00 PM 4.09 39.362 0.512 8.74 1.62 15.39
1/29/2021 4:30:00 PM 4.07 39.326 0.512 8.74 1.59 15.21
1/29/2021 4:45:00 PM 4.07 39.326 0.512 8.73 1.66 15.02
1/29/2021 5:00:00 PM 4.07 39.326 0.512 8.72 2.04 14.8
1/29/2021 5:15:00 PM 4.07 39.326 0.512 8.7 1.7 14.55
1/29/2021 5:30:00 PM 4.07 39.326 0.513 8.68 1.65 14.29
1/29/2021 5:45:00 PM 4.08 39.344 0.513 8.65 1.7 14.06
1/29/2021 6:00:00 PM 4.08 39.344 0.514 8.63 1.71 13.85
1/29/2021 6:15:00 PM 4.08 39.344 0.514 8.6 1.74 13.67
1/29/2021 6:30:00 PM 4.06 39.308 0.514 8.58 1.83 13.52
1/29/2021 6:45:00 PM 4.03 39.254 0.514 8.56 2.46 13.38
1/29/2021 7:00:00 PM 4 39.2 0.515 8.53 1.98 13.29
1/29/2021 7:15:00 PM 3.99 39.182 0.515 8.51 2.65 13.2
1/29/2021 7:30:00 PM 3.95 39.11 0.515 8.49 1.95 13.13
1/29/2021 7:45:00 PM 3.91 39.038 0.515 8.47 2.02 13.08
1/29/2021 8:00:00 PM 3.87 38.966 0.516 8.45 2.03 13.03
1/29/2021 8:15:00 PM 3.84 38.912 0.516 8.43 2.03 13
1/29/2021 8:30:00 PM 3.81 38.858 0.516 8.41 2.09 12.96
1/29/2021 8:45:00 PM 3.77 38.786 0.517 8.39 2.14 12.94
1/29/2021 9:00:00 PM 3.74 38.732 0.517 8.37 2.04 12.91
1/29/2021 9:15:00 PM 3.7 38.66 0.518 8.35 2.08 12.89
1/29/2021 9:30:00 PM 3.67 38.606 0.518 8.34 2.2 12.88
1/29/2021 9:45:00 PM 3.63 38.534 0.518 8.32 2.12 12.86
1/29/2021 10:00:00 PM 3.59 38.462 0.518 8.31 2.06 12.85
1/29/2021 10:15:00 PM 3.57 38.426 0.518 8.29 2 12.84
1/29/2021 10:30:00 PM 3.54 38.372 0.518 8.28 1.88 12.83
1/29/2021 10:45:00 PM 3.51 38.318 0.518 8.28 1.88 12.82
1/29/2021 11:00:00 PM 3.48 38.264 0.518 8.27 2.23 12.82
1/29/2021 11:15:00 PM 3.47 38.246 0.518 8.26 1.98 12.82
1/29/2021 11:30:00 PM 3.44 38.192 0.518 8.25 1.83 12.82
1/29/2021 11:45:00 PM 3.43 38.174 0.518 8.24 1.74 12.81
1/30/2021 12:00:00 AM 3.42 38.156 0.519 8.24 1.82 12.81
1/30/2021 12:15:00 AM 3.4 38.12 0.519 8.23 1.78 12.8
1/30/2021 12:30:00 AM 3.39 38.102 0.519 8.23 1.79 12.8
1/30/2021 12:45:00 AM 3.39 38.102 0.52 8.22 1.78 12.8
1/30/2021 1:00:00 AM 3.38 38.084 0.52 8.22 1.77 12.8
1/30/2021 1:15:00 AM 3.38 38.084 0.52 8.22 1.92 12.79
1/30/2021 1:30:00 AM 3.37 38.066 0.521 8.21 1.85 12.8
1/30/2021 1:45:00 AM 3.37 38.066 0.521 8.21 1.75 12.8
1/30/2021 2:00:00 AM 3.36 38.048 0.521 8.21 1.74 12.8
1/30/2021 2:15:00 AM 3.35 38.03 0.522 8.21 1.71 12.81
1/30/2021 2:30:00 AM 3.33 37.994 0.522 8.21 1.67 12.82
1/30/2021 2:45:00 AM 3.32 37.976 0.523 8.21 1.79 12.81
1/30/2021 3:00:00 AM 3.31 37.958 0.523 8.21 2.03 12.82
1/30/2021 3:15:00 AM 3.31 37.958 0.523 8.21 1.97 12.83
1/30/2021 3:30:00 AM 3.31 37.958 0.524 8.21 2.1 12.83
1/30/2021 3:45:00 AM 3.3 37.94 0.524 8.21 1.92 12.83
1/30/2021 4:00:00 AM 3.3 37.94 0.524 8.21 1.93 12.83
1/30/2021 4:15:00 AM 3.29 37.922 0.524 8.21 2.08 12.83
1/30/2021 4:30:00 AM 3.28 37.904 0.524 8.21 2.08 12.83
1/30/2021 4:45:00 AM 3.26 37.868 0.525 8.21 2.09 12.84
1/30/2021 5:00:00 AM 3.24 37.832 0.525 8.21 2.21 12.83
1/30/2021 5:15:00 AM 3.2 37.76 0.525 8.21 2.2 12.84
1/30/2021 5:30:00 AM 3.18 37.724 0.525 8.21 2.62 12.84
1/30/2021 5:45:00 AM 3.14 37.652 0.525 8.21 2.12 12.84
1/30/2021 6:00:00 AM 3.11 37.598 0.525 8.21 1.87 12.85
1/30/2021 6:15:00 AM 3.09 37.562 0.526 8.21 1.89 12.86
1/30/2021 6:30:00 AM 3.07 37.526 0.526 8.21 1.86 12.87
1/30/2021 6:45:00 AM 3.05 37.49 0.526 8.22 1.79 12.87
1/30/2021 7:00:00 AM 3.03 37.454 0.526 8.22 1.85 12.88
1/30/2021 7:15:00 AM 3 37.4 0.526 8.22 1.71 12.9
1/30/2021 7:30:00 AM 2.98 37.364 0.526 8.22 1.81 12.91
1/30/2021 7:45:00 AM 2.95 37.31 0.526 8.22 1.92 12.96
1/30/2021 8:00:00 AM 2.93 37.274 0.526 8.23 1.73 13.02
1/30/2021 8:15:00 AM 2.91 37.238 0.526 8.23 1.65 13.09
1/30/2021 8:30:00 AM 2.9 37.22 0.526 8.24 1.77 13.16
1/30/2021 8:45:00 AM 2.9 37.22 0.526 8.24 1.98 13.25
1/30/2021 9:00:00 AM 2.9 37.22 0.526 8.25 1.69 13.33
1/30/2021 9:15:00 AM 2.88 37.184 0.526 8.27 1.75 13.43
1/30/2021 9:30:00 AM 2.9 37.22 0.526 8.29 1.75 13.53
1/30/2021 9:45:00 AM 2.92 37.256 0.526 8.3 1.64 13.64
1/30/2021 10:00:00 AM 2.95 37.31 0.525 8.32 1.56 13.77
1/30/2021 10:15:00 AM 3.04 37.472 0.525 8.34 1.51 13.91
1/30/2021 10:30:00 AM 3.12 37.616 0.524 8.35 1.49 14.06
1/30/2021 10:45:00 AM 3.21 37.778 0.523 8.37 1.56 14.18
1/30/2021 11:00:00 AM 3.29 37.922 0.522 8.39 1.51 14.31
1/30/2021 11:15:00 AM 3.38 38.084 0.522 8.41 1.79 14.44
1/30/2021 11:30:00 AM 3.52 38.336 0.521 8.43 2.09 14.56
1/30/2021 11:45:00 AM 3.63 38.534 0.52 8.45 1.66 14.68
1/30/2021 12:00:00 PM 3.75 38.75 0.519 8.47 1.5 14.79
1/30/2021 12:15:00 PM 3.89 39.002 0.518 8.49 1.92 14.87
1/30/2021 12:30:00 PM 4.01 39.218 0.518 8.51 1.77 14.95
1/30/2021 12:45:00 PM 4.16 39.488 0.513 8.52 1.55 15.02
1/30/2021 1:00:00 PM 4.3 39.74 0.528 8.54 1.58 15.08
1/30/2021 1:15:00 PM 4.48 40.064 0.518 8.56 1.51 15.11
1/30/2021 1:30:00 PM 4.62 40.316 0.517 8.58 1.5 15.15
1/30/2021 1:45:00 PM 4.82 40.676 0.514 8.6 1.85 15.18
1/30/2021 2:00:00 PM 4.97 40.946 0.513 8.62 1.64 15.19
1/30/2021 2:15:00 PM 5.08 41.144 0.512 8.64 1.6 15.18
1/30/2021 2:30:00 PM 5.18 41.324 0.51 8.65 1.57 15.15
1/30/2021 2:45:00 PM 5.31 41.558 0.509 8.67 2.85 15.12
1/30/2021 3:00:00 PM 5.4 41.72 0.509 8.68 1.77 15.07
1/30/2021 3:15:00 PM 5.47 41.846 0.508 8.69 1.86 15.01
1/30/2021 3:30:00 PM 5.51 41.918 0.508 8.7 1.94 14.93
1/30/2021 3:45:00 PM 5.54 41.972 0.508 8.7 1.95 14.81
1/30/2021 4:00:00 PM 5.55 41.99 0.509 8.69 2.23 14.68
1/30/2021 4:15:00 PM 5.56 42.008 0.509 8.68 2.3 14.53
1/30/2021 4:30:00 PM 5.56 42.008 0.51 8.68 2.49 14.36
1/30/2021 4:45:00 PM 5.55 41.99 0.511 8.66 2.86 14.15
1/30/2021 5:00:00 PM 5.55 41.99 0.512 8.64 2.48 13.94
1/30/2021 5:15:00 PM 5.54 41.972 0.514 8.62 2.46 13.71
1/30/2021 5:30:00 PM 5.53 41.954 0.515 8.59 2.4 13.48
1/30/2021 5:45:00 PM 5.51 41.918 0.516 8.57 2.6 13.25
1/30/2021 6:00:00 PM 5.5 41.9 0.517 8.54 2.52 13.06
1/30/2021 6:15:00 PM 5.48 41.864 0.519 8.51 2.55 12.9
1/30/2021 6:30:00 PM 5.47 41.846 0.52 8.49 2.85 12.76
1/30/2021 6:45:00 PM 5.45 41.81 0.52 8.47 2.61 12.64
1/30/2021 7:00:00 PM 5.42 41.756 0.52 8.45 2.61 12.56
1/30/2021 7:15:00 PM 5.38 41.684 0.521 8.44 2.5 12.48
1/30/2021 7:30:00 PM 5.33 41.594 0.521 8.42 2.44 12.42
1/30/2021 7:45:00 PM 5.28 41.504 0.521 8.4 2.98 12.38
1/30/2021 8:00:00 PM 5.22 41.396 0.521 8.39 2.57 12.34
1/30/2021 8:15:00 PM 5.15 41.27 0.521 8.38 2.39 12.33
1/30/2021 8:30:00 PM 5.08 41.144 0.521 8.36 2.47 12.31
1/30/2021 8:45:00 PM 5 41 0.521 8.35 2.64 12.31
1/30/2021 9:00:00 PM 4.92 40.856 0.52 8.34 2.88 12.31
1/30/2021 9:15:00 PM 4.84 40.712 0.52 8.33 2.57 12.32
1/30/2021 9:30:00 PM 4.75 40.55 0.52 8.32 2.58 12.34
1/30/2021 9:45:00 PM 4.66 40.388 0.52 8.31 2.42 12.35
1/30/2021 10:00:00 PM 4.57 40.226 0.52 8.3 2.52 12.37
1/30/2021 10:15:00 PM 4.48 40.064 0.521 8.29 2.59 12.39
1/30/2021 10:30:00 PM 4.39 39.902 0.522 8.28 2.3 12.41
1/30/2021 10:45:00 PM 4.31 39.758 0.522 8.27 2.46 12.44
1/30/2021 11:00:00 PM 4.23 39.614 0.522 8.26 1.94 12.46
1/30/2021 11:15:00 PM 4.16 39.488 0.524 8.26 1.99 12.48
1/30/2021 11:30:00 PM 4.1 39.38 0.525 8.25 1.93 12.51
1/30/2021 11:45:00 PM 4.04 39.272 0.525 8.24 1.94 12.53
1/31/2021 12:00:00 AM 3.99 39.182 0.527 8.24 1.99 12.54
1/31/2021 12:15:00 AM 3.95 39.11 0.527 8.24 2.26 12.56
1/31/2021 12:30:00 AM 3.92 39.056 0.53 8.23 2.1 12.58
1/31/2021 12:45:00 AM 3.88 38.984 0.553 8.23 2.01 12.59
1/31/2021 1:00:00 AM 3.85 38.93 0.61 8.22 2.02 12.6
1/31/2021 1:15:00 AM 3.82 38.876 0.522 8.22 2.17 12.62
1/31/2021 1:30:00 AM 3.8 38.84 0.522 8.22 1.95 12.62
1/31/2021 1:45:00 AM 3.78 38.804 0.522 8.22 1.99 12.64
1/31/2021 2:00:00 AM 3.76 38.768 0.522 8.22 1.99 12.65
1/31/2021 2:15:00 AM 3.74 38.732 0.523 8.22 2.3 12.66
1/31/2021 2:30:00 AM 3.73 38.714 0.523 8.21 2.55 12.67
1/31/2021 2:45:00 AM 3.72 38.696 0.523 8.21 2.46 12.68
1/31/2021 3:00:00 AM 3.71 38.678 0.523 8.21 2.83 12.68
1/31/2021 3:15:00 AM 3.71 38.678 0.524 8.21 2.73 12.68
1/31/2021 3:30:00 AM 3.71 38.678 0.523 8.21 3.13 12.69
1/31/2021 3:45:00 AM 3.72 38.696 0.524 8.21 2.28 12.68
1/31/2021 4:00:00 AM 3.72 38.696 0.524 8.21 2.14 12.68
1/31/2021 4:15:00 AM 3.73 38.714 0.53 8.21 2.07 12.68
1/31/2021 4:30:00 AM 3.74 38.732 0.612 8.21 2.19 12.68
1/31/2021 4:45:00 AM 3.75 38.75 0.538 8.21 2.19 12.67
1/31/2021 5:00:00 AM 3.76 38.768 0.529 8.21 2.36 12.66
1/31/2021 5:15:00 AM 3.78 38.804 0.528 8.21 2.02 12.65
1/31/2021 5:30:00 AM 3.8 38.84 0.53 8.21 2.11 12.64
1/31/2021 5:45:00 AM 3.81 38.858 0.528 8.21 1.83 12.63
1/31/2021 6:00:00 AM 3.83 38.894 0.528 8.21 1.83 12.63
1/31/2021 6:15:00 AM 3.85 38.93 0.529 8.21 2.08 12.61
1/31/2021 6:30:00 AM 3.87 38.966 0.529 8.21 2.23 12.6
1/31/2021 6:45:00 AM 3.9 39.02 0.529 8.21 1.88 12.59
1/31/2021 7:00:00 AM 3.92 39.056 0.529 8.21 2.21 12.59
1/31/2021 7:15:00 AM 3.94 39.092 0.529 8.21 1.98 12.58
1/31/2021 7:30:00 AM 3.95 39.11 0.529 8.21 2.06 12.57
1/31/2021 7:45:00 AM 3.97 39.146 0.529 8.21 2.05 12.58
1/31/2021 8:00:00 AM 4 39.2 0.529 8.22 1.86 12.6
1/31/2021 8:15:00 AM 4.02 39.236 0.529 8.22 1.76 12.63
1/31/2021 8:30:00 AM 4.06 39.308 0.529 8.23 1.77 12.71
1/31/2021 8:45:00 AM 4.09 39.362 0.529 8.24 1.69 12.81
1/31/2021 9:00:00 AM 4.13 39.434 0.529 8.25 1.73 12.89
1/31/2021 9:15:00 AM 4.19 39.542 0.528 8.27 1.58 13.03
1/31/2021 9:30:00 AM 4.23 39.614 0.528 8.29 1.77 13.18
1/31/2021 9:45:00 AM 4.25 39.65 0.527 8.31 1.54 13.3
1/31/2021 10:00:00 AM 4.26 39.668 0.527 8.32 1.69 13.36
1/31/2021 10:15:00 AM 4.28 39.704 0.527 8.33 1.64 13.41
1/31/2021 10:30:00 AM 4.3 39.74 0.526 8.35 1.68 13.52
1/31/2021 10:45:00 AM 4.26 39.668 0.525 8.37 1.71 13.66
1/31/2021 11:00:00 AM 4.29 39.722 0.525 8.38 1.75 13.78
1/31/2021 11:15:00 AM 4.31 39.758 0.524 8.4 1.69 13.84
1/31/2021 11:30:00 AM 4.33 39.794 0.523 8.41 1.59 13.87
1/31/2021 11:45:00 AM 4.34 39.812 0.523 8.42 1.68 13.92
1/31/2021 12:00:00 PM 4.35 39.83 0.522 8.43 1.7 13.99
1/31/2021 12:15:00 PM 4.36 39.848 0.522 8.44 1.61 14.07
1/31/2021 12:30:00 PM 4.4 39.92 0.521 8.46 1.67 14.19
1/31/2021 12:45:00 PM 4.42 39.956 0.52 8.48 1.92 14.28
1/31/2021 1:00:00 PM 4.44 39.992 0.519 8.49 1.65 14.33
1/31/2021 1:15:00 PM 4.47 40.046 0.519 8.5 1.96 14.38
1/31/2021 1:30:00 PM 4.47 40.046 0.518 8.52 1.56 14.44
1/31/2021 1:45:00 PM 4.44 39.992 0.519 8.53 1.65 14.47
1/31/2021 2:00:00 PM 4.47 40.046 0.518 8.54 1.55 14.52
1/31/2021 2:15:00 PM 4.51 40.118 0.52 8.56 1.58 14.58
1/31/2021 2:30:00 PM 4.53 40.154 0.525 8.57 1.63 14.59
1/31/2021 2:45:00 PM 4.5 40.1 0.511 8.57 1.72 14.56
1/31/2021 3:00:00 PM 4.48 40.064 0.51 8.58 1.82 14.53
1/31/2021 3:15:00 PM 4.45 40.01 0.51 8.58 1.68 14.5
1/31/2021 3:30:00 PM 4.42 39.956 0.509 8.58 1.88 14.45
1/31/2021 3:45:00 PM 4.33 39.794 0.509 8.57 2.09 14.35
1/31/2021 4:00:00 PM 4.21 39.578 0.509 8.57 2.03 14.22
1/31/2021 4:15:00 PM 4.16 39.488 0.509 8.55 2.03 14.09
1/31/2021 4:30:00 PM 4.14 39.452 0.509 8.54 2.04 13.98
1/31/2021 4:45:00 PM 4.12 39.416 0.509 8.52 2.15 13.82
1/31/2021 5:00:00 PM 4.04 39.272 0.509 8.5 2.22 13.68
1/31/2021 5:15:00 PM 3.98 39.164 0.51 8.48 2.19 13.52
1/31/2021 5:30:00 PM 3.93 39.074 0.51 8.46 2.39 13.39
1/31/2021 5:45:00 PM 3.9 39.02 0.51 8.44 2.37 13.25
1/31/2021 6:00:00 PM 3.82 38.876 0.51 8.42 2.38 13.15
1/31/2021 6:15:00 PM 3.78 38.804 0.51 8.4 2.74 13.05
1/31/2021 6:30:00 PM 3.73 38.714 0.51 8.38 2.7 12.98
1/31/2021 6:45:00 PM 3.66 38.588 0.51 8.37 2.6 12.92
1/31/2021 7:00:00 PM 3.58 38.444 0.51 8.36 2.51 12.88
1/31/2021 7:15:00 PM 3.5 38.3 0.509 8.35 2.62 12.86
1/31/2021 7:30:00 PM 3.46 38.228 0.509 8.34 2.37 12.84
1/31/2021 7:45:00 PM 3.41 38.138 0.509 8.33 2.46 12.82
1/31/2021 8:00:00 PM 3.36 38.048 0.509 8.32 2.33 12.82
1/31/2021 8:15:00 PM 3.3 37.94 0.509 8.32 2.31 12.82
1/31/2021 8:30:00 PM 3.25 37.85 0.509 8.31 2.41 12.81
1/31/2021 8:45:00 PM 3.2 37.76 0.509 8.3 2.25 12.81
1/31/2021 9:00:00 PM 3.15 37.67 0.509 8.3 2.5 12.81
1/31/2021 9:15:00 PM 3.06 37.508 0.509 8.29 2.5 12.83
1/31/2021 9:30:00 PM 2.95 37.31 0.508 8.28 2.5 12.84
1/31/2021 9:45:00 PM 2.82 37.076 0.507 8.28 2.34 12.85
1/31/2021 10:00:00 PM 2.75 36.95 0.507 8.27 2.56 12.85
1/31/2021 10:15:00 PM 2.68 36.824 0.507 8.26 3.01 12.86
1/31/2021 10:30:00 PM 2.64 36.752 0.507 8.26 3.44 12.88
1/31/2021 10:45:00 PM 2.63 36.734 0.507 8.25 3.24 12.88
1/31/2021 11:00:00 PM 2.6 36.68 0.507 8.24 2.64 12.89
1/31/2021 11:15:00 PM 2.59 36.662 0.508 8.24 2.53 12.91
1/31/2021 11:30:00 PM 2.59 36.662 0.508 8.23 2.53 12.92
1/31/2021 11:45:00 PM 2.6 36.68 0.508 8.23 2.5 12.93
2/1/2021 12:00:00 AM 2.6 36.68 0.508 8.23 2.55 12.94
2/1/2021 12:15:00 AM 2.59 36.662 0.508 8.23 2.39 12.94
2/1/2021 12:30:00 AM 2.58 36.644 0.508 8.23 2.26 12.95
2/1/2021 12:45:00 AM 2.6 36.68 0.508 8.23 2.32 12.95
2/1/2021 1:00:00 AM 2.61 36.698 0.508 8.23 2.31 12.95
2/1/2021 1:15:00 AM 2.62 36.716 0.508 8.22 2.32 12.96
2/1/2021 1:30:00 AM 2.63 36.734 0.508 8.22 2.29 12.96
2/1/2021 1:45:00 AM 2.63 36.734 0.508 8.22 2.35 12.96
2/1/2021 2:00:00 AM 2.63 36.734 0.508 8.22 2.6 12.96
2/1/2021 2:15:00 AM 2.63 36.734 0.508 8.22 2.48 12.96
2/1/2021 2:30:00 AM 2.64 36.752 0.509 8.22 2.68 12.97
2/1/2021 2:45:00 AM 2.63 36.734 0.509 8.22 3.29 12.96
2/1/2021 3:00:00 AM 2.63 36.734 0.509 8.22 3.23 12.96
2/1/2021 3:15:00 AM 2.62 36.716 0.509 8.22 3.23 12.96
2/1/2021 3:30:00 AM 2.54 36.572 0.509 8.22 2.84 12.97
2/1/2021 3:45:00 AM 2.47 36.446 0.509 8.22 2.78 12.97
2/1/2021 4:00:00 AM 2.43 36.374 0.509 8.21 2.6 12.97
2/1/2021 4:15:00 AM 2.42 36.356 0.509 8.22 3.82 12.98
2/1/2021 4:30:00 AM 2.43 36.374 0.51 8.22 2.67 12.98
2/1/2021 4:45:00 AM 2.42 36.356 0.51 8.22 2.74 12.98
2/1/2021 5:00:00 AM 2.41 36.338 0.51 8.22 2.66 12.98
2/1/2021 5:15:00 AM 2.3 36.14 0.51 8.22 2.8 13
2/1/2021 5:30:00 AM 2.26 36.068 0.511 8.22 2.69 13
2/1/2021 5:45:00 AM 2.29 36.122 0.511 8.22 2.6 13
2/1/2021 6:00:00 AM 2.3 36.14 0.512 8.22 2.72 13.01
2/1/2021 6:15:00 AM 2.34 36.212 0.513 8.22 2.63 13.01
2/1/2021 6:30:00 AM 2.34 36.212 0.514 8.22 2.47 13
2/1/2021 6:45:00 AM 2.36 36.248 0.515 8.22 2.49 13.01
2/1/2021 7:00:00 AM 2.4 36.32 0.516 8.22 2.29 13
2/1/2021 7:15:00 AM 2.42 36.356 0.516 8.22 2.37 13
2/1/2021 7:30:00 AM 2.45 36.41 0.517 8.22 2.43 13
2/1/2021 7:45:00 AM 2.48 36.464 0.518 8.22 2.41 13.01
2/1/2021 8:00:00 AM 2.51 36.518 0.518 8.23 2.28 13.04
2/1/2021 8:15:00 AM 2.52 36.536 0.518 8.23 2.31 13.07
2/1/2021 8:30:00 AM 2.5 36.5 0.518 8.24 2.19 13.13
2/1/2021 8:45:00 AM 2.49 36.482 0.518 8.25 2.11 13.2
2/1/2021 9:00:00 AM 2.51 36.518 0.518 8.26 2.12 13.28
2/1/2021 9:15:00 AM 2.55 36.59 0.518 8.27 2.03 13.39
2/1/2021 9:30:00 AM 2.59 36.662 0.517 8.29 2.43 13.51
2/1/2021 9:45:00 AM 2.63 36.734 0.517 8.31 2.08 13.65
2/1/2021 10:00:00 AM 2.66 36.788 0.516 8.32 2.09 13.77
2/1/2021 10:15:00 AM 2.71 36.878 0.516 8.34 2.2 13.9
2/1/2021 10:30:00 AM 2.77 36.986 0.515 8.36 1.97 14.03
2/1/2021 10:45:00 AM 2.83 37.094 0.514 8.38 2.1 14.17
2/1/2021 11:00:00 AM 2.89 37.202 0.513 8.4 1.93 14.29
2/1/2021 11:15:00 AM 2.94 37.292 0.512 8.42 1.86 14.38
2/1/2021 11:30:00 AM 2.97 37.346 0.512 8.43 1.97 14.44
2/1/2021 11:45:00 AM 2.98 37.364 0.511 8.45 1.89 14.5
2/1/2021 12:00:00 PM 2.99 37.382 0.51 8.46 1.93 14.54
2/1/2021 12:15:00 PM 2.73 36.914 0.508 8.47 2.09 14.52
2/1/2021 12:30:00 PM 2.4 36.32 0.506 8.47 2.12 14.41
2/1/2021 12:45:00 PM 2.13 35.834 0.504 8.47 2.19 14.34
2/1/2021 1:00:00 PM 1.78 35.204 0.502 8.46 2.34 14.26
2/1/2021 1:15:00 PM 1.54 34.772 0.5 8.46 2.48 14.21
2/1/2021 1:30:00 PM 1.12 34.016 0.498 8.46 2.49 14.16
2/1/2021 1:45:00 PM 1.08 33.944 0.498 8.45 2.62 14.13
2/1/2021 2:00:00 PM 1.11 33.998 0.497 8.44 2.32 14.14
2/1/2021 2:15:00 PM 1.02 33.836 0.496 8.45 2.54 14.2
2/1/2021 2:30:00 PM 0.97 33.746 0.496 8.45 2.35 14.24
2/1/2021 2:45:00 PM 1.19 34.142 0.497 8.45 2.34 14.24
2/1/2021 3:00:00 PM 1.36 34.448 0.497 8.45 2.44 14.24
2/1/2021 3:15:00 PM 1.5 34.7 0.497 8.45 2.35 14.21
2/1/2021 3:30:00 PM 1.59 34.862 0.498 8.45 2.56 14.13
2/1/2021 3:45:00 PM 1.61 34.898 0.497 8.44 2.91 14.04
2/1/2021 4:00:00 PM 1.55 34.79 0.497 8.43 3.12 13.94
2/1/2021 4:15:00 PM 1.4 34.52 0.496 8.42 3.5 13.85
2/1/2021 4:30:00 PM 1.24 34.232 0.494 8.41 3.54 13.76
2/1/2021 4:45:00 PM 1.2 34.16 0.494 8.4 3.7 13.71
2/1/2021 5:00:00 PM 1.18 34.124 0.492 8.39 4.02 13.67
2/1/2021 5:15:00 PM 1.05 33.89 0.491 8.39 4.04 13.65
2/1/2021 5:30:00 PM 0.99 33.782 0.489 8.37 4.21 13.64
2/1/2021 5:45:00 PM 1 33.8 0.488 8.37 4.26 13.64
2/1/2021 6:00:00 PM 1 33.8 0.487 8.35 4.55 13.63
2/1/2021 6:15:00 PM 0.98 33.764 0.487 8.34 4.45 13.63
2/1/2021 6:30:00 PM 0.92 33.656 0.485 8.33 4.87 13.62
2/1/2021 6:45:00 PM 0.79 33.422 0.484 8.32 4.98 13.62
2/1/2021 7:00:00 PM 0.68 33.224 0.482 8.31 4.88 13.62
2/1/2021 7:15:00 PM 0.54 32.972 0.481 8.31 5.02 13.62
2/1/2021 7:30:00 PM 0.3 32.54 0.479 8.3 5.45 13.71
2/1/2021 7:45:00 PM 0.12 32.216 0.477 8.3 5.32 13.73
2/1/2021 8:00:00 PM 0.06 32.108 0.476 8.29 5.48 13.73
2/1/2021 8:15:00 PM 0.04 32.072 0.475 8.29 5.31 13.71
2/1/2021 8:30:00 PM 0.03 32.054 0.473 8.28 5.31 13.75
2/1/2021 8:45:00 PM -0.03 31.946 0.472 8.27 5.95 13.79
2/1/2021 9:00:00 PM -0.04 31.928 0.472 8.27 5.56 13.79
2/1/2021 9:15:00 PM -0.04 31.928 0.472 8.27 5.73 13.79
2/1/2021 9:30:00 PM -0.04 31.928 0.472 8.26 5.71 13.73
2/1/2021 9:45:00 PM -0.03 31.946 0.472 8.26 5.52 13.82
2/1/2021 10:00:00 PM -0.03 31.946 0.472 8.26 5.72 13.83
2/1/2021 10:15:00 PM 0.01 32.018 0.472 8.25 5.56 13.82
2/1/2021 10:30:00 PM 0.07 32.126 0.473 8.25 5.53 13.82
2/1/2021 10:45:00 PM 0.13 32.234 0.474 8.25 5.13 13.8
2/1/2021 11:00:00 PM 0.19 32.342 0.475 8.24 4.55 13.76
2/1/2021 11:15:00 PM 0.27 32.486 0.476 8.24 4.32 13.74
2/1/2021 11:30:00 PM 0.38 32.684 0.477 8.24 4.2 13.7
2/1/2021 11:45:00 PM 0.49 32.882 0.478 8.24 3.87 13.67
2/2/2021 12:00:00 AM 0.59 33.062 0.479 8.24 3.62 13.64
2/2/2021 12:15:00 AM 0.7 33.26 0.48 8.24 3.36 13.6
2/2/2021 12:30:00 AM 0.81 33.458 0.481 8.24 3.1 13.58
2/2/2021 12:45:00 AM 0.91 33.638 0.482 8.24 3.35 13.55
2/2/2021 1:00:00 AM 1.03 33.854 0.484 8.24 3.16 13.51
2/2/2021 1:15:00 AM 1.12 34.016 0.485 8.24 3.23 13.46
2/2/2021 1:30:00 AM 1.22 34.196 0.488 8.24 3.57 13.45
2/2/2021 1:45:00 AM 1.32 34.376 0.489 8.24 3.47 13.41
2/2/2021 2:00:00 AM 1.41 34.538 0.492 8.24 3.88 13.36
2/2/2021 2:15:00 AM 1.5 34.7 0.494 8.24 3.55 13.33
2/2/2021 2:30:00 AM 1.6 34.88 0.495 8.24 3.65 13.28
2/2/2021 2:45:00 AM 1.71 35.078 0.498 8.24 3.55 13.23
2/2/2021 3:00:00 AM 1.82 35.276 0.499 8.24 3.3 13.18
2/2/2021 3:15:00 AM 1.93 35.474 0.501 8.24 3.55 13.13
2/2/2021 3:30:00 AM 2.04 35.672 0.502 8.24 3.01 13.08
2/2/2021 3:45:00 AM 2.14 35.852 0.503 8.24 2.92 13.04
2/2/2021 4:00:00 AM 2.23 36.014 0.505 8.24 2.93 12.99
2/2/2021 4:15:00 AM 2.31 36.158 0.506 8.24 2.79 12.95
2/2/2021 4:30:00 AM 2.37 36.266 0.508 8.24 2.98 12.9
2/2/2021 4:45:00 AM 2.42 36.356 0.51 8.24 2.96 12.87
2/2/2021 5:00:00 AM 2.5 36.5 0.512 8.25 2.84 12.85
2/2/2021 5:15:00 AM 2.57 36.626 0.513 8.25 3.01 12.81
2/2/2021 5:30:00 AM 2.64 36.752 0.514 8.25 2.96 12.79
2/2/2021 5:45:00 AM 2.68 36.824 0.515 8.25 3.12 12.77
2/2/2021 6:00:00 AM 2.71 36.878 0.516 8.25 3.24 12.75
2/2/2021 6:15:00 AM 2.77 36.986 0.517 8.25 3.03 12.72
2/2/2021 6:30:00 AM 2.82 37.076 0.517 8.25 3.01 12.7
2/2/2021 6:45:00 AM 2.87 37.166 0.518 8.25 3.11 12.68
2/2/2021 7:00:00 AM 2.9 37.22 0.518 8.25 2.94 12.66
2/2/2021 7:15:00 AM 2.93 37.274 0.518 8.25 2.87 12.66
2/2/2021 7:30:00 AM 2.97 37.346 0.518 8.25 2.82 12.65
2/2/2021 7:45:00 AM 3 37.4 0.518 8.26 2.81 12.67
2/2/2021 8:00:00 AM 3.05 37.49 0.517 8.26 2.63 12.71
2/2/2021 8:15:00 AM 3.1 37.58 0.517 8.27 2.64 12.78
2/2/2021 8:30:00 AM 3.16 37.688 0.516 8.28 2.69 12.88
2/2/2021 8:45:00 AM 3.24 37.832 0.516 8.29 2.73 13.02
2/2/2021 9:00:00 AM 3.31 37.958 0.515 8.32 2.69 13.19
2/2/2021 9:15:00 AM 3.39 38.102 0.514 8.33 2.62 13.37
2/2/2021 9:30:00 AM 3.46 38.228 0.513 8.36 2.83 13.53
2/2/2021 9:45:00 AM 3.54 38.372 0.511 8.38 2.52 13.72
2/2/2021 10:00:00 AM 3.65 38.57 0.51 8.41 2.45 13.91
2/2/2021 10:15:00 AM 3.74 38.732 0.508 8.43 2.42 14.08
2/2/2021 10:30:00 AM 3.81 38.858 0.507 8.46 2.42 14.21
2/2/2021 10:45:00 AM 3.88 38.984 0.505 8.48 2.32 14.32
2/2/2021 11:00:00 AM 3.97 39.146 0.504 8.5 2.34 14.44
2/2/2021 11:15:00 AM 4.1 39.38 0.502 8.52 2.3 14.56
2/2/2021 11:30:00 AM 4.16 39.488 0.5 8.53 2.29 14.64
2/2/2021 11:45:00 AM 4.19 39.542 0.499 8.55 2.29 14.66
2/2/2021 12:00:00 PM 4.22 39.596 0.498 8.56 2.49 14.67
2/2/2021 12:15:00 PM 4.26 39.668 0.497 8.56 2.69 14.67
2/2/2021 12:30:00 PM 4.3 39.74 0.496 8.57 2.91 14.66
2/2/2021 12:45:00 PM 4.36 39.848 0.495 8.57 3.27 14.62
2/2/2021 1:00:00 PM 4.42 39.956 0.495 8.57 3.45 14.58
2/2/2021 1:15:00 PM 4.47 40.046 0.494 8.57 3.74 14.54
2/2/2021 1:30:00 PM 4.52 40.136 0.494 8.58 3.93 14.51
2/2/2021 1:45:00 PM 4.58 40.244 0.494 8.58 3.75 14.49
2/2/2021 2:00:00 PM 4.66 40.388 0.494 8.58 3.78 14.49
2/2/2021 2:15:00 PM 4.69 40.442 0.494 8.59 3.73 14.45
2/2/2021 2:30:00 PM 4.73 40.514 0.494 8.59 3.51 14.38
2/2/2021 2:45:00 PM 4.79 40.622 0.494 8.59 3.45 14.31
2/2/2021 3:00:00 PM 4.86 40.748 0.494 8.59 3.33 14.24
2/2/2021 3:15:00 PM 4.91 40.838 0.494 8.59 3.1 14.18
2/2/2021 3:30:00 PM 4.94 40.892 0.494 8.59 3.19 14.06
2/2/2021 3:45:00 PM 4.99 40.982 0.494 8.58 3.39 13.97
2/2/2021 4:00:00 PM 5.03 41.054 0.494 8.57 3.19 13.86
2/2/2021 4:15:00 PM 5.07 41.126 0.494 8.57 3.35 13.73
2/2/2021 4:30:00 PM 5.11 41.198 0.493 8.55 3.3 13.6
2/2/2021 4:45:00 PM 5.13 41.234 0.494 8.54 3.27 13.47
2/2/2021 5:00:00 PM 5.14 41.252 0.496 8.53 3.31 13.31
2/2/2021 5:15:00 PM 5.15 41.27 0.497 8.51 3.31 13.12
2/2/2021 5:30:00 PM 5.17 41.306 0.496 8.49 3.32 12.95
2/2/2021 5:45:00 PM 5.15 41.27 0.494 8.47 3.38 12.8
2/2/2021 6:00:00 PM 5.14 41.252 0.491 8.45 6.11 12.67
2/2/2021 6:15:00 PM 5.1 41.18 0.49 8.43 3.03 12.55
2/2/2021 6:30:00 PM 5.07 41.126 0.489 8.41 3.4 12.45
2/2/2021 6:45:00 PM 5.03 41.054 0.489 8.39 3.06 12.36
2/2/2021 7:00:00 PM 5 41 0.489 8.37 3.22 12.29
2/2/2021 7:15:00 PM 4.95 40.91 0.489 8.36 3.56 12.25
2/2/2021 7:30:00 PM 4.89 40.802 0.489 8.35 3.25 12.22
2/2/2021 7:45:00 PM 4.83 40.694 0.489 8.34 3.15 12.21
2/2/2021 8:00:00 PM 4.74 40.532 0.489 8.33 3.38 12.19
2/2/2021 8:15:00 PM 4.67 40.406 0.489 8.32 3.22 12.19
2/2/2021 8:30:00 PM 4.6 40.28 0.489 8.31 3.32 12.18
2/2/2021 8:45:00 PM 4.54 40.172 0.489 8.3 3.54 12.18
2/2/2021 9:00:00 PM 4.5 40.1 0.489 8.29 3.62 12.18
2/2/2021 9:15:00 PM 4.43 39.974 0.489 8.28 3.69 12.19
2/2/2021 9:30:00 PM 4.36 39.848 0.489 8.28 4.03 12.21
2/2/2021 9:45:00 PM 4.3 39.74 0.489 8.27 3.92 12.22
2/2/2021 10:00:00 PM 4.25 39.65 0.49 8.27 3.96 12.23
2/2/2021 10:15:00 PM 4.19 39.542 0.49 8.26 4.13 12.25
2/2/2021 10:30:00 PM 4.14 39.452 0.49 8.25 4.19 12.26
2/2/2021 10:45:00 PM 4.09 39.362 0.491 8.25 4 12.28
2/2/2021 11:00:00 PM 4.02 39.236 0.491 8.25 3.75 12.3
2/2/2021 11:15:00 PM 3.96 39.128 0.491 8.24 3.79 12.31
2/2/2021 11:30:00 PM 3.9 39.02 0.492 8.24 3.63 12.33
2/2/2021 11:45:00 PM 3.85 38.93 0.492 8.24 3.51 12.35
2/3/2021 12:00:00 AM 3.8 38.84 0.493 8.23 3.3 12.37
2/3/2021 12:15:00 AM 3.76 38.768 0.493 8.23 3.04 12.38
2/3/2021 12:30:00 AM 3.71 38.678 0.493 8.23 2.95 12.4
2/3/2021 12:45:00 AM 3.66 38.588 0.493 8.22 2.83 12.41
2/3/2021 1:00:00 AM 3.63 38.534 0.494 8.22 2.65 12.42
2/3/2021 1:15:00 AM 3.6 38.48 0.494 8.22 3.3 12.43
2/3/2021 1:30:00 AM 3.58 38.444 0.495 8.22 2.94 12.44
2/3/2021 1:45:00 AM 3.58 38.444 0.495 8.22 3.27 12.44
2/3/2021 2:00:00 AM 3.57 38.426 0.496 8.22 3.42 12.44
2/3/2021 2:15:00 AM 3.56 38.408 0.496 8.22 3.44 12.44
2/3/2021 2:30:00 AM 3.56 38.408 0.496 8.21 3.62 12.44
2/3/2021 2:45:00 AM 3.56 38.408 0.497 8.21 3.7 12.44
2/3/2021 3:00:00 AM 3.57 38.426 0.498 8.21 3.91 12.44
2/3/2021 3:15:00 AM 3.59 38.462 0.498 8.21 3.79 12.43
2/3/2021 3:30:00 AM 3.6 38.48 0.499 8.21 3.8 12.42
2/3/2021 3:45:00 AM 3.61 38.498 0.5 8.21 3.55 12.42
2/3/2021 4:00:00 AM 3.63 38.534 0.5 8.21 3.37 12.41
2/3/2021 4:15:00 AM 3.63 38.534 0.501 8.21 3.19 12.4
2/3/2021 4:30:00 AM 3.65 38.57 0.501 8.21 3.19 12.4
2/3/2021 4:45:00 AM 3.66 38.588 0.502 8.22 2.51 12.4
2/3/2021 5:00:00 AM 3.67 38.606 0.502 8.22 2.38 12.39
2/3/2021 5:15:00 AM 3.69 38.642 0.502 8.22 2.39 12.38
2/3/2021 5:30:00 AM 3.71 38.678 0.503 8.22 2.39 12.38
2/3/2021 5:45:00 AM 3.73 38.714 0.503 8.22 2.23 12.37
2/3/2021 6:00:00 AM 3.75 38.75 0.503 8.22 2.28 12.36
2/3/2021 6:15:00 AM 3.77 38.786 0.503 8.22 2.54 12.36
2/3/2021 6:30:00 AM 3.78 38.804 0.504 8.22 2.51 12.35
2/3/2021 6:45:00 AM 3.79 38.822 0.504 8.22 2.53 12.35
2/3/2021 7:00:00 AM 3.8 38.84 0.504 8.22 2.48 12.34
2/3/2021 7:15:00 AM 3.82 38.876 0.505 8.22 2.52 12.34
2/3/2021 7:30:00 AM 3.84 38.912 0.505 8.22 2.61 12.35
2/3/2021 7:45:00 AM 3.86 38.948 0.505 8.22 2.66 12.38
2/3/2021 8:00:00 AM 3.88 38.984 0.505 8.23 2.93 12.42
2/3/2021 8:15:00 AM 3.9 39.02 0.505 8.24 2.87 12.5
2/3/2021 8:30:00 AM 3.94 39.092 0.505 8.25 2.74 12.61
2/3/2021 8:45:00 AM 3.98 39.164 0.505 8.27 2.68 12.77
2/3/2021 9:00:00 AM 4 39.2 0.504 8.28 2.46 12.91
2/3/2021 9:15:00 AM 4.04 39.272 0.504 8.3 2.23 13.02
2/3/2021 9:30:00 AM 4.12 39.416 0.504 8.32 2.09 13.19
2/3/2021 9:45:00 AM 4.2 39.56 0.503 8.35 1.87 13.4
2/3/2021 10:00:00 AM 4.25 39.65 0.502 8.37 1.65 13.58
2/3/2021 10:15:00 AM 4.27 39.686 0.502 8.4 1.7 13.73
2/3/2021 10:30:00 AM 4.35 39.83 0.501 8.42 1.57 13.87
2/3/2021 10:45:00 AM 4.44 39.992 0.501 8.44 1.47 14.02
2/3/2021 11:00:00 AM 4.54 40.172 0.5 8.47 1.48 14.18
2/3/2021 11:15:00 AM 4.62 40.316 0.499 8.49 1.42 14.3
2/3/2021 11:30:00 AM 4.71 40.478 0.498 8.51 1.57 14.42
2/3/2021 11:45:00 AM 4.81 40.658 0.497 8.53 1.8 14.54
2/3/2021 12:00:00 PM 4.93 40.874 0.497 8.55 1.82 14.63
2/3/2021 12:15:00 PM 5.04 41.072 0.496 8.57 2.3 14.69
2/3/2021 12:30:00 PM 5.13 41.234 0.496 8.58 2.83 14.75
2/3/2021 12:45:00 PM 5.23 41.414 0.495 8.59 3.36 14.8
2/3/2021 1:00:00 PM 5.29 41.522 0.495 8.6 3.48 14.82
2/3/2021 1:15:00 PM 5.37 41.666 0.494 8.61 3.88 14.82
2/3/2021 1:30:00 PM 5.41 41.738 0.494 8.62 3.89 14.79
2/3/2021 1:45:00 PM 5.43 41.774 0.494 8.62 3.85 14.73
2/3/2021 2:00:00 PM 5.47 41.846 0.494 8.62 3.85 14.68
2/3/2021 2:15:00 PM 5.5 41.9 0.493 8.62 4.01 14.62
2/3/2021 2:30:00 PM 5.54 41.972 0.493 8.62 3.69 14.55
2/3/2021 2:45:00 PM 5.59 42.062 0.493 8.62 3.83 14.53
2/3/2021 3:00:00 PM 5.65 42.17 0.493 8.62 3.64 14.51
2/3/2021 3:15:00 PM 5.67 42.206 0.493 8.63 3.94 14.46
2/3/2021 3:30:00 PM 5.68 42.224 0.493 8.62 4 14.36
2/3/2021 3:45:00 PM 5.7 42.26 0.494 8.62 4.15 14.26
2/3/2021 4:00:00 PM 5.67 42.206 0.494 8.61 3.84 14.12
2/3/2021 4:15:00 PM 5.67 42.206 0.494 8.6 3.88 13.95
2/3/2021 4:30:00 PM 5.67 42.206 0.494 8.58 3.63 13.78
2/3/2021 4:45:00 PM 5.68 42.224 0.494 8.57 3.34 13.6
2/3/2021 5:00:00 PM 5.68 42.224 0.495 8.55 3.66 13.43
2/3/2021 5:15:00 PM 5.66 42.188 0.495 8.53 3.33 13.22
2/3/2021 5:30:00 PM 5.63 42.134 0.496 8.5 3.41 13.01
2/3/2021 5:45:00 PM 5.57 42.026 0.496 8.48 3.3 12.83
2/3/2021 6:00:00 PM 5.52 41.936 0.497 8.46 3.22 12.67
2/3/2021 6:15:00 PM 5.48 41.864 0.498 8.43 3.45 12.54
2/3/2021 6:30:00 PM 5.43 41.774 0.498 8.41 3.9 12.42
2/3/2021 6:45:00 PM 5.38 41.684 0.499 8.39 3.6 12.32
2/3/2021 7:00:00 PM 5.33 41.594 0.499 8.38 3.85 12.25
2/3/2021 7:15:00 PM 5.27 41.486 0.499 8.36 3.93 12.2
2/3/2021 7:30:00 PM 5.22 41.396 0.5 8.35 3.57 12.15
2/3/2021 7:45:00 PM 5.16 41.288 0.5 8.33 3.55 12.12
2/3/2021 8:00:00 PM 5.11 41.198 0.5 8.32 3.69 12.1
2/3/2021 8:15:00 PM 5.06 41.108 0.5 8.31 3.89 12.09
2/3/2021 8:30:00 PM 5.02 41.036 0.5 8.3 4.12 12.08
2/3/2021 8:45:00 PM 4.97 40.946 0.501 8.29 4.11 12.07
2/3/2021 9:00:00 PM 4.93 40.874 0.501 8.29 4.15 12.07
2/3/2021 9:15:00 PM 4.89 40.802 0.501 8.28 4.28 12.07
2/3/2021 9:30:00 PM 4.86 40.748 0.502 8.27 4.76 12.08
2/3/2021 9:45:00 PM 4.85 40.73 0.502 8.27 4.48 12.08
2/3/2021 10:00:00 PM 4.82 40.676 0.502 8.26 4.5 12.09
2/3/2021 10:15:00 PM 4.79 40.622 0.503 8.26 4.33 12.09
2/3/2021 10:30:00 PM 4.73 40.514 0.503 8.25 4.13 12.1
2/3/2021 10:45:00 PM 4.68 40.424 0.503 8.25 3.88 12.11
2/3/2021 11:00:00 PM 4.61 40.298 0.504 8.25 3.7 12.12
2/3/2021 11:15:00 PM 4.55 40.19 0.504 8.24 3.71 12.13
2/3/2021 11:30:00 PM 4.5 40.1 0.505 8.24 3.56 12.14
2/3/2021 11:45:00 PM 4.44 39.992 0.505 8.24 3.4 12.17
2/4/2021 12:00:00 AM 4.38 39.884 0.505 8.23 3.18 12.18
2/4/2021 12:15:00 AM 4.32 39.776 0.506 8.23 3.1 12.21
2/4/2021 12:30:00 AM 4.26 39.668 0.506 8.23 2.71 12.22
2/4/2021 12:45:00 AM 4.2 39.56 0.507 8.23 2.92 12.24
2/4/2021 1:00:00 AM 4.15 39.47 0.507 8.22 2.92 12.26
2/4/2021 1:15:00 AM 4.1 39.38 0.507 8.22 2.91 12.28
2/4/2021 1:30:00 AM 4.06 39.308 0.507 8.22 2.65 12.29
2/4/2021 1:45:00 AM 4.02 39.236 0.508 8.22 2.77 12.3
2/4/2021 2:00:00 AM 3.98 39.164 0.508 8.22 2.59 12.32
2/4/2021 2:15:00 AM 3.93 39.074 0.508 8.22 2.51 12.34
2/4/2021 2:30:00 AM 3.88 38.984 0.508 8.22 2.39 12.36
2/4/2021 2:45:00 AM 3.84 38.912 0.508 8.22 2.32 12.38
2/4/2021 3:00:00 AM 3.78 38.804 0.509 8.22 2.53 12.39
2/4/2021 3:15:00 AM 3.74 38.732 0.509 8.22 2.54 12.42
2/4/2021 3:30:00 AM 3.69 38.642 0.509 8.22 2.56 12.43
2/4/2021 3:45:00 AM 3.66 38.588 0.509 8.22 2.48 12.45
2/4/2021 4:00:00 AM 3.62 38.516 0.509 8.22 2.35 12.47
2/4/2021 4:15:00 AM 3.58 38.444 0.51 8.22 2.43 12.48
2/4/2021 4:30:00 AM 3.55 38.39 0.51 8.22 2.49 12.5
2/4/2021 4:45:00 AM 3.52 38.336 0.51 8.22 2.53 12.52
2/4/2021 5:00:00 AM 3.5 38.3 0.51 8.22 2.74 12.53
2/4/2021 5:15:00 AM 3.46 38.228 0.51 8.22 2.62 12.54
2/4/2021 5:30:00 AM 3.43 38.174 0.51 8.22 2.42 12.55
2/4/2021 5:45:00 AM 3.41 38.138 0.511 8.22 2.53 12.57
2/4/2021 6:00:00 AM 3.37 38.066 0.511 8.22 2.44 12.58
2/4/2021 6:15:00 AM 3.34 38.012 0.511 8.22 2.42 12.59
2/4/2021 6:30:00 AM 3.3 37.94 0.511 8.22 2.31 12.61
2/4/2021 6:45:00 AM 3.26 37.868 0.512 8.22 2.22 12.63
2/4/2021 7:00:00 AM 3.22 37.796 0.512 8.22 2.44 12.64
2/4/2021 7:15:00 AM 3.17 37.706 0.512 8.22 2.34 12.67
2/4/2021 7:30:00 AM 3.13 37.634 0.512 8.22 2.35 12.7
2/4/2021 7:45:00 AM 3.08 37.544 0.512 8.23 2.37 12.76
2/4/2021 8:00:00 AM 3.02 37.436 0.512 8.23 2.22 12.84
2/4/2021 8:15:00 AM 2.97 37.346 0.512 8.24 2.25 12.94
2/4/2021 8:30:00 AM 2.93 37.274 0.512 8.25 2.26 13.04
2/4/2021 8:45:00 AM 2.89 37.202 0.512 8.26 2.28 13.12
2/4/2021 9:00:00 AM 2.85 37.13 0.512 8.27 2.35 13.23
2/4/2021 9:15:00 AM 2.84 37.112 0.512 8.28 2.46 13.34
2/4/2021 9:30:00 AM 2.86 37.148 0.512 8.29 3.4 13.45
2/4/2021 9:45:00 AM 2.9 37.22 0.512 8.3 2.46 13.57
2/4/2021 10:00:00 AM 2.97 37.346 0.512 8.32 3.31 13.71
2/4/2021 10:15:00 AM 3.08 37.544 0.511 8.34 2.36 13.85
2/4/2021 10:30:00 AM 3.2 37.76 0.51 8.36 2.82 13.94
2/4/2021 10:45:00 AM 3.31 37.958 0.51 8.37 2.39 14.06
2/4/2021 11:00:00 AM 3.46 38.228 0.509 8.39 2.07 14.15
2/4/2021 11:15:00 AM 3.63 38.534 0.508 8.41 2.07 14.23
2/4/2021 11:30:00 AM 3.8 38.84 0.508 8.42 3.3 14.3
2/4/2021 11:45:00 AM 4 39.2 0.507 8.44 3.08 14.38
2/4/2021 12:00:00 PM 4.2 39.56 0.507 8.45 3.08 14.46
2/4/2021 12:15:00 PM 4.4 39.92 0.507 8.47 3.37 14.49
2/4/2021 12:30:00 PM 4.59 40.262 0.507 8.48 3.57 14.54
2/4/2021 12:45:00 PM 4.77 40.586 0.506 8.49 3.73 14.58
2/4/2021 1:00:00 PM 4.98 40.964 0.506 8.51 3.91 14.6
2/4/2021 1:15:00 PM 5.2 41.36 0.505 8.52 4.19 14.61
2/4/2021 1:30:00 PM 5.42 41.756 0.504 8.53 3.78 14.62
2/4/2021 1:45:00 PM 5.64 42.152 0.504 8.55 3.75 14.62
2/4/2021 2:00:00 PM 5.85 42.53 0.503 8.56 3.93 14.59
2/4/2021 2:15:00 PM 6.03 42.854 0.502 8.57 3.56 14.54
2/4/2021 2:30:00 PM 6.17 43.106 0.502 8.58 3.49 14.47
2/4/2021 2:45:00 PM 6.33 43.394 0.501 8.59 3.57 14.4
2/4/2021 3:00:00 PM 6.48 43.664 0.501 8.59 3.93 14.29
2/4/2021 3:15:00 PM 6.59 43.862 0.501 8.59 3.97 14.18
2/4/2021 3:30:00 PM 6.67 44.006 0.501 8.59 3.8 14.06
2/4/2021 3:45:00 PM 6.72 44.096 0.501 8.58 4.02 13.9
2/4/2021 4:00:00 PM 6.75 44.15 0.501 8.57 3.76 13.73
2/4/2021 4:15:00 PM 6.76 44.168 0.501 8.56 3.4 13.54
2/4/2021 4:30:00 PM 6.78 44.204 0.502 8.55 3.28 13.36
2/4/2021 4:45:00 PM 6.78 44.204 0.502 8.53 3.1 13.14
2/4/2021 5:00:00 PM 6.76 44.168 0.503 8.51 2.73 12.93
2/4/2021 5:15:00 PM 6.73 44.114 0.504 8.48 2.75 12.71
2/4/2021 5:30:00 PM 6.7 44.06 0.505 8.46 2.69 12.49
2/4/2021 5:45:00 PM 6.67 44.006 0.505 8.43 2.7 12.29
2/4/2021 6:00:00 PM 6.64 43.952 0.506 8.41 2.73 12.11
2/4/2021 6:15:00 PM 6.61 43.898 0.506 8.39 2.78 11.97
2/4/2021 6:30:00 PM 6.59 43.862 0.507 8.37 2.82 11.86
2/4/2021 6:45:00 PM 6.58 43.844 0.507 8.35 3.1 11.78
2/4/2021 7:00:00 PM 6.57 43.826 0.507 8.34 3.06 11.71
2/4/2021 7:15:00 PM 6.55 43.79 0.507 8.32 2.94 11.66
2/4/2021 7:30:00 PM 6.51 43.718 0.507 8.31 3.14 11.62
2/4/2021 7:45:00 PM 6.47 43.646 0.507 8.31 3.1 11.61
2/4/2021 8:00:00 PM 6.42 43.556 0.507 8.3 3.33 11.59
2/4/2021 8:15:00 PM 6.37 43.466 0.507 8.29 2.95 11.59
2/4/2021 8:30:00 PM 6.31 43.358 0.507 8.28 3 11.59
2/4/2021 8:45:00 PM 6.25 43.25 0.507 8.28 2.97 11.6
2/4/2021 9:00:00 PM 6.19 43.142 0.506 8.27 2.95 11.61
2/4/2021 9:15:00 PM 6.12 43.016 0.506 8.27 2.82 11.63
2/4/2021 9:30:00 PM 6.04 42.872 0.506 8.26 2.93 11.66
2/4/2021 9:45:00 PM 5.96 42.728 0.506 8.26 3.07 11.68
2/4/2021 10:00:00 PM 5.87 42.566 0.506 8.25 2.85 11.71
2/4/2021 10:15:00 PM 5.78 42.404 0.507 8.25 2.92 11.74
2/4/2021 10:30:00 PM 5.69 42.242 0.507 8.24 3.01 11.78
2/4/2021 10:45:00 PM 5.59 42.062 0.508 8.24 2.96 11.81
2/4/2021 11:00:00 PM 5.5 41.9 0.508 8.23 3.11 11.84
2/4/2021 11:15:00 PM 5.41 41.738 0.508 8.23 3.35 11.87
2/4/2021 11:30:00 PM 5.32 41.576 0.509 8.22 3.61 11.89
2/4/2021 11:45:00 PM 5.24 41.432 0.509 8.22 3.57 11.92
2/5/2021 12:00:00 AM 5.17 41.306 0.509 8.21 3.49 11.95
2/5/2021 12:15:00 AM 5.11 41.198 0.51 8.21 3.25 11.96
2/5/2021 12:30:00 AM 5.04 41.072 0.51 8.21 3.08 11.99
2/5/2021 12:45:00 AM 4.99 40.982 0.51 8.2 3.04 12.01
2/5/2021 1:00:00 AM 4.95 40.91 0.51 8.2 2.83 12.02
2/5/2021 1:15:00 AM 4.91 40.838 0.51 8.2 2.94 12.04
2/5/2021 1:30:00 AM 4.87 40.766 0.51 8.2 2.62 12.06
2/5/2021 1:45:00 AM 4.84 40.712 0.51 8.2 2.63 12.07
2/5/2021 2:00:00 AM 4.82 40.676 0.51 8.19 2.49 12.07
2/5/2021 2:15:00 AM 4.8 40.64 0.51 8.19 2.59 12.08
2/5/2021 2:30:00 AM 4.79 40.622 0.51 8.19 2.74 12.08
2/5/2021 2:45:00 AM 4.78 40.604 0.51 8.19 2.8 12.08
2/5/2021 3:00:00 AM 4.78 40.604 0.51 8.19 3.05 12.08
2/5/2021 3:15:00 AM 4.78 40.604 0.51 8.19 3.3 12.08
2/5/2021 3:30:00 AM 4.78 40.604 0.51 8.19 3.69 12.08
2/5/2021 3:45:00 AM 4.77 40.586 0.51 8.19 3.64 12.07
2/5/2021 4:00:00 AM 4.77 40.586 0.51 8.19 3.79 12.07
2/5/2021 4:15:00 AM 4.79 40.622 0.51 8.19 4.09 12.07
2/5/2021 4:30:00 AM 4.8 40.64 0.51 8.19 3.95 12.06
2/5/2021 4:45:00 AM 4.79 40.622 0.51 8.19 3.89 12.05
2/5/2021 5:00:00 AM 4.75 40.55 0.51 8.19 3.64 12.05
2/5/2021 5:15:00 AM 4.69 40.442 0.509 8.19 3.63 12.04
2/5/2021 5:30:00 AM 4.63 40.334 0.509 8.2 3.47 12.04
2/5/2021 5:45:00 AM 4.58 40.244 0.508 8.2 3.28 12.04
2/5/2021 6:00:00 AM 4.51 40.118 0.508 8.2 3.31 12.05
2/5/2021 6:15:00 AM 4.31 39.758 0.506 8.2 2.9 12.05
2/5/2021 6:30:00 AM 4.21 39.578 0.506 8.2 2.87 12.08
2/5/2021 6:45:00 AM 4.27 39.686 0.506 8.2 2.83 12.09
2/5/2021 7:00:00 AM 4.33 39.794 0.506 8.2 2.86 12.1
2/5/2021 7:15:00 AM 4.37 39.866 0.506 8.2 2.89 12.11
2/5/2021 7:30:00 AM 4.38 39.884 0.506 8.2 2.84 12.13
2/5/2021 7:45:00 AM 4.41 39.938 0.506 8.2 2.61 12.14
2/5/2021 8:00:00 AM 4.45 40.01 0.507 8.21 2.6 12.19
2/5/2021 8:15:00 AM 4.5 40.1 0.507 8.21 2.55 12.28
2/5/2021 8:30:00 AM 4.56 40.208 0.507 8.23 2.67 12.42
2/5/2021 8:45:00 AM 4.56 40.208 0.507 8.24 2.51 12.5
2/5/2021 9:00:00 AM 4.58 40.244 0.508 8.25 2.44 12.56
2/5/2021 9:15:00 AM 4.61 40.298 0.508 8.26 2.33 12.65
2/5/2021 9:30:00 AM 4.64 40.352 0.508 8.27 2.21 12.76
2/5/2021 9:45:00 AM 4.69 40.442 0.508 8.29 2.13 12.89
2/5/2021 10:00:00 AM 4.77 40.586 0.508 8.31 2.2 13.03
2/5/2021 10:15:00 AM 4.87 40.766 0.507 8.33 2.07 13.15
2/5/2021 10:30:00 AM 4.98 40.964 0.506 8.34 2.07 13.26
2/5/2021 10:45:00 AM 5.08 41.144 0.505 8.36 1.96